Provisional Data: Quittapahilla Creek near Syner, PA


Please select a monitoring station.
Please select start date.
Please select start date.

Toggle Unit: C/F Toggle Unit: C/F
Sample Time Temperature (C) Temperature (F) Specific Conductivity (mS/cm) pH   Turbidity (NTU+) DO (mg/L)
5/4/2021 12:00:00 AM 14.57 58.226 0.561 7.7 27.31 8.33
5/4/2021 12:15:00 AM 14.57 58.226 0.559 7.7 29.16 8.29
5/4/2021 12:30:00 AM 14.61 58.298 0.547 7.7 38.57 8.22
5/4/2021 12:45:00 AM 14.71 58.478 0.519 7.69 41.55 8.13
5/4/2021 1:00:00 AM 14.79 58.622 0.504 7.68 46.43 8.05
5/4/2021 1:15:00 AM 14.82 58.676 0.499 7.67 54.45 8.01
5/4/2021 1:30:00 AM 14.85 58.73 0.49 7.65 63.53 8.01
5/4/2021 1:45:00 AM 14.86 58.748 0.488 7.64 72.5 8.01
5/4/2021 2:00:00 AM 14.89 58.802 0.491 7.64 54.07 7.97
5/4/2021 2:15:00 AM 14.96 58.928 0.486 7.63 58.49 7.92
5/4/2021 2:30:00 AM 15.04 59.072 0.483 7.62 39.84 7.84
5/4/2021 2:45:00 AM 15.08 59.144 0.489 7.6 46.81 7.78
5/4/2021 3:00:00 AM 15.1 59.18 0.488 7.6 63.16 7.71
5/4/2021 3:15:00 AM 15.12 59.216 0.471 7.59 69.51 7.58
5/4/2021 3:30:00 AM 15.14 59.252 0.44 7.59 48.39 7.43
5/4/2021 3:45:00 AM 15.18 59.324 0.406 7.58 53.18 7.32
5/4/2021 4:00:00 AM 15.22 59.396 0.378 7.56 44.75 7.25
5/4/2021 4:15:00 AM 15.24 59.432 0.358 7.54 48.21 7.22
5/4/2021 4:30:00 AM 15.24 59.432 0.347 7.54 40.91 7.21
5/4/2021 4:45:00 AM 15.23 59.414 0.342 7.52 34.3 7.22
5/4/2021 5:00:00 AM 15.2 59.36 0.341 7.5 29.73 7.23
5/4/2021 5:15:00 AM 15.17 59.306 0.343 7.48 37.09 7.25
5/4/2021 5:30:00 AM 15.12 59.216 0.349 7.46 29.03 7.28
5/4/2021 5:45:00 AM 15.07 59.126 0.354 7.47 28.82 7.3
5/4/2021 6:00:00 AM 15.02 59.036 0.359 7.47 24.78 7.32
5/4/2021 6:15:00 AM 14.97 58.946 0.364 7.46 24.56 7.33
5/4/2021 6:30:00 AM 14.92 58.856 0.368 7.46 22.98 7.36
5/4/2021 6:45:00 AM 14.87 58.766 0.373 7.45 23.58 7.38
5/4/2021 7:00:00 AM 14.82 58.676 0.378 7.43 16.11 7.41
5/4/2021 7:15:00 AM 14.77 58.586 0.383 7.43 18.27 7.45
5/4/2021 7:30:00 AM 14.73 58.514 0.389 7.43 15.87 7.5
5/4/2021 7:45:00 AM 14.69 58.442 0.394 7.43 21.96 7.56
5/4/2021 8:00:00 AM 14.66 58.388 0.399 7.43 15.01 7.63
5/4/2021 8:15:00 AM 14.64 58.352 0.405 7.43 13.31 7.72
5/4/2021 8:30:00 AM 14.63 58.334 0.41 7.44 12.94 7.8
5/4/2021 8:45:00 AM 14.63 58.334 0.415 7.45 10.43 7.92
5/4/2021 9:00:00 AM 14.62 58.316 0.42 7.42 11.21 7.99
5/4/2021 9:15:00 AM 14.62 58.316 0.425 7.43 13.77 8.06
5/4/2021 9:30:00 AM 14.64 58.352 0.43 7.45 11.2 8.18
5/4/2021 9:45:00 AM 14.67 58.406 0.434 7.46 10.71 8.29
5/4/2021 10:00:00 AM 14.73 58.514 0.439 7.48 10.52 8.44
5/4/2021 10:15:00 AM 14.81 58.658 0.444 7.5 10.97 8.6
5/4/2021 10:30:00 AM 14.9 58.82 0.449 7.49 7.47 8.74
5/4/2021 10:45:00 AM 14.98 58.964 0.455 7.51 10 8.86
5/4/2021 11:00:00 AM 15.08 59.144 0.46 7.53 9.62 9.01
5/4/2021 11:15:00 AM 15.24 59.432 0.466 7.55 10.16 9.17
5/4/2021 11:30:00 AM 15.44 59.792 0.471 7.57 9.74 9.35
5/4/2021 11:45:00 AM 15.59 60.062 0.476 7.6 9.58 9.51
5/4/2021 12:00:00 PM 15.8 60.44 0.48 7.63 9.85 9.7
5/4/2021 12:15:00 PM 16.02 60.836 0.484 7.65 9.14 9.86
5/4/2021 12:30:00 PM 16.18 61.124 0.489 7.66 10.6 9.98
5/4/2021 12:45:00 PM 16.29 61.322 0.493 7.67 7.95 10.07
5/4/2021 1:00:00 PM 16.43 61.574 0.496 7.69 7.09 10.18
5/4/2021 1:15:00 PM 16.62 61.916 0.5 7.71 8.84 10.31
5/4/2021 1:30:00 PM 16.74 62.132 0.504 7.74 7.05 10.41
5/4/2021 1:45:00 PM 16.82 62.276 0.508 7.75 6.5 10.48
5/4/2021 2:00:00 PM 16.86 62.348 0.512 7.76 7.08 10.54
5/4/2021 2:15:00 PM 16.9 62.42 0.517 7.78 6.77 10.59
5/4/2021 2:30:00 PM 16.91 62.438 0.523 7.79 6.58 10.6
5/4/2021 2:45:00 PM 16.98 62.564 0.527 7.8 6.11 10.64
5/4/2021 3:00:00 PM 17.07 62.726 0.532 7.81 6.22 10.72
5/4/2021 3:15:00 PM 17.13 62.834 0.536 7.83 6.43 10.77
5/4/2021 3:30:00 PM 17.14 62.852 0.541 7.84 5.71 10.75
5/4/2021 3:45:00 PM 17.08 62.744 0.544 7.84 5.33 10.61
5/4/2021 4:00:00 PM 17.17 62.906 0.547 7.84 4.48 10.61
5/4/2021 4:15:00 PM 17.19 62.942 0.55 7.84 4.28 10.6
5/4/2021 4:30:00 PM 17.17 62.906 0.552 7.84 4.74 10.52
5/4/2021 4:45:00 PM 17.23 63.014 0.555 7.85 5.99 10.51
5/4/2021 5:00:00 PM 17.26 63.068 0.557 7.87 6.35 10.47
5/4/2021 5:15:00 PM 17.24 63.032 0.559 7.87 5.79 10.38
5/4/2021 5:30:00 PM 17.25 63.05 0.561 7.87 7.81 10.3
5/4/2021 5:45:00 PM 17.23 63.014 0.562 7.87 4.02 10.21
5/4/2021 6:00:00 PM 17.19 62.942 0.563 7.86 24.52 10.07
5/4/2021 6:15:00 PM 17.14 62.852 0.565 7.86 3.91 9.95
5/4/2021 6:30:00 PM 17.09 62.762 0.568 7.86 5.7 9.8
5/4/2021 6:45:00 PM 17.04 62.672 0.569 7.85 4.07 9.63
5/4/2021 7:00:00 PM 17 62.6 0.571 7.84 5.12 9.51
5/4/2021 7:15:00 PM 16.98 62.564 0.571 7.83 6.48 9.37
5/4/2021 7:30:00 PM 16.96 62.528 0.572 7.83 4.02 9.22
5/4/2021 7:45:00 PM 16.93 62.474 0.574 7.83 4.91 9.05
5/4/2021 8:00:00 PM 16.92 62.456 0.574 7.81 6.38 8.91
5/4/2021 8:15:00 PM 16.89 62.402 0.575 7.81 3.81 8.77
5/4/2021 8:30:00 PM 16.86 62.348 0.576 7.79 4.09 8.65
5/4/2021 8:45:00 PM 16.83 62.294 0.577 7.79 5.32 8.55
5/4/2021 9:00:00 PM 16.79 62.222 0.578 7.77 4.93 8.44
5/4/2021 9:15:00 PM 16.76 62.168 0.579 7.76 5.06 8.34
5/4/2021 9:30:00 PM 16.72 62.096 0.579 7.76 6.59 8.25
5/4/2021 9:45:00 PM 16.69 62.042 0.581 7.74 7.72 8.18
5/4/2021 10:00:00 PM 16.66 61.988 0.581 7.74 6.51 8.11
5/4/2021 10:15:00 PM 16.64 61.952 0.576 7.73 5.61 8.07
5/4/2021 10:30:00 PM 16.62 61.916 0.577 7.72 7.7 8.02
5/4/2021 10:45:00 PM 16.6 61.88 0.583 7.72 4.65 7.96
5/4/2021 11:00:00 PM 16.57 61.826 0.584 7.71 10.17 7.92
5/4/2021 11:15:00 PM 16.54 61.772 0.584 7.71 6.47 7.89
5/4/2021 11:30:00 PM 16.52 61.736 0.584 7.71 5.12 7.86
5/4/2021 11:45:00 PM 16.5 61.7 0.588 7.7 7.01 7.83
5/5/2021 12:00:00 AM 16.47 61.646 0.59 7.7 5.75 7.8
5/5/2021 12:15:00 AM 16.43 61.574 0.588 7.7 10.36 7.78
5/5/2021 12:30:00 AM 16.4 61.52 0.59 7.64 7.39 7.76
5/5/2021 12:45:00 AM 16.36 61.448 0.589 7.69 5.57 7.75
5/5/2021 1:00:00 AM 16.32 61.376 0.589 7.68 5.47 7.74
5/5/2021 1:15:00 AM 16.28 61.304 0.591 7.69 5.71 7.73
5/5/2021 1:30:00 AM 16.24 61.232 0.59 7.68 7.23 7.71
5/5/2021 1:45:00 AM 16.21 61.178 0.591 7.68 7.25 7.69
5/5/2021 2:00:00 AM 16.17 61.106 0.592 7.68 6.3 7.66
5/5/2021 2:15:00 AM 16.13 61.034 0.593 7.68 6.27 7.66
5/5/2021 2:30:00 AM 16.1 60.98 0.595 7.68 6.45 7.66
5/5/2021 2:45:00 AM 16.06 60.908 0.596 7.67 6.05 7.67
5/5/2021 3:00:00 AM 16.03 60.854 0.595 7.68 8.09 7.67
5/5/2021 3:15:00 AM 16 60.8 0.595 7.66 6.91 7.66
5/5/2021 3:30:00 AM 15.97 60.746 0.595 7.66 8.12 7.68
5/5/2021 3:45:00 AM 15.94 60.692 0.597 7.66 6.43 7.68
5/5/2021 4:00:00 AM 15.9 60.62 0.597 7.65 5.34 7.69
5/5/2021 4:15:00 AM 15.87 60.566 0.597 7.65 6.15 7.69
5/5/2021 4:30:00 AM 15.83 60.494 0.597 7.65 5.84 7.7
5/5/2021 4:45:00 AM 15.79 60.422 0.598 7.64 6.54 7.71
5/5/2021 5:00:00 AM 15.76 60.368 0.597 7.65 6.83 7.72
5/5/2021 5:15:00 AM 15.73 60.314 0.599 7.64 7.67 7.73
5/5/2021 5:30:00 AM 15.7 60.26 0.599 7.64 6.61 7.73
5/5/2021 5:45:00 AM 15.68 60.224 0.599 7.64 8.41 7.75
5/5/2021 6:00:00 AM 15.66 60.188 0.599 7.63 5.76 7.75
5/5/2021 6:15:00 AM 15.64 60.152 0.6 7.64 6.34 7.75
5/5/2021 6:30:00 AM 15.61 60.098 0.6 7.64 6.22 7.77
5/5/2021 6:45:00 AM 15.59 60.062 0.6 7.64 5.03 7.79
5/5/2021 7:00:00 AM 15.58 60.044 0.6 7.64 4.89 7.8
5/5/2021 7:15:00 AM 15.56 60.008 0.601 7.64 3.95 7.86
5/5/2021 7:30:00 AM 15.54 59.972 0.6 7.64 4.38 7.89
5/5/2021 7:45:00 AM 15.52 59.936 0.599 7.65 4.35 7.94
5/5/2021 8:00:00 AM 15.51 59.918 0.599 7.65 4.04 7.99
5/5/2021 8:15:00 AM 15.5 59.9 0.6 7.66 7.95 8.06
5/5/2021 8:30:00 AM 15.49 59.882 0.599 7.68 3.59 8.11
5/5/2021 8:45:00 AM 15.47 59.846 0.599 7.67 3.26 8.15
5/5/2021 9:00:00 AM 15.46 59.828 0.598 7.66 3.12 8.19
5/5/2021 9:15:00 AM 15.45 59.81 0.599 7.66 3.49 8.24
5/5/2021 9:30:00 AM 15.43 59.774 0.598 7.67 2.55 8.28
5/5/2021 9:45:00 AM 15.43 59.774 0.598 7.68 3.63 8.34
5/5/2021 10:00:00 AM 15.41 59.738 0.598 7.68 3.3 8.34
5/5/2021 10:15:00 AM 15.39 59.702 0.592 7.69 3.13 8.41
5/5/2021 10:30:00 AM 15.37 59.666 0.588 7.7 4.2 8.49
5/5/2021 10:45:00 AM 15.36 59.648 0.588 7.7 4.68 8.56
5/5/2021 11:00:00 AM 15.35 59.63 0.585 7.7 17.56 8.56
5/5/2021 11:15:00 AM 15.35 59.63 0.585 7.69 22.17 8.68
5/5/2021 11:30:00 AM 15.39 59.702 0.582 7.71 17.26 8.86
5/5/2021 11:45:00 AM 15.41 59.738 0.58 7.72 14.13 8.97
5/5/2021 12:00:00 PM 15.49 59.882 0.58 7.73 12.88 9.13
5/5/2021 12:15:00 PM 15.59 60.062 0.579 7.74 11.27 9.33
5/5/2021 12:30:00 PM 15.68 60.224 0.58 7.75 7.99 9.51
5/5/2021 12:45:00 PM 15.75 60.35 0.582 7.77 7.94 9.69
5/5/2021 1:00:00 PM 15.83 60.494 0.582 7.77 5.48 9.77
5/5/2021 1:15:00 PM 15.92 60.656 0.581 7.79 5.89 9.87
5/5/2021 1:30:00 PM 16.03 60.854 0.582 7.8 5.49 9.97
5/5/2021 1:45:00 PM 16.04 60.872 0.579 7.81 8.57 9.97
5/5/2021 2:00:00 PM 16.05 60.89 0.581 7.81 8.6 10
5/5/2021 2:15:00 PM 16.13 61.034 0.581 7.82 8.31 10.09
5/5/2021 2:30:00 PM 16.13 61.034 0.581 7.83 5.82 10.14
5/5/2021 2:45:00 PM 16.2 61.16 0.581 7.81 6.17 10.22
5/5/2021 3:00:00 PM 16.32 61.376 0.58 7.83 7.1 10.28
5/5/2021 3:15:00 PM 16.33 61.394 0.571 7.84 5.96 10.25
5/5/2021 3:30:00 PM 16.39 61.502 0.558 7.85 7.77 10.17
5/5/2021 3:45:00 PM 16.42 61.556 0.549 7.84 8.53 10.02
5/5/2021 4:00:00 PM 16.36 61.448 0.547 7.83 12.65 9.81
5/5/2021 4:15:00 PM 16.29 61.322 0.553 7.81 13.31 9.6
5/5/2021 4:30:00 PM 16.2 61.16 0.561 7.79 14.14 9.49
5/5/2021 4:45:00 PM 16.12 61.016 0.571 7.79 15.87 9.41
5/5/2021 5:00:00 PM 16.09 60.962 0.572 7.78 17.43 9.36
5/5/2021 5:15:00 PM 16.08 60.944 0.572 7.78 11.13 9.25
5/5/2021 5:30:00 PM 16.07 60.926 0.568 7.78 14.03 9.12
5/5/2021 5:45:00 PM 16.08 60.944 0.566 7.78 13.37 9.04
5/5/2021 6:00:00 PM 16.09 60.962 0.56 7.78 13.18 8.96
5/5/2021 6:15:00 PM 16.08 60.944 0.558 7.77 10.98 8.85
5/5/2021 6:30:00 PM 16.05 60.89 0.56 7.77 11.34 8.76
5/5/2021 6:45:00 PM 16 60.8 0.564 7.77 13.46 8.7
5/5/2021 7:00:00 PM 15.96 60.728 0.569 7.76 9.75 8.68
5/5/2021 7:15:00 PM 15.9 60.62 0.571 7.76 10.72 8.65
5/5/2021 7:30:00 PM 15.85 60.53 0.57 7.74 10.27 8.6
5/5/2021 7:45:00 PM 15.8 60.44 0.566 7.73 10.68 8.54
5/5/2021 8:00:00 PM 15.76 60.368 0.557 7.74 9.41 8.45
5/5/2021 8:15:00 PM 15.72 60.296 0.547 7.73 11.41 8.36
5/5/2021 8:30:00 PM 15.7 60.26 0.532 7.72 10.56 8.28
5/5/2021 8:45:00 PM 15.68 60.224 0.516 7.71 11.22 8.19
5/5/2021 9:00:00 PM 15.67 60.206 0.501 7.69 11.5 8.1
5/5/2021 9:15:00 PM 15.66 60.188 0.489 7.67 10.66 8.03
5/5/2021 9:30:00 PM 15.63 60.134 0.48 7.66 12.31 7.97
5/5/2021 9:45:00 PM 15.61 60.098 0.472 7.64 10.56 7.91
5/5/2021 10:00:00 PM 15.57 60.026 0.467 7.63 10.66 7.86
5/5/2021 10:15:00 PM 15.54 59.972 0.465 7.62 12.86 7.83
5/5/2021 10:30:00 PM 15.5 59.9 0.465 7.6 11.78 7.82
5/5/2021 10:45:00 PM 15.45 59.81 0.467 7.59 11.57 7.82
5/5/2021 11:00:00 PM 15.39 59.702 0.469 7.58 12.04 7.83
5/5/2021 11:15:00 PM 15.33 59.594 0.475 7.58 8.66 7.84
5/5/2021 11:30:00 PM 15.28 59.504 0.48 7.58 9.18 7.87
5/5/2021 11:45:00 PM 15.21 59.378 0.487 7.57 9.81 7.9
5/6/2021 12:00:00 AM 15.15 59.27 0.492 7.58 8.19 7.92
5/6/2021 12:15:00 AM 15.09 59.162 0.496 7.57 6.4 7.94
5/6/2021 12:30:00 AM 15.02 59.036 0.501 7.58 8.7 7.97
5/6/2021 12:45:00 AM 14.97 58.946 0.506 7.59 7.94 7.99
5/6/2021 1:00:00 AM 14.91 58.838 0.509 7.59 7.41 8.01
5/6/2021 1:15:00 AM 14.85 58.73 0.511 7.6 7.04 8.02
5/6/2021 1:30:00 AM 14.78 58.604 0.514 7.59 9.49 8.03
5/6/2021 1:45:00 AM 14.72 58.496 0.516 7.59 8.28 8.05
5/6/2021 2:00:00 AM 14.66 58.388 0.517 7.6 6.36 8.05
5/6/2021 2:15:00 AM 14.6 58.28 0.518 7.59 7.57 8.07
5/6/2021 2:30:00 AM 14.53 58.154 0.52 7.6 7.94 8.08
5/6/2021 2:45:00 AM 14.45 58.01 0.522 7.6 6.67 8.1
5/6/2021 3:00:00 AM 14.39 57.902 0.523 7.57 6.76 8.12
5/6/2021 3:15:00 AM 14.32 57.776 0.523 7.61 5.84 8.12
5/6/2021 3:30:00 AM 14.26 57.668 0.527 7.62 8.34 8.13
5/6/2021 3:45:00 AM 14.2 57.56 0.53 7.61 7.82 8.13
5/6/2021 4:00:00 AM 14.14 57.452 0.535 7.61 8.66 8.14
5/6/2021 4:15:00 AM 14.07 57.326 0.539 7.62 7.82 8.15
5/6/2021 4:30:00 AM 14 57.2 0.542 7.63 8.99 8.16
5/6/2021 4:45:00 AM 13.93 57.074 0.546 7.63 11.29 8.16
5/6/2021 5:00:00 AM 13.86 56.948 0.55 7.62 5.96 8.2
5/6/2021 5:15:00 AM 13.79 56.822 0.55 7.63 7.61 8.22
5/6/2021 5:30:00 AM 13.72 56.696 0.554 7.62 8.16 8.24
5/6/2021 5:45:00 AM 13.67 56.606 0.566 7.64 7.59 8.27
5/6/2021 6:00:00 AM 13.6 56.48 0.568 7.64 4.27 8.3
5/6/2021 6:15:00 AM 13.54 56.372 0.57 7.64 5.76 8.33
5/6/2021 6:30:00 AM 13.48 56.264 0.569 7.63 5.66 8.37
5/6/2021 6:45:00 AM 13.44 56.192 0.573 7.63 5.87 8.42
5/6/2021 7:00:00 AM 13.39 56.102 0.573 7.63 5.16 8.48
5/6/2021 7:15:00 AM 13.35 56.03 0.575 7.64 4.4 8.55
5/6/2021 7:30:00 AM 13.32 55.976 0.577 7.63 4.17 8.65
5/6/2021 7:45:00 AM 13.3 55.94 0.578 7.64 4.06 8.75
5/6/2021 8:00:00 AM 13.29 55.922 0.579 7.65 4.48 8.9
5/6/2021 8:15:00 AM 13.28 55.904 0.58 7.65 3.57 9.01
5/6/2021 8:30:00 AM 13.29 55.922 0.582 7.65 3 9.14
5/6/2021 8:45:00 AM 13.29 55.922 0.583 7.67 3.48 9.26
5/6/2021 9:00:00 AM 13.33 55.994 0.584 7.69 3.12 9.4
5/6/2021 9:15:00 AM 13.38 56.084 0.585 7.69 2.84 9.57
5/6/2021 9:30:00 AM 13.48 56.264 0.586 7.7 3.81 9.75
5/6/2021 9:45:00 AM 13.6 56.48 0.588 7.73 2.79 9.93
5/6/2021 10:00:00 AM 13.7 56.66 0.588 7.74 3.27 10.1
5/6/2021 10:15:00 AM 13.76 56.768 0.589 7.75 1.97 10.19
5/6/2021 10:30:00 AM 13.81 56.858 0.589 7.76 2.93 10.3
5/6/2021 10:45:00 AM 13.94 57.092 0.589 7.78 3.28 10.47
5/6/2021 11:00:00 AM 14.1 57.38 0.59 7.8 1.68 10.63
5/6/2021 11:15:00 AM 14.26 57.668 0.592 7.82 3.6 10.8
5/6/2021 11:30:00 AM 14.43 57.974 0.592 7.85 2.11 10.93
5/6/2021 11:45:00 AM 14.57 58.226 0.593 7.86 2.02 11.04
5/6/2021 12:00:00 PM 14.7 58.46 0.594 7.87 2.24 11.12
5/6/2021 12:15:00 PM 14.84 58.712 0.594 7.88 2.92 11.21
5/6/2021 12:30:00 PM 14.95 58.91 0.594 7.88 3.16 11.29
5/6/2021 12:45:00 PM 15.06 59.108 0.596 7.91 2.47 11.35
5/6/2021 1:00:00 PM 15.18 59.324 0.596 7.91 3.34 11.4
5/6/2021 1:15:00 PM 15.29 59.522 0.597 7.93 2.45 11.48
5/6/2021 1:30:00 PM 15.37 59.666 0.596 7.93 2.58 11.51
5/6/2021 1:45:00 PM 15.42 59.756 0.597 7.95 2.76 11.55
5/6/2021 2:00:00 PM 15.48 59.864 0.597 7.96 1.7 11.57
5/6/2021 2:15:00 PM 15.49 59.882 0.596 7.96 3.48 11.62
5/6/2021 2:30:00 PM 15.55 59.99 0.597 7.99 2.33 11.63
5/6/2021 2:45:00 PM 15.62 60.116 0.597 7.99 3.35 11.66
5/6/2021 3:00:00 PM 15.68 60.224 0.598 8.01 2.13 11.68
5/6/2021 3:15:00 PM 15.66 60.188 0.598 8.01 2.73 11.65
5/6/2021 3:30:00 PM 15.64 60.152 0.598 7.99 2.95 11.64
5/6/2021 3:45:00 PM 15.6 60.08 0.598 8 1.72 11.61
5/6/2021 4:00:00 PM 15.51 59.918 0.599 7.99 2.7 11.55
5/6/2021 4:15:00 PM 15.47 59.846 0.599 8 1.92 11.49
5/6/2021 4:30:00 PM 15.43 59.774 0.6 7.99 1.85 11.46
5/6/2021 4:45:00 PM 15.41 59.738 0.601 8 2.81 11.43
5/6/2021 5:00:00 PM 15.4 59.72 0.601 8 2.16 11.39
5/6/2021 5:15:00 PM 15.41 59.738 0.602 8 1.63 11.33
5/6/2021 5:30:00 PM 15.4 59.72 0.602 7.98 2.27 11.25
5/6/2021 5:45:00 PM 15.4 59.72 0.602 7.99 2.05 11.18
5/6/2021 6:00:00 PM 15.37 59.666 0.603 7.99 2.47 11.09
5/6/2021 6:15:00 PM 15.34 59.612 0.603 7.99 1.99 10.97
5/6/2021 6:30:00 PM 15.31 59.558 0.603 7.99 2.24 10.88
5/6/2021 6:45:00 PM 15.26 59.468 0.604 7.96 2.67 10.75
5/6/2021 7:00:00 PM 15.21 59.378 0.604 7.96 1.72 10.62
5/6/2021 7:15:00 PM 15.16 59.288 0.604 7.95 1.39 10.47
5/6/2021 7:30:00 PM 15.12 59.216 0.605 7.94 1.76 10.31
5/6/2021 7:45:00 PM 15.07 59.126 0.606 7.92 1.92 10.15
5/6/2021 8:00:00 PM 15.02 59.036 0.606 7.91 2.29 10.01
5/6/2021 8:15:00 PM 14.98 58.964 0.607 7.9 2.77 9.86
5/6/2021 8:30:00 PM 14.93 58.874 0.607 7.89 2.7 9.72
5/6/2021 8:45:00 PM 14.89 58.802 0.607 7.88 2.16 9.59
5/6/2021 9:00:00 PM 14.84 58.712 0.607 7.87 6.11 9.47
5/6/2021 9:15:00 PM 14.79 58.622 0.608 7.86 3.12 9.38
5/6/2021 9:30:00 PM 14.73 58.514 0.608 7.84 2.77 9.3
5/6/2021 9:45:00 PM 14.68 58.424 0.607 7.83 4.28 9.21
5/6/2021 10:00:00 PM 14.63 58.334 0.608 7.83 3.62 9.14
5/6/2021 10:15:00 PM 14.59 58.262 0.607 7.82 3.52 9.08
5/6/2021 10:30:00 PM 14.55 58.19 0.608 7.82 4.6 9.03
5/6/2021 10:45:00 PM 14.52 58.136 0.6 7.81 5.13 8.97
5/6/2021 11:00:00 PM 14.47 58.046 0.609 7.79 3.89 8.92
5/6/2021 11:15:00 PM 14.42 57.956 0.608 7.78 3.26 8.86
5/6/2021 11:30:00 PM 14.38 57.884 0.609 7.77 3.82 8.83
5/6/2021 11:45:00 PM 14.33 57.794 0.609 7.77 4.05 8.81
5/7/2021 12:00:00 AM 14.28 57.704 0.609 7.76 3.95 8.76
5/7/2021 12:15:00 AM 14.24 57.632 0.609 7.76 4.64 8.74
5/7/2021 12:30:00 AM 14.19 57.542 0.609 7.74 3.96 8.7
5/7/2021 12:45:00 AM 14.14 57.452 0.609 7.74 4.47 8.69
5/7/2021 1:00:00 AM 14.09 57.362 0.609 7.74 3.46 8.67
5/7/2021 1:15:00 AM 14.04 57.272 0.609 7.74 4.18 8.64
5/7/2021 1:30:00 AM 13.98 57.164 0.609 7.76 4.23 8.63
5/7/2021 1:45:00 AM 13.93 57.074 0.609 7.77 4.71 8.63
5/7/2021 2:00:00 AM 13.88 56.984 0.61 7.76 3.55 8.61
5/7/2021 2:15:00 AM 13.82 56.876 0.609 7.76 4.13 8.6
5/7/2021 2:30:00 AM 13.76 56.768 0.61 7.76 6.48 8.6
5/7/2021 2:45:00 AM 13.71 56.678 0.61 7.76 4.93 8.59
5/7/2021 3:00:00 AM 13.66 56.588 0.61 7.77 4.47 8.59
5/7/2021 3:15:00 AM 13.61 56.498 0.61 7.76 5.37 8.6
5/7/2021 3:30:00 AM 13.55 56.39 0.61 7.74 5.32 8.6
5/7/2021 3:45:00 AM 13.5 56.3 0.61 7.74 4.62 8.6
5/7/2021 4:00:00 AM 13.45 56.21 0.61 7.74 4.37 8.61
5/7/2021 4:15:00 AM 13.4 56.12 0.61 7.72 3.71 8.6
5/7/2021 4:30:00 AM 13.35 56.03 0.61 7.72 4.23 8.62
5/7/2021 4:45:00 AM 13.31 55.958 0.61 7.72 5.1 8.63
5/7/2021 5:00:00 AM 13.26 55.868 0.61 7.71 5.52 8.62
5/7/2021 5:15:00 AM 13.22 55.796 0.61 7.7 4.35 8.63
5/7/2021 5:30:00 AM 13.17 55.706 0.606 7.69 5.55 8.63
5/7/2021 5:45:00 AM 13.13 55.634 0.608 7.69 3.27 8.64
5/7/2021 6:00:00 AM 13.08 55.544 0.609 7.69 3.99 8.65
5/7/2021 6:15:00 AM 13.04 55.472 0.622 7.68 3.65 8.68
5/7/2021 6:30:00 AM 13.01 55.418 0.622 7.68 3.33 8.71
5/7/2021 6:45:00 AM 12.97 55.346 0.623 7.69 3.61 8.75
5/7/2021 7:00:00 AM 12.95 55.31 0.623 7.68 3.23 8.82
5/7/2021 7:15:00 AM 12.93 55.274 0.623 7.69 2.75 8.9
5/7/2021 7:30:00 AM 12.92 55.256 0.623 7.7 2.51 9
5/7/2021 7:45:00 AM 12.93 55.274 0.623 7.7 4.74 9.12
5/7/2021 8:00:00 AM 12.96 55.328 0.623 7.71 3.18 9.28
5/7/2021 8:15:00 AM 13 55.4 0.622 7.72 2.64 9.45
5/7/2021 8:30:00 AM 13.05 55.49 0.623 7.73 1.76 9.61
5/7/2021 8:45:00 AM 13.11 55.598 0.623 7.75 1.68 9.75
5/7/2021 9:00:00 AM 13.15 55.67 0.624 7.76 2.81 9.83
5/7/2021 9:15:00 AM 13.23 55.814 0.623 7.76 2.15 9.95
5/7/2021 9:30:00 AM 13.33 55.994 0.624 7.77 2.62 10.07
5/7/2021 9:45:00 AM 13.45 56.21 0.624 7.79 1.79 10.2
5/7/2021 10:00:00 AM 13.53 56.354 0.624 7.81 1.51 10.32
5/7/2021 10:15:00 AM 13.63 56.534 0.624 7.81 1.44 10.43
5/7/2021 10:30:00 AM 13.77 56.786 0.624 7.83 1.82 10.6
5/7/2021 10:45:00 AM 13.87 56.966 0.624 7.83 1.1 10.74
5/7/2021 11:00:00 AM 13.97 57.146 0.624 7.85 1.07 10.86
5/7/2021 11:15:00 AM 14.07 57.326 0.625 7.86 1.47 10.98
5/7/2021 11:30:00 AM 14.09 57.362 0.624 7.87 1.54 11.04
5/7/2021 11:45:00 AM 14.09 57.362 0.624 7.87 1.14 11.08
5/7/2021 12:00:00 PM 14.07 57.326 0.624 7.88 1.25 11.11
5/7/2021 12:15:00 PM 14.04 57.272 0.624 7.89 1.5 11.17
5/7/2021 12:30:00 PM 14.02 57.236 0.623 7.89 1.42 11.17
5/7/2021 12:45:00 PM 14.06 57.308 0.623 7.9 1.91 11.24
5/7/2021 1:00:00 PM 14.11 57.398 0.623 7.91 1.55 11.4
5/7/2021 1:15:00 PM 14.13 57.434 0.622 7.91 1.96 11.5
5/7/2021 1:30:00 PM 14.14 57.452 0.622 7.93 1.34 11.55
5/7/2021 1:45:00 PM 14.14 57.452 0.622 7.93 1.31 11.55
5/7/2021 2:00:00 PM 14.13 57.434 0.622 7.93 1.34 11.53
5/7/2021 2:15:00 PM 14.1 57.38 0.622 7.94 1.72 11.45
5/7/2021 2:30:00 PM 14.06 57.308 0.622 7.94 1.52 11.29
5/7/2021 2:45:00 PM 14.04 57.272 0.623 7.93 1.66 11.23
5/7/2021 3:00:00 PM 14.04 57.272 0.623 7.93 1.09 11.24
5/7/2021 3:15:00 PM 14.06 57.308 0.623 7.92 1.95 11.3
5/7/2021 3:30:00 PM 14.08 57.344 0.623 7.93 1.44 11.33
5/7/2021 3:45:00 PM 14.09 57.362 0.623 7.93 1.58 11.32
5/7/2021 4:00:00 PM 14.09 57.362 0.623 7.93 4.05 11.29
5/7/2021 4:15:00 PM 14.08 57.344 0.624 7.94 1.7 11.22
5/7/2021 4:30:00 PM 14.05 57.29 0.624 7.93 1.07 11.13
5/7/2021 4:45:00 PM 14.03 57.254 0.623 7.92 1.94 11.05
5/7/2021 5:00:00 PM 14.01 57.218 0.624 7.92 2.38 10.97
5/7/2021 5:15:00 PM 13.98 57.164 0.623 7.92 1.37 10.88
5/7/2021 5:30:00 PM 13.95 57.11 0.624 7.92 1.46 10.74
5/7/2021 5:45:00 PM 13.92 57.056 0.624 7.91 1.52 10.58
5/7/2021 6:00:00 PM 13.88 56.984 0.623 7.89 1.65 10.43
5/7/2021 6:15:00 PM 13.85 56.93 0.623 7.89 1.41 10.32
5/7/2021 6:30:00 PM 13.83 56.894 0.623 7.88 1.47 10.25
5/7/2021 6:45:00 PM 13.8 56.84 0.623 7.87 1.72 10.17
5/7/2021 7:00:00 PM 13.77 56.786 0.623 7.87 1.33 10.1
5/7/2021 7:15:00 PM 13.74 56.732 0.622 7.86 1.53 10
5/7/2021 7:30:00 PM 13.71 56.678 0.622 7.86 2 9.91
5/7/2021 7:45:00 PM 13.68 56.624 0.622 7.84 1.99 9.81
5/7/2021 8:00:00 PM 13.64 56.552 0.622 7.84 3.05 9.71
5/7/2021 8:15:00 PM 13.61 56.498 0.622 7.82 2.25 9.6
5/7/2021 8:30:00 PM 13.57 56.426 0.622 7.81 2.79 9.52
5/7/2021 8:45:00 PM 13.54 56.372 0.622 7.81 2.55 9.44
5/7/2021 9:00:00 PM 13.51 56.318 0.622 7.8 3.02 9.36
5/7/2021 9:15:00 PM 13.48 56.264 0.622 7.77 3.85 9.3
5/7/2021 9:30:00 PM 13.45 56.21 0.622 7.78 3.14 9.25
5/7/2021 9:45:00 PM 13.43 56.174 0.622 7.78 3.33 9.2
5/7/2021 10:00:00 PM 13.4 56.12 0.622 7.77 5.55 9.16
5/7/2021 10:15:00 PM 13.37 56.066 0.622 7.76 3.65 9.12
5/7/2021 10:30:00 PM 13.34 56.012 0.622 7.75 4.64 9.11
5/7/2021 10:45:00 PM 13.32 55.976 0.622 7.74 3.46 9.07
5/7/2021 11:00:00 PM 13.28 55.904 0.622 7.73 4.99 9.04
5/7/2021 11:15:00 PM 13.25 55.85 0.622 7.73 3.24 9.01
5/7/2021 11:30:00 PM 13.22 55.796 0.622 7.73 4.75 8.99
5/7/2021 11:45:00 PM 13.19 55.742 0.622 7.72 4.69 8.97
5/8/2021 12:00:00 AM 13.16 55.688 0.621 7.71 4.76 8.94
5/8/2021 12:15:00 AM 13.13 55.634 0.621 7.71 2.65 8.9
5/8/2021 12:30:00 AM 13.11 55.598 0.62 7.71 3.96 8.89
5/8/2021 12:45:00 AM 13.09 55.562 0.582 7.71 3.84 8.86
5/8/2021 1:00:00 AM 13.07 55.526 0.619 7.71 4.08 8.84
5/8/2021 1:15:00 AM 13.05 55.49 0.619 7.7 5.61 8.83
5/8/2021 1:30:00 AM 13.02 55.436 0.618 7.69 3.32 8.81
5/8/2021 1:45:00 AM 12.98 55.364 0.618 7.69 4.89 8.8
5/8/2021 2:00:00 AM 12.94 55.292 0.617 7.68 7.16 8.78
5/8/2021 2:15:00 AM 12.9 55.22 0.616 7.68 4.45 8.77
5/8/2021 2:30:00 AM 12.87 55.166 0.615 7.68 3.95 8.76
5/8/2021 2:45:00 AM 12.83 55.094 0.616 7.67 3.73 8.77
5/8/2021 3:00:00 AM 12.79 55.022 0.616 7.67 5.88 8.76
5/8/2021 3:15:00 AM 12.75 54.95 0.616 7.68 3.9 8.76
5/8/2021 3:30:00 AM 12.7 54.86 0.616 7.67 3.58 8.71
5/8/2021 3:45:00 AM 12.64 54.752 0.617 7.66 4.6 8.7
5/8/2021 4:00:00 AM 12.59 54.662 0.617 7.64 3.49 8.68
5/8/2021 4:15:00 AM 12.55 54.59 0.617 7.63 3.98 8.68
5/8/2021 4:30:00 AM 12.5 54.5 0.618 7.63 4.74 8.68
5/8/2021 4:45:00 AM 12.46 54.428 0.619 7.64 5.51 8.7
5/8/2021 5:00:00 AM 12.41 54.338 0.62 7.41 6.1 8.7
5/8/2021 5:15:00 AM 12.38 54.284 0.621 7.61 5.44 8.76
5/8/2021 5:30:00 AM 12.36 54.248 0.622 7.64 3.84 8.81
5/8/2021 5:45:00 AM 12.32 54.176 0.622 7.64 4.78 8.85
5/8/2021 6:00:00 AM 12.29 54.122 0.622 7.64 4.41 8.87
5/8/2021 6:15:00 AM 12.25 54.05 0.622 7.65 3.99 8.91
5/8/2021 6:30:00 AM 12.21 53.978 0.622 7.65 3.63 8.96
5/8/2021 6:45:00 AM 12.18 53.924 0.623 7.65 3.56 9.02
5/8/2021 7:00:00 AM 12.17 53.906 0.623 7.65 3.54 9.1
5/8/2021 7:15:00 AM 12.16 53.888 0.624 7.65 3.82 9.21
5/8/2021 7:30:00 AM 12.15 53.87 0.624 7.66 3.51 9.29
5/8/2021 7:45:00 AM 12.17 53.906 0.623 7.65 3.22 9.43
5/8/2021 8:00:00 AM 12.21 53.978 0.623 7.66 2.15 9.59
5/8/2021 8:15:00 AM 12.27 54.086 0.622 7.67 2.9 9.79
5/8/2021 8:30:00 AM 12.35 54.23 0.623 7.69 2.89 9.96
5/8/2021 8:45:00 AM 12.4 54.32 0.625 7.69 2.55 10.04
5/8/2021 9:00:00 AM 12.44 54.392 0.629 7.7 3.27 10.06
5/8/2021 9:15:00 AM 12.47 54.446 0.634 7.73 2.48 10.09
5/8/2021 9:30:00 AM 12.51 54.518 0.635 7.74 2.98 10.2
5/8/2021 9:45:00 AM 12.56 54.608 0.636 7.75 2.35 10.33
5/8/2021 10:00:00 AM 12.59 54.662 0.637 7.75 2.72 10.48
5/8/2021 10:15:00 AM 12.66 54.788 0.637 7.79 2.42 10.64
5/8/2021 10:30:00 AM 12.74 54.932 0.637 7.77 2.09 10.75
5/8/2021 10:45:00 AM 12.79 55.022 0.636 7.78 1.94 10.82
5/8/2021 11:00:00 AM 12.89 55.202 0.637 7.8 2.94 10.96
5/8/2021 11:15:00 AM 12.92 55.256 0.636 7.8 1.63 11.03
5/8/2021 11:30:00 AM 12.96 55.328 0.637 7.81 2.12 11.11
5/8/2021 11:45:00 AM 13.1 55.58 0.636 7.83 1.61 11.29
5/8/2021 12:00:00 PM 13.2 55.76 0.635 7.84 1.77 11.4
5/8/2021 12:15:00 PM 13.3 55.94 0.634 7.86 2.13 11.48
5/8/2021 12:30:00 PM 13.33 55.994 0.633 7.84 1.79 11.52
5/8/2021 12:45:00 PM 13.36 56.048 0.629 7.86 1.82 11.57
5/8/2021 1:00:00 PM 13.32 55.976 0.623 7.87 4.53 11.57
5/8/2021 1:15:00 PM 13.33 55.994 0.62 7.87 2.48 11.62
5/8/2021 1:30:00 PM 13.35 56.03 0.618 7.86 1.74 11.63
5/8/2021 1:45:00 PM 13.37 56.066 0.616 7.87 1.67 11.69
5/8/2021 2:00:00 PM 13.36 56.048 0.614 7.86 1.77 11.66
5/8/2021 2:15:00 PM 13.36 56.048 0.613 7.87 1.28 11.65
5/8/2021 2:30:00 PM 13.34 56.012 0.61 7.87 1.27 11.62
5/8/2021 2:45:00 PM 13.43 56.174 0.61 7.79 3.77 11.69
5/8/2021 3:00:00 PM 13.45 56.21 0.61 7.88 1.94 11.66
5/8/2021 3:15:00 PM 13.32 55.976 0.609 7.86 1.43 11.49
5/8/2021 3:30:00 PM 13.31 55.958 0.609 7.87 1.44 11.48
5/8/2021 3:45:00 PM 13.25 55.85 0.609 7.88 2.56 11.49
5/8/2021 4:00:00 PM 13.3 55.94 0.609 7.88 1.7 11.57
5/8/2021 4:15:00 PM 13.44 56.192 0.609 7.9 1.64 11.69
5/8/2021 4:30:00 PM 13.57 56.426 0.611 7.91 2.74 11.71
5/8/2021 4:45:00 PM 13.7 56.66 0.611 7.92 2.55 11.73
5/8/2021 5:00:00 PM 13.75 56.75 0.612 7.92 1.92 11.71
5/8/2021 5:15:00 PM 13.65 56.57 0.613 7.91 2.13 11.47
5/8/2021 5:30:00 PM 13.48 56.264 0.612 7.89 1.77 11.15
5/8/2021 5:45:00 PM 13.35 56.03 0.612 7.88 1.99 11
5/8/2021 6:00:00 PM 13.3 55.94 0.612 7.86 1.76 10.99
5/8/2021 6:15:00 PM 13.31 55.958 0.613 7.86 1.92 11.01
5/8/2021 6:30:00 PM 13.31 55.958 0.613 7.86 2.65 10.93
5/8/2021 6:45:00 PM 13.31 55.958 0.613 7.86 2.19 10.89
5/8/2021 7:00:00 PM 13.32 55.976 0.614 7.87 1.43 10.8
5/8/2021 7:15:00 PM 13.29 55.922 0.614 7.87 2.57 10.71
5/8/2021 7:30:00 PM 13.24 55.832 0.615 7.85 1.85 10.61
5/8/2021 7:45:00 PM 13.19 55.742 0.615 7.85 2.13 10.52
5/8/2021 8:00:00 PM 13.12 55.616 0.616 7.85 2.36 10.4
5/8/2021 8:15:00 PM 13.05 55.49 0.617 7.84 2.13 10.3
5/8/2021 8:30:00 PM 12.98 55.364 0.617 7.84 3.19 10.16
5/8/2021 8:45:00 PM 12.92 55.256 0.618 7.83 2.9 10.03
5/8/2021 9:00:00 PM 12.87 55.166 0.618 7.82 2.89 9.92
5/8/2021 9:15:00 PM 12.83 55.094 0.617 7.8 3.12 9.84
5/8/2021 9:30:00 PM 12.8 55.04 0.617 7.79 2.72 9.78
5/8/2021 9:45:00 PM 12.76 54.968 0.563 7.78 3.65 9.72
5/8/2021 10:00:00 PM 12.74 54.932 0.62 7.77 2.68 9.67
5/8/2021 10:15:00 PM 12.72 54.896 0.622 7.77 2.5 9.61
5/8/2021 10:30:00 PM 12.7 54.86 0.623 7.76 1.91 9.57
5/8/2021 10:45:00 PM 12.66 54.788 0.623 7.75 1.88 9.51
5/8/2021 11:00:00 PM 12.62 54.716 0.624 7.76 2.57 9.47
5/8/2021 11:15:00 PM 12.57 54.626 0.623 7.74 2.21 9.42
5/8/2021 11:30:00 PM 12.53 54.554 0.621 7.73 3.32 9.37
5/8/2021 11:45:00 PM 12.5 54.5 0.62 7.73 4.03 9.33
5/9/2021 12:00:00 AM 12.47 54.446 0.62 7.72 3.12 9.31
5/9/2021 12:15:00 AM 12.44 54.392 0.621 7.71 4.76 9.27
5/9/2021 12:30:00 AM 12.41 54.338 0.623 7.71 4.02 9.26
5/9/2021 12:45:00 AM 12.38 54.284 0.625 7.7 8.74 9.24
5/9/2021 1:00:00 AM 12.35 54.23 0.626 7.7 5.18 9.21
5/9/2021 1:15:00 AM 12.31 54.158 0.628 7.69 6.68 9.2
5/9/2021 1:30:00 AM 12.28 54.104 0.629 7.69 5.18 9.18
5/9/2021 1:45:00 AM 12.25 54.05 0.629 7.69 6.15 9.16
5/9/2021 2:00:00 AM 12.22 53.996 0.629 7.69 5.24 9.14
5/9/2021 2:15:00 AM 12.19 53.942 0.628 7.69 5.06 9.12
5/9/2021 2:30:00 AM 12.17 53.906 0.626 7.69 6.09 9.11
5/9/2021 2:45:00 AM 12.14 53.852 0.622 7.69 5.23 9.09
5/9/2021 3:00:00 AM 12.11 53.798 0.621 7.68 5.8 9.07
5/9/2021 3:15:00 AM 12.08 53.744 0.619 7.68 5.34 9.06
5/9/2021 3:30:00 AM 12.05 53.69 0.619 7.68 5.94 9.07
5/9/2021 4:00:00 AM 11.99 53.582 0.62 7.67 5.81 9.07
5/9/2021 4:15:00 AM 11.96 53.528 0.62 7.67 6.46 9.08
5/9/2021 4:30:00 AM 11.93 53.474 0.62 7.67 5.55 9.08
5/9/2021 4:45:00 AM 11.9 53.42 0.619 7.66 4.71 9.09
5/9/2021 5:00:00 AM 11.88 53.384 0.619 7.67 6.16 9.08
5/9/2021 5:15:00 AM 11.85 53.33 0.618 7.66 5.26 9.08
5/9/2021 5:30:00 AM 11.81 53.258 0.616 7.66 5.17 9.08
5/9/2021 5:45:00 AM 11.78 53.204 0.614 7.64 6.2 9.08
5/9/2021 6:00:00 AM 11.75 53.15 0.611 7.66 6.46 9.08
5/9/2021 6:15:00 AM 11.72 53.096 0.608 7.65 6.11 9.08
5/9/2021 6:30:00 AM 11.71 53.078 0.604 7.65 4.46 9.11
5/9/2021 6:45:00 AM 11.7 53.06 0.6 7.65 3.97 9.14
5/9/2021 7:00:00 AM 11.69 53.042 0.595 7.64 3.73 9.16
5/9/2021 7:15:00 AM 11.69 53.042 0.589 7.65 3.64 9.25
5/9/2021 7:30:00 AM 11.7 53.06 0.584 7.64 3.86 9.32
5/9/2021 7:45:00 AM 11.71 53.078 0.58 7.64 4.32 9.38
5/9/2021 8:00:00 AM 11.72 53.096 0.575 7.64 4.15 9.47
5/9/2021 8:15:00 AM 11.73 53.114 0.573 7.64 3.38 9.51
5/9/2021 8:30:00 AM 11.74 53.132 0.57 7.65 3.09 9.57
5/9/2021 8:45:00 AM 11.75 53.15 0.569 7.64 2.73 9.66
5/9/2021 9:00:00 AM 11.77 53.186 0.568 7.65 3.29 9.77
5/9/2021 9:15:00 AM 11.78 53.204 0.569 7.66 2.89 9.87
5/9/2021 9:30:00 AM 11.8 53.24 0.569 7.64 2.91 9.94
5/9/2021 9:45:00 AM 11.81 53.258 0.571 7.67 2.59 10.02
5/9/2021 10:00:00 AM 11.81 53.258 0.573 7.67 2.37 10.02
5/9/2021 10:15:00 AM 11.82 53.276 0.575 7.68 2.55 10.05
5/9/2021 10:30:00 AM 11.85 53.33 0.577 7.68 2.3 10.13
5/9/2021 10:45:00 AM 11.91 53.438 0.579 7.7 2.75 10.3
5/9/2021 11:00:00 AM 11.98 53.564 0.58 7.72 1.92 10.49
5/9/2021 11:15:00 AM 12.01 53.618 0.581 7.74 2.81 10.6
5/9/2021 11:30:00 AM 12.04 53.672 0.582 7.75 1.88 10.66
5/9/2021 11:45:00 AM 12.06 53.708 0.583 7.76 2.16 10.72
5/9/2021 12:00:00 PM 12.08 53.744 0.584 7.76 1.89 10.78
5/9/2021 12:15:00 PM 12.07 53.726 0.585 7.75 1.41 10.81
5/9/2021 12:30:00 PM 12.07 53.726 0.586 7.75 1.68 10.83
5/9/2021 12:45:00 PM 12.04 53.672 0.587 7.75 3.24 10.82
5/9/2021 1:00:00 PM 12.03 53.654 0.589 7.75 1.79 10.8
5/9/2021 1:15:00 PM 12.01 53.618 0.591 7.75 2.02 10.79
5/9/2021 1:30:00 PM 11.99 53.582 0.593 7.75 1.95 10.75
5/9/2021 1:45:00 PM 11.98 53.564 0.594 7.75 1.44 10.72
5/9/2021 2:00:00 PM 11.98 53.564 0.597 7.75 1.38 10.73
5/9/2021 2:15:00 PM 11.98 53.564 0.599 7.75 1.22 10.72
5/9/2021 2:30:00 PM 11.96 53.528 0.601 7.75 2.33 10.67
5/9/2021 2:45:00 PM 11.95 53.51 0.602 7.75 1.8 10.65
5/9/2021 3:00:00 PM 11.96 53.528 0.604 7.75 1.75 10.7
5/9/2021 3:15:00 PM 11.96 53.528 0.605 7.76 1.71 10.76
5/9/2021 3:30:00 PM 11.95 53.51 0.607 7.77 1.37 10.72
5/9/2021 3:45:00 PM 11.97 53.546 0.608 7.76 1.2 10.76
5/9/2021 4:00:00 PM 11.99 53.582 0.609 7.76 1.49 10.86
5/9/2021 4:15:00 PM 12 53.6 0.61 7.79 1.63 10.9
5/9/2021 4:30:00 PM 12.03 53.654 0.611 7.79 1.22 10.95
5/9/2021 4:45:00 PM 12.04 53.672 0.612 7.78 1.13 10.95
5/9/2021 5:00:00 PM 12.05 53.69 0.613 7.79 1.51 10.97
5/9/2021 5:15:00 PM 12.05 53.69 0.614 7.78 1.09 10.95
5/9/2021 5:30:00 PM 12.04 53.672 0.614 7.79 1.31 10.89
5/9/2021 5:45:00 PM 12.03 53.654 0.615 7.8 1.21 10.87
5/9/2021 6:00:00 PM 12.03 53.654 0.615 7.8 0.91 10.84
5/9/2021 6:15:00 PM 12.02 53.636 0.615 7.81 1.69 10.82
5/9/2021 6:30:00 PM 12.01 53.618 0.616 7.81 1.04 10.75
5/9/2021 6:45:00 PM 11.99 53.582 0.616 7.81 1.37 10.68
5/9/2021 7:00:00 PM 11.97 53.546 0.616 7.8 1.33 10.6
5/9/2021 7:15:00 PM 11.96 53.528 0.615 7.8 1.44 10.54
5/9/2021 7:30:00 PM 11.95 53.51 0.616 7.79 1.78 10.51
5/9/2021 7:45:00 PM 11.93 53.474 0.617 7.79 1.78 10.45
5/9/2021 8:00:00 PM 11.91 53.438 0.617 7.79 1.38 10.36
5/9/2021 8:15:00 PM 11.89 53.402 0.619 7.79 2.33 10.26
5/9/2021 8:30:00 PM 11.87 53.366 0.619 7.78 1.62 10.13
5/9/2021 8:45:00 PM 11.86 53.348 0.62 7.77 3.58 10.05
5/9/2021 9:00:00 PM 11.85 53.33 0.62 7.77 3.12 9.94
5/9/2021 9:15:00 PM 11.84 53.312 0.621 7.77 2.77 9.87
5/9/2021 9:30:00 PM 11.84 53.312 0.622 7.76 2.9 9.81
5/9/2021 9:45:00 PM 11.84 53.312 0.623 7.76 2.5 9.75
5/9/2021 10:00:00 PM 11.84 53.312 0.623 7.76 2.2 9.7
5/9/2021 10:15:00 PM 11.84 53.312 0.624 7.75 3.94 9.64
5/9/2021 10:30:00 PM 11.85 53.33 0.625 7.74 2.87 9.61
5/9/2021 10:45:00 PM 11.85 53.33 0.626 7.74 4.46 9.56
5/9/2021 11:00:00 PM 11.86 53.348 0.627 7.74 3.04 9.53
5/9/2021 11:15:00 PM 11.86 53.348 0.628 7.72 3.34 9.5
5/9/2021 11:30:00 PM 11.86 53.348 0.629 7.72 3.49 9.46
5/9/2021 11:45:00 PM 11.86 53.348 0.629 7.72 3.04 9.42
5/10/2021 12:00:00 AM 11.86 53.348 0.63 7.72 2.9 9.4
5/10/2021 12:15:00 AM 11.86 53.348 0.631 7.72 2.76 9.38
5/10/2021 12:30:00 AM 11.87 53.366 0.631 7.72 6.47 9.35
5/10/2021 12:45:00 AM 11.87 53.366 0.631 7.72 2.8 9.33
5/10/2021 1:00:00 AM 11.87 53.366 0.631 7.72 3.18 9.3
5/10/2021 1:15:00 AM 11.87 53.366 0.631 7.72 3.45 9.29
5/10/2021 1:30:00 AM 11.87 53.366 0.631 7.72 4.07 9.28
5/10/2021 1:45:00 AM 11.86 53.348 0.631 7.71 3.38 9.26
5/10/2021 2:00:00 AM 11.86 53.348 0.632 7.72 2.88 9.24
5/10/2021 2:15:00 AM 11.85 53.33 0.631 7.72 2.94 9.24
5/10/2021 2:30:00 AM 11.85 53.33 0.632 7.72 3.25 9.23
5/10/2021 2:45:00 AM 11.84 53.312 0.631 7.72 3.69 9.22
5/10/2021 3:00:00 AM 11.84 53.312 0.632 7.71 4.51 9.21
5/10/2021 3:15:00 AM 11.84 53.312 0.632 7.72 5.44 9.21
5/10/2021 3:30:00 AM 11.87 53.366 0.632 7.71 4.08 9.24
5/10/2021 3:45:00 AM 11.88 53.384 0.633 7.72 4.27 9.24
5/10/2021 4:00:00 AM 11.89 53.402 0.636 7.71 4.34 9.24
5/10/2021 4:15:00 AM 11.9 53.42 0.641 7.71 5.68 9.24
5/10/2021 4:30:00 AM 11.89 53.402 0.642 7.71 3.82 9.25
5/10/2021 4:45:00 AM 11.89 53.402 0.643 7.7 4.96 9.26
5/10/2021 5:00:00 AM 11.87 53.366 0.644 7.71 4.62 9.25
5/10/2021 5:15:00 AM 11.86 53.348 0.644 7.71 5.68 9.25
5/10/2021 5:30:00 AM 11.84 53.312 0.643 7.71 4.22 9.25
5/10/2021 5:45:00 AM 11.82 53.276 0.643 7.71 4.76 9.27
5/10/2021 6:00:00 AM 11.8 53.24 0.642 7.71 3.9 9.26
5/10/2021 6:15:00 AM 11.78 53.204 0.642 7.71 3.38 9.27
5/10/2021 6:30:00 AM 11.76 53.168 0.641 7.7 3.32 9.29
5/10/2021 6:45:00 AM 11.75 53.15 0.641 7.7 3.01 9.33
5/10/2021 7:00:00 AM 11.75 53.15 0.641 7.7 3.03 9.39
5/10/2021 7:15:00 AM 11.75 53.15 0.64 7.71 2.71 9.47
5/10/2021 7:30:00 AM 11.73 53.114 0.639 7.71 2.91 9.56
5/10/2021 7:45:00 AM 11.7 53.06 0.638 7.71 1.89 9.64
5/10/2021 8:00:00 AM 11.67 53.006 0.635 7.72 2.57 9.69
5/10/2021 8:15:00 AM 11.63 52.934 0.632 7.71 2.11 9.71
5/10/2021 8:30:00 AM 11.62 52.916 0.63 7.72 1.71 9.77
5/10/2021 8:45:00 AM 11.67 53.006 0.629 7.72 1.85 9.91
5/10/2021 9:00:00 AM 11.78 53.204 0.628 7.74 1.28 10.12
5/10/2021 9:15:00 AM 11.88 53.384 0.627 7.76 1.61 10.31
5/10/2021 9:30:00 AM 11.93 53.474 0.627 7.77 1.08 10.44
5/10/2021 9:45:00 AM 11.97 53.546 0.628 7.78 2.02 10.53
5/10/2021 10:00:00 AM 12.02 53.636 0.628 7.78 1.56 10.61
5/10/2021 10:15:00 AM 12.1 53.78 0.628 7.79 1.43 10.72
5/10/2021 10:30:00 AM 12.18 53.924 0.628 7.8 1.18 10.8
5/10/2021 10:45:00 AM 12.27 54.086 0.628 7.81 1.32 10.89
5/10/2021 11:00:00 AM 12.39 54.302 0.628 7.83 1.5 11
5/10/2021 11:15:00 AM 12.52 54.536 0.628 7.84 1.69 11.14
5/10/2021 11:30:00 AM 12.65 54.77 0.629 7.86 1.49 11.29
5/10/2021 11:45:00 AM 12.79 55.022 0.629 7.88 2.15 11.45
5/10/2021 12:00:00 PM 12.89 55.202 0.63 7.89 1.61 11.52
5/10/2021 12:15:00 PM 12.94 55.292 0.63 7.89 1.43 11.59
5/10/2021 12:30:00 PM 13.09 55.562 0.63 7.9 1.93 11.7
5/10/2021 12:45:00 PM 13.26 55.868 0.63 7.91 1.48 11.81
5/10/2021 1:00:00 PM 13.38 56.084 0.63 7.93 1.46 11.84
5/10/2021 1:15:00 PM 13.58 56.444 0.629 7.95 2.25 11.9
5/10/2021 1:30:00 PM 13.75 56.75 0.628 7.95 2.18 11.96
5/10/2021 1:45:00 PM 14.02 57.236 0.627 7.98 1.89 12.08
5/10/2021 2:00:00 PM 14.26 57.668 0.626 8 1.34 12.17
5/10/2021 2:15:00 PM 14.45 58.01 0.626 8.02 0.95 12.23
5/10/2021 2:30:00 PM 14.57 58.226 0.626 8.03 1.23 12.23
5/10/2021 2:45:00 PM 14.7 58.46 0.626 8.04 1.63 12.24
5/10/2021 3:00:00 PM 14.81 58.658 0.626 8.05 1.78 12.26
5/10/2021 3:15:00 PM 14.88 58.784 0.626 8.06 1.11 12.24
5/10/2021 3:30:00 PM 14.94 58.892 0.626 8.06 1.84 12.21
5/10/2021 3:45:00 PM 14.95 58.91 0.626 8.06 1.29 12.18
5/10/2021 4:00:00 PM 14.83 58.694 0.626 8.06 1.11 12.07
5/10/2021 4:15:00 PM 14.85 58.73 0.626 8.06 1.3 12.01
5/10/2021 4:30:00 PM 14.91 58.838 0.626 8.06 1.38 12
5/10/2021 4:45:00 PM 14.91 58.838 0.625 8.06 1.23 11.94
5/10/2021 5:00:00 PM 14.88 58.784 0.625 8.06 1.81 11.85
5/10/2021 5:15:00 PM 14.86 58.748 0.625 8.06 1.23 11.78
5/10/2021 5:30:00 PM 14.83 58.694 0.625 8.06 1.61 11.69
5/10/2021 5:45:00 PM 14.75 58.55 0.625 8.05 0.93 11.53
5/10/2021 6:00:00 PM 14.69 58.442 0.625 8.04 1.49 11.41
5/10/2021 6:15:00 PM 14.66 58.388 0.625 8.03 2.54 11.32
5/10/2021 6:30:00 PM 14.61 58.298 0.624 8.03 1.44 11.17
5/10/2021 6:45:00 PM 14.59 58.262 0.624 8.02 1.57 11.06
5/10/2021 7:00:00 PM 14.57 58.226 0.624 8.01 1.35 10.94
5/10/2021 7:15:00 PM 14.52 58.136 0.625 8.01 1.35 10.8
5/10/2021 7:30:00 PM 14.45 58.01 0.625 7.98 1.77 10.63
5/10/2021 7:45:00 PM 14.39 57.902 0.626 7.98 1.96 10.46
5/10/2021 8:00:00 PM 14.32 57.776 0.626 7.99 1.74 10.3
5/10/2021 8:15:00 PM 14.25 57.65 0.625 7.94 1.65 10.15
5/10/2021 8:30:00 PM 14.18 57.524 0.626 7.93 2.48 10
5/10/2021 8:45:00 PM 14.12 57.416 0.627 7.92 3.08 9.87
5/10/2021 9:00:00 PM 14.06 57.308 0.627 8.04 3.61 9.74
5/10/2021 9:15:00 PM 14 57.2 0.628 8.04 3.62 9.63
5/10/2021 9:30:00 PM 13.95 57.11 0.629 8.03 2.41 9.54
5/10/2021 9:45:00 PM 13.9 57.02 0.629 8.02 2.83 9.45
5/10/2021 10:00:00 PM 13.84 56.912 0.63 8.02 5.37 9.35
5/10/2021 10:15:00 PM 13.79 56.822 0.63 8.01 2.97 9.29
5/10/2021 10:30:00 PM 13.75 56.75 0.631 8 3.44 9.21
5/10/2021 10:45:00 PM 13.71 56.678 0.631 7.99 3.26 9.16
5/10/2021 11:00:00 PM 13.66 56.588 0.632 7.98 2.84 9.11
5/10/2021 11:15:00 PM 13.62 56.516 0.632 7.97 3.13 9.06
5/10/2021 11:30:00 PM 13.58 56.444 0.632 7.97 3.89 9.01
5/10/2021 11:45:00 PM 13.55 56.39 0.633 7.96 3.25 8.98
5/11/2021 12:00:00 AM 13.52 56.336 0.633 7.95 4.02 8.94
5/11/2021 12:15:00 AM 13.49 56.282 0.633 7.95 4.24 8.91
5/11/2021 12:30:00 AM 13.46 56.228 0.633 7.94 3.76 8.89
5/11/2021 12:45:00 AM 13.44 56.192 0.633 7.93 4.47 8.87
5/11/2021 1:00:00 AM 13.41 56.138 0.633 7.93 3.51 8.86
5/11/2021 1:15:00 AM 13.38 56.084 0.633 7.92 2.92 8.84
5/11/2021 1:30:00 AM 13.35 56.03 0.633 7.92 3.14 8.82
5/11/2021 1:45:00 AM 13.32 55.976 0.633 7.85 4.2 8.81
5/11/2021 2:00:00 AM 13.29 55.922 0.634 7.91 4.37 8.8
5/11/2021 2:15:00 AM 13.26 55.868 0.633 7.91 3.75 8.79
5/11/2021 2:30:00 AM 13.24 55.832 0.634 7.91 4 8.78
5/11/2021 2:45:00 AM 13.21 55.778 0.634 7.91 3.56 8.77
5/11/2021 3:00:00 AM 13.18 55.724 0.634 7.91 2.86 8.76
5/11/2021 3:15:00 AM 13.15 55.67 0.634 7.91 4.41 8.77
5/11/2021 3:30:00 AM 13.12 55.616 0.634 7.91 3.83 8.78
5/11/2021 3:45:00 AM 13.1 55.58 0.634 7.9 4.35 8.81
5/11/2021 4:00:00 AM 13.09 55.562 0.636 7.9 3.79 8.82
5/11/2021 4:15:00 AM 13.07 55.526 0.639 7.91 4.78 8.83
5/11/2021 4:30:00 AM 13.05 55.49 0.642 7.91 9.03 8.84
5/11/2021 4:45:00 AM 13.02 55.436 0.643 7.91 3.94 8.85
5/11/2021 5:00:00 AM 12.99 55.382 0.643 7.9 4.66 8.85
5/11/2021 5:15:00 AM 12.96 55.328 0.643 7.9 5.42 8.86
5/11/2021 5:30:00 AM 12.91 55.238 0.643 7.9 4.08 8.85
5/11/2021 5:45:00 AM 12.87 55.166 0.643 7.89 4.12 8.87
5/11/2021 6:00:00 AM 12.82 55.076 0.643 7.88 4.37 8.87
5/11/2021 6:15:00 AM 12.78 55.004 0.642 7.89 5.16 8.89
5/11/2021 6:30:00 AM 12.74 54.932 0.642 7.89 3.72 8.92
5/11/2021 6:45:00 AM 12.7 54.86 0.642 7.89 2.35 8.97
5/11/2021 7:00:00 AM 12.67 54.806 0.642 7.89 3.51 9.02
5/11/2021 7:15:00 AM 12.64 54.752 0.642 7.89 3.52 9.1
5/11/2021 7:30:00 AM 12.62 54.716 0.641 7.85 2.39 9.17
5/11/2021 7:45:00 AM 12.62 54.716 0.639 7.89 2.45 9.28
5/11/2021 8:00:00 AM 12.63 54.734 0.637 7.9 1.9 9.43
5/11/2021 8:15:00 AM 12.66 54.788 0.636 7.9 1.43 9.56
5/11/2021 8:30:00 AM 12.71 54.878 0.635 7.91 1.54 9.67
5/11/2021 8:45:00 AM 12.78 55.004 0.636 7.92 1.31 9.81
5/11/2021 9:00:00 AM 12.87 55.166 0.636 7.93 1.92 9.95
5/11/2021 9:15:00 AM 12.97 55.346 0.636 7.94 1.31 10.09
5/11/2021 9:30:00 AM 13.09 55.562 0.635 7.95 1.22 10.25
5/11/2021 9:45:00 AM 13.21 55.778 0.634 7.97 1.27 10.4
5/11/2021 10:00:00 AM 13.35 56.03 0.634 7.98 0.87 10.55
5/11/2021 10:15:00 AM 13.49 56.282 0.634 8 1.17 10.7
5/11/2021 10:30:00 AM 13.63 56.534 0.633 8.01 0.94 10.85
5/11/2021 10:45:00 AM 13.78 56.804 0.633 8.02 0.96 10.97
5/11/2021 11:00:00 AM 13.92 57.056 0.633 8.04 1.47 11.11
5/11/2021 11:15:00 AM 14.08 57.344 0.633 8.05 1.24 11.25
5/11/2021 11:30:00 AM 14.23 57.614 0.634 8.07 1.24 11.33
5/11/2021 11:45:00 AM 14.38 57.884 0.633 8.09 0.87 11.45
5/11/2021 12:00:00 PM 14.56 58.208 0.633 8.1 1.67 11.57
5/11/2021 12:15:00 PM 14.7 58.46 0.632 8.12 1.37 11.67
5/11/2021 12:30:00 PM 14.76 58.568 0.633 8.12 2.51 11.74
5/11/2021 12:45:00 PM 14.85 58.73 0.633 8.13 1.26 11.8
5/11/2021 1:00:00 PM 14.95 58.91 0.633 8.14 0.95 11.87
5/11/2021 1:15:00 PM 14.95 58.91 0.633 8.15 1.15 11.89
5/11/2021 1:30:00 PM 14.92 58.856 0.633 8.15 1.59 11.93
5/11/2021 1:45:00 PM 14.91 58.838 0.633 8.16 1.55 11.98
5/11/2021 2:00:00 PM 14.82 58.676 0.632 8.16 1.4 11.94
5/11/2021 2:15:00 PM 14.81 58.658 0.632 8.16 0.96 11.96
5/11/2021 2:30:00 PM 14.76 58.568 0.631 8.17 0.86 11.95
5/11/2021 2:45:00 PM 14.74 58.532 0.63 8.18 2.3 11.95
5/11/2021 3:00:00 PM 14.72 58.496 0.629 8.19 0.97 11.98
5/11/2021 3:15:00 PM 14.68 58.424 0.63 8.19 1.29 12.01
5/11/2021 3:30:00 PM 14.66 58.388 0.628 8.19 1.54 12.01
5/11/2021 3:45:00 PM 14.68 58.424 0.629 8.18 2.27 12.01
5/11/2021 4:00:00 PM 14.62 58.316 0.629 8.18 1.05 11.82
5/11/2021 4:15:00 PM 14.56 58.208 0.629 8.18 1.1 11.6
5/11/2021 4:30:00 PM 14.53 58.154 0.628 8.18 1.64 11.43
5/11/2021 4:45:00 PM 14.49 58.082 0.628 8.18 1.84 11.4
5/11/2021 5:00:00 PM 14.54 58.172 0.628 8.19 2.92 11.47
5/11/2021 5:15:00 PM 14.6 58.28 0.628 8.2 1.91 11.55
5/11/2021 5:30:00 PM 14.61 58.298 0.628 8.2 2.42 11.55
5/11/2021 5:45:00 PM 14.6 58.28 0.629 8.2 1.19 11.47
5/11/2021 6:00:00 PM 14.56 58.208 0.629 8.19 0.87 11.33
5/11/2021 6:15:00 PM 14.53 58.154 0.628 8.18 1 11.23
5/11/2021 6:30:00 PM 14.44 57.992 0.628 8.17 1.75 11.06
5/11/2021 6:45:00 PM 14.37 57.866 0.627 8.17 0.86 10.94
5/11/2021 7:00:00 PM 14.32 57.776 0.628 8.16 1.22 10.82
5/11/2021 7:15:00 PM 14.27 57.686 0.628 8.15 1.34 10.69
5/11/2021 7:30:00 PM 14.2 57.56 0.628 8.14 1.34 10.54
5/11/2021 7:45:00 PM 14.13 57.434 0.629 8.13 1.72 10.38
5/11/2021 8:00:00 PM 14.08 57.344 0.629 8.11 4.42 10.21
5/11/2021 8:15:00 PM 14.02 57.236 0.629 8.1 2.16 10.07
5/11/2021 8:30:00 PM 13.97 57.146 0.629 8.09 3.1 9.93
5/11/2021 8:45:00 PM 13.92 57.056 0.63 8.08 2.21 9.83
5/11/2021 9:00:00 PM 13.88 56.984 0.63 8.06 3.87 9.71
5/11/2021 9:15:00 PM 13.83 56.894 0.631 8.06 3.69 9.63
5/11/2021 9:30:00 PM 13.78 56.804 0.63 8.05 2.65 9.54
5/11/2021 9:45:00 PM 13.74 56.732 0.631 8.04 2.96 9.46
5/11/2021 10:00:00 PM 13.68 56.624 0.631 8.04 3.62 9.4
5/11/2021 10:15:00 PM 13.62 56.516 0.632 8.03 3.78 9.33
5/11/2021 10:30:00 PM 13.56 56.408 0.632 8.02 4.46 9.26
5/11/2021 10:45:00 PM 13.51 56.318 0.632 8.01 2.84 9.21
5/11/2021 11:00:00 PM 13.45 56.21 0.632 8 4.06 9.18
5/11/2021 11:15:00 PM 13.4 56.12 0.633 7.99 4.36 9.14
5/11/2021 11:30:00 PM 13.35 56.03 0.634 7.99 2.89 9.11
5/11/2021 11:45:00 PM 13.3 55.94 0.633 7.98 2.84 9.07
5/12/2021 12:00:00 AM 13.25 55.85 0.634 7.97 4.19 9.05
5/12/2021 12:15:00 AM 13.2 55.76 0.634 7.97 4.04 9.02
5/12/2021 12:30:00 AM 13.16 55.688 0.635 7.96 3.45 9.02
5/12/2021 12:45:00 AM 13.11 55.598 0.636 7.96 4.5 8.99
5/12/2021 1:00:00 AM 13.06 55.508 0.635 7.95 4.13 9
5/12/2021 1:15:00 AM 13.01 55.418 0.635 7.94 4.13 8.97
5/12/2021 1:30:00 AM 12.96 55.328 0.635 7.94 3.93 8.98
5/12/2021 1:45:00 AM 12.9 55.22 0.635 7.94 3.22 8.97
5/12/2021 2:00:00 AM 12.85 55.13 0.634 7.93 5.27 8.95
5/12/2021 2:15:00 AM 12.8 55.04 0.635 7.93 5.52 8.96
5/12/2021 2:30:00 AM 12.75 54.95 0.635 7.92 3.86 8.95
5/12/2021 2:45:00 AM 12.7 54.86 0.634 7.92 2.82 8.95
5/12/2021 3:00:00 AM 12.65 54.77 0.634 7.92 5.33 8.94
5/12/2021 3:15:00 AM 12.59 54.662 0.633 7.92 3.74 8.94
5/12/2021 3:30:00 AM 12.54 54.572 0.634 7.91 4.78 8.91
5/12/2021 3:45:00 AM 12.49 54.482 0.634 7.9 3.73 8.88
5/12/2021 4:00:00 AM 12.44 54.392 0.633 7.89 3.14 8.85
5/12/2021 4:15:00 AM 12.38 54.284 0.633 7.89 5.21 8.84
5/12/2021 4:30:00 AM 12.33 54.194 0.634 7.89 3.92 8.82
5/12/2021 4:45:00 AM 12.28 54.104 0.636 7.89 4.11 8.83
5/12/2021 5:00:00 AM 12.24 54.032 0.634 7.89 7.35 8.84
5/12/2021 5:15:00 AM 12.2 53.96 0.634 7.89 4.75 8.86
5/12/2021 5:30:00 AM 12.17 53.906 0.633 7.89 5.34 8.91
5/12/2021 5:45:00 AM 12.13 53.834 0.632 7.89 3.8 8.97
5/12/2021 6:00:00 AM 12.08 53.744 0.633 7.88 4.55 9.01
5/12/2021 6:15:00 AM 12.05 53.69 0.633 7.88 2.41 9.04
5/12/2021 6:30:00 AM 12.01 53.618 0.633 7.88 3.44 9.09
5/12/2021 6:45:00 AM 11.97 53.546 0.632 7.89 2.14 9.15
5/12/2021 7:00:00 AM 11.95 53.51 0.634 7.86 2.42 9.22
5/12/2021 7:15:00 AM 11.94 53.492 0.632 7.89 2.54 9.33
5/12/2021 7:30:00 AM 11.94 53.492 0.632 7.89 2.21 9.44
5/12/2021 7:45:00 AM 11.96 53.528 0.633 7.89 3.04 9.58
5/12/2021 8:00:00 AM 11.99 53.582 0.632 7.91 1.79 9.75
5/12/2021 8:15:00 AM 12.04 53.672 0.632 7.92 2.49 9.93
5/12/2021 8:30:00 AM 12.12 53.816 0.632 7.94 1.81 10.12
5/12/2021 8:45:00 AM 12.22 53.996 0.631 7.96 1.49 10.33
5/12/2021 9:00:00 AM 12.33 54.194 0.633 7.97 2.31 10.49
5/12/2021 9:15:00 AM 12.45 54.41 0.637 7.99 3.98 10.65
5/12/2021 9:30:00 AM 12.56 54.608 0.639 8 2.05 10.78
5/12/2021 9:45:00 AM 12.66 54.788 0.638 8.01 1 10.91
5/12/2021 10:00:00 AM 12.77 54.986 0.636 8.03 2.36 11.05
5/12/2021 10:15:00 AM 12.89 55.202 0.634 8.05 1.51 11.19
5/12/2021 10:30:00 AM 13.02 55.436 0.632 8.06 1.26 11.32
5/12/2021 10:45:00 AM 13.15 55.67 0.632 8.08 1.25 11.44
5/12/2021 11:00:00 AM 13.31 55.958 0.632 8.09 1.46 11.57
5/12/2021 11:15:00 AM 13.45 56.21 0.633 8.1 1.93 11.69
5/12/2021 11:30:00 AM 13.62 56.516 0.632 8.12 1.12 11.8
5/12/2021 11:45:00 AM 13.81 56.858 0.632 8.13 1.21 11.91
5/12/2021 12:00:00 PM 13.99 57.182 0.633 8.14 1.83 12.01
5/12/2021 12:15:00 PM 14.14 57.452 0.635 8.15 1.24 12.06
5/12/2021 12:30:00 PM 14.29 57.722 0.634 8.17 1.39 12.16
5/12/2021 12:45:00 PM 14.44 57.992 0.635 8.18 1.18 12.24
5/12/2021 1:00:00 PM 14.57 58.226 0.633 8.19 0.95 12.3
5/12/2021 1:15:00 PM 14.71 58.478 0.633 8.2 4.54 12.35
5/12/2021 1:30:00 PM 14.85 58.73 0.635 8.21 0.77 12.39
5/12/2021 1:45:00 PM 15.01 59.018 0.636 8.22 1.37 12.45
5/12/2021 2:00:00 PM 15.09 59.162 0.634 8.23 1.66 12.46
5/12/2021 2:15:00 PM 15.05 59.09 0.633 8.22 0.93 12.37
5/12/2021 2:30:00 PM 15.05 59.09 0.631 8.21 1.12 12.35
5/12/2021 2:45:00 PM 15.03 59.054 0.632 8.22 1.08 12.28
5/12/2021 3:00:00 PM 15.03 59.054 0.633 8.22 1.45 12.28
5/12/2021 3:15:00 PM 15.08 59.144 0.632 8.22 0.91 12.31
5/12/2021 3:30:00 PM 15.08 59.144 0.632 8.22 1.25 12.28
5/12/2021 3:45:00 PM 15.01 59.018 0.632 8.22 1.86 12.17
5/12/2021 4:00:00 PM 15.06 59.108 0.631 8.23 1.51 12.16
5/12/2021 4:15:00 PM 15.05 59.09 0.63 8.23 1.41 12.14
5/12/2021 4:30:00 PM 15.01 59.018 0.631 8.23 2.99 12.08
5/12/2021 4:45:00 PM 15.07 59.126 0.631 8.23 1.67 12.07
5/12/2021 5:00:00 PM 15 59 0.631 8.24 1.54 11.99
5/12/2021 5:15:00 PM 14.97 58.946 0.631 8.23 1.61 11.9
5/12/2021 5:30:00 PM 14.96 58.928 0.631 8.23 0.94 11.84
5/12/2021 5:45:00 PM 14.96 58.928 0.631 8.23 0.92 11.72
5/12/2021 6:00:00 PM 14.93 58.874 0.631 8.22 1.24 11.58
5/12/2021 6:15:00 PM 14.92 58.856 0.631 8.21 1 11.48
5/12/2021 6:30:00 PM 14.88 58.784 0.631 8.2 2.06 11.34
5/12/2021 6:45:00 PM 14.8 58.64 0.632 8.19 1.74 11.13
5/12/2021 7:00:00 PM 14.72 58.496 0.632 8.18 2.18 10.93
5/12/2021 7:15:00 PM 14.66 58.388 0.634 8.17 1.13 10.78
5/12/2021 7:30:00 PM 14.62 58.316 0.633 8.16 0.79 10.66
5/12/2021 7:45:00 PM 14.57 58.226 0.632 8.14 1.29 10.5
5/12/2021 8:00:00 PM 14.51 58.118 0.633 8.13 1.7 10.35
5/12/2021 8:15:00 PM 14.46 58.028 0.634 8.11 1.33 10.19
5/12/2021 8:30:00 PM 14.39 57.902 0.634 8.1 1.29 10.04
5/12/2021 8:45:00 PM 14.33 57.794 0.633 8.09 1.54 9.91
5/12/2021 9:00:00 PM 14.26 57.668 0.633 8.07 2.29 9.77
5/12/2021 9:15:00 PM 14.2 57.56 0.634 8.07 1.53 9.68
5/12/2021 9:30:00 PM 14.14 57.452 0.634 8.05 1.46 9.58
5/12/2021 9:45:00 PM 14.08 57.344 0.634 8.05 1.61 9.51
5/12/2021 10:00:00 PM 14.02 57.236 0.634 8.03 2.73 9.42
5/12/2021 10:15:00 PM 13.96 57.128 0.635 8.02 2.24 9.37
5/12/2021 10:30:00 PM 13.9 57.02 0.635 8.02 1.97 9.3
5/12/2021 10:45:00 PM 13.85 56.93 0.636 8.01 2.59 9.24
5/12/2021 11:00:00 PM 13.79 56.822 0.636 8 3.8 9.19
5/12/2021 11:15:00 PM 13.73 56.714 0.637 7.99 2.17 9.14
5/12/2021 11:30:00 PM 13.68 56.624 0.637 7.99 2.31 9.11
5/12/2021 11:45:00 PM 13.63 56.534 0.637 7.99 8.95 9.07
5/13/2021 12:00:00 AM 13.57 56.426 0.638 7.97 2.33 9.05
5/13/2021 12:15:00 AM 13.51 56.318 0.638 7.98 2.95 9.03
5/13/2021 12:30:00 AM 13.46 56.228 0.638 7.97 3.54 8.99
5/13/2021 12:45:00 AM 13.41 56.138 0.638 7.96 2.18 8.98
5/13/2021 1:00:00 AM 13.36 56.048 0.638 7.96 3.49 8.96
5/13/2021 1:15:00 AM 13.31 55.958 0.638 7.94 2.07 8.95
5/13/2021 1:30:00 AM 13.26 55.868 0.638 7.94 2.61 8.94
5/13/2021 1:45:00 AM 13.22 55.796 0.638 7.94 3.58 8.92
5/13/2021 2:00:00 AM 13.17 55.706 0.638 7.94 2.71 8.89
5/13/2021 2:15:00 AM 13.13 55.634 0.624 7.94 2.48 8.9
5/13/2021 2:30:00 AM 13.08 55.544 0.639 7.93 2.52 8.89
5/13/2021 2:45:00 AM 13.04 55.472 0.639 7.93 3.37 8.88
5/13/2021 3:00:00 AM 12.99 55.382 0.639 7.92 2.48 8.87
5/13/2021 3:15:00 AM 12.94 55.292 0.639 7.91 4.66 8.89
5/13/2021 3:30:00 AM 12.89 55.202 0.639 7.91 2.81 8.88
5/13/2021 3:45:00 AM 12.84 55.112 0.639 7.91 3.67 8.89
5/13/2021 4:00:00 AM 12.79 55.022 0.638 7.91 3.95 8.9
5/13/2021 4:15:00 AM 12.74 54.932 0.638 7.9 1.95 8.9
5/13/2021 4:30:00 AM 12.68 54.824 0.638 7.9 3.97 8.91
5/13/2021 4:45:00 AM 12.63 54.734 0.638 7.89 4.42 8.92
5/13/2021 5:00:00 AM 12.58 54.644 0.637 7.89 2.93 8.93
5/13/2021 5:15:00 AM 12.52 54.536 0.637 7.9 2.91 8.93
5/13/2021 5:30:00 AM 12.47 54.446 0.637 7.9 3.45 8.94
5/13/2021 5:45:00 AM 12.42 54.356 0.636 7.89 3.08 8.95
5/13/2021 6:00:00 AM 12.37 54.266 0.636 7.89 3.47 8.96
5/13/2021 6:15:00 AM 12.33 54.194 0.636 7.89 1.48 8.98
5/13/2021 6:30:00 AM 12.28 54.104 0.636 7.88 2.27 9
5/13/2021 6:45:00 AM 12.25 54.05 0.636 7.88 1.52 9.06
5/13/2021 7:00:00 AM 12.22 53.996 0.637 7.87 2.11 9.14
5/13/2021 7:15:00 AM 12.21 53.978 0.636 7.88 2.13 9.23
5/13/2021 7:30:00 AM 12.21 53.978 0.635 7.88 1.32 9.36
5/13/2021 7:45:00 AM 12.23 54.014 0.635 7.89 2.77 9.5
5/13/2021 8:00:00 AM 12.27 54.086 0.635 7.9 1.49 9.69
5/13/2021 8:15:00 AM 12.35 54.23 0.634 7.92 1.62 9.89
5/13/2021 8:30:00 AM 12.45 54.41 0.634 7.93 1.01 10.11
5/13/2021 8:45:00 AM 12.56 54.608 0.635 7.96 1.04 10.28
5/13/2021 9:00:00 AM 12.67 54.806 0.636 7.96 1.45 10.44
5/13/2021 9:15:00 AM 12.79 55.022 0.635 7.98 1.39 10.6
5/13/2021 9:30:00 AM 12.91 55.238 0.633 8 1.23 10.76
5/13/2021 9:45:00 AM 13.05 55.49 0.632 8.02 1.55 10.92
5/13/2021 10:00:00 AM 13.2 55.76 0.632 8.02 1.55 11.08
5/13/2021 10:15:00 AM 13.35 56.03 0.632 8.05 1.56 11.24
5/13/2021 10:30:00 AM 13.49 56.282 0.632 8.05 1.27 11.34
5/13/2021 10:45:00 AM 13.64 56.552 0.631 8.06 1.72 11.48
5/13/2021 11:00:00 AM 13.8 56.84 0.631 8.08 1.96 11.62
5/13/2021 11:15:00 AM 13.99 57.182 0.629 8.11 2.64 11.78
5/13/2021 11:30:00 AM 14.19 57.542 0.633 8.12 3.69 11.92
5/13/2021 11:45:00 AM 14.36 57.848 0.636 8.13 1.88 12.01
5/13/2021 12:00:00 PM 14.5 58.1 0.637 8.15 3.85 12.09
5/13/2021 12:15:00 PM 14.63 58.334 0.637 8.17 13.13 12.14
5/13/2021 12:30:00 PM 14.79 58.622 0.634 8.18 1.2 12.26
5/13/2021 12:45:00 PM 14.93 58.874 0.632 8.19 1.78 12.33
5/13/2021 1:00:00 PM 14.98 58.964 0.632 8.2 1.53 12.32
5/13/2021 1:15:00 PM 15.05 59.09 0.631 8.19 1.35 12.32
5/13/2021 1:30:00 PM 15.23 59.414 0.631 8.21 2.07 12.43
5/13/2021 1:45:00 PM 15.27 59.486 0.632 8.21 1.05 12.41
5/13/2021 2:00:00 PM 15.24 59.432 0.634 8.21 1.19 12.31
5/13/2021 2:15:00 PM 15.21 59.378 0.636 8.22 2.37 12.22
5/13/2021 2:30:00 PM 15.5 59.9 0.635 8.23 1.97 12.43
5/13/2021 2:45:00 PM 15.65 60.17 0.634 8.25 1.12 12.55
5/13/2021 3:00:00 PM 15.74 60.332 0.632 8.26 1.06 12.59
5/13/2021 3:15:00 PM 15.65 60.17 0.631 8.26 1.06 12.46
5/13/2021 3:30:00 PM 15.5 59.9 0.631 8.24 1.74 12.27
5/13/2021 3:45:00 PM 15.4 59.72 0.631 8.23 1.07 12.13
5/13/2021 4:00:00 PM 15.25 59.45 0.631 8.22 1.78 11.98
5/13/2021 4:15:00 PM 15.16 59.288 0.63 8.22 0.85 11.9
5/13/2021 4:30:00 PM 15.23 59.414 0.63 8.23 1.14 11.97
5/13/2021 4:45:00 PM 15.21 59.378 0.63 8.23 1.81 11.93
5/13/2021 5:00:00 PM 15.23 59.414 0.629 8.23 1.28 11.87
5/13/2021 5:15:00 PM 15.33 59.594 0.63 8.24 1.63 11.93
5/13/2021 5:30:00 PM 15.37 59.666 0.629 8.25 1.07 11.89
5/13/2021 5:45:00 PM 15.41 59.738 0.629 8.24 0.97 11.87
5/13/2021 6:00:00 PM 15.41 59.738 0.629 8.24 1.64 11.76
5/13/2021 6:15:00 PM 15.36 59.648 0.63 8.22 1.2 11.6
5/13/2021 6:30:00 PM 15.3 59.54 0.631 8.21 1.47 11.44
5/13/2021 6:45:00 PM 15.25 59.45 0.63 8.21 1.72 11.28
5/13/2021 7:00:00 PM 15.23 59.414 0.63 8.2 1.61 11.13
5/13/2021 7:15:00 PM 15.21 59.378 0.631 8.2 1.55 11.01
5/13/2021 7:30:00 PM 15.19 59.342 0.631 8.19 2.13 10.88
5/13/2021 7:45:00 PM 15.18 59.324 0.631 8.18 3.14 10.71
5/13/2021 8:00:00 PM 15.16 59.288 0.632 8.17 1.7 10.57
5/13/2021 8:15:00 PM 15.13 59.234 0.631 8.15 1.88 10.36
5/13/2021 8:30:00 PM 15.09 59.162 0.632 8.14 4.06 10.18
5/13/2021 8:45:00 PM 15.05 59.09 0.632 8.12 2.63 10
5/13/2021 9:00:00 PM 15.01 59.018 0.632 8.11 2.25 9.84
5/13/2021 9:15:00 PM 14.96 58.928 0.632 8.1 2.11 9.69
5/13/2021 9:30:00 PM 14.92 58.856 0.623 8.09 3.43 9.58
5/13/2021 9:45:00 PM 14.87 58.766 0.633 8.08 2.15 9.47
5/13/2021 10:00:00 PM 14.82 58.676 0.632 8.07 4.17 9.38
5/13/2021 10:15:00 PM 14.77 58.586 0.633 8.05 2.5 9.29
5/13/2021 10:30:00 PM 14.72 58.496 0.633 8.05 3.31 9.21
5/13/2021 10:45:00 PM 14.68 58.424 0.632 8.05 2.49 9.15
5/13/2021 11:00:00 PM 14.63 58.334 0.633 8.03 2.76 9.09
5/13/2021 11:15:00 PM 14.59 58.262 0.625 8.02 3.23 9.05
5/13/2021 11:30:00 PM 14.55 58.19 0.621 8 3.02 9
5/13/2021 11:45:00 PM 14.5 58.1 0.632 7.99 3.57 8.96
5/14/2021 12:00:00 AM 14.44 57.992 0.635 7.99 4.71 8.92
5/14/2021 12:15:00 AM 14.39 57.902 0.635 7.99 3.6 8.88
5/14/2021 12:30:00 AM 14.32 57.776 0.635 7.98 3.01 8.85
5/14/2021 12:45:00 AM 14.26 57.668 0.635 7.97 3.37 8.82
5/14/2021 1:00:00 AM 14.19 57.542 0.635 7.97 3.7 8.79
5/14/2021 1:15:00 AM 14.13 57.434 0.636 7.96 4.23 8.77
5/14/2021 1:30:00 AM 14.06 57.308 0.635 7.96 2.98 8.75
5/14/2021 1:45:00 AM 14 57.2 0.612 7.95 3.92 8.73
5/14/2021 2:00:00 AM 13.95 57.11 0.635 7.94 3.5 8.73
5/14/2021 2:15:00 AM 13.88 56.984 0.607 7.92 3.27 8.73
5/14/2021 2:30:00 AM 13.83 56.894 0.634 7.94 2.82 8.7
5/14/2021 2:45:00 AM 13.77 56.786 0.635 7.95 3.86 8.7
5/14/2021 3:00:00 AM 13.71 56.678 0.638 7.94 4.08 8.7
5/14/2021 3:15:00 AM 13.65 56.57 0.607 7.92 4.12 8.68
5/14/2021 3:30:00 AM 13.6 56.48 0.617 7.92 3.9 8.68
5/14/2021 3:45:00 AM 13.54 56.372 0.596 7.89 4.14 8.69
5/14/2021 4:00:00 AM 13.49 56.282 0.615 7.91 3.03 8.68
5/14/2021 4:15:00 AM 13.43 56.174 0.636 7.91 4.19 8.69
5/14/2021 4:30:00 AM 13.38 56.084 0.637 7.9 4.39 8.69
5/14/2021 4:45:00 AM 13.32 55.976 0.608 7.91 4.27 8.7
5/14/2021 5:00:00 AM 13.27 55.886 0.598 7.91 3.44 8.7
5/14/2021 5:15:00 AM 13.21 55.778 0.636 7.91 3.89 8.72
5/14/2021 5:30:00 AM 13.16 55.688 0.613 7.9 4.45 8.71
5/14/2021 5:45:00 AM 13.1 55.58 0.636 7.9 3.62 8.72
5/14/2021 6:00:00 AM 13.05 55.49 0.637 7.9 2.95 8.74
5/14/2021 6:15:00 AM 13 55.4 0.636 7.89 2.58 8.77
5/14/2021 6:30:00 AM 12.95 55.31 0.636 7.89 3.05 8.81
5/14/2021 6:45:00 AM 12.92 55.256 0.608 7.89 3.06 8.86
5/14/2021 7:00:00 AM 12.88 55.184 0.592 7.9 2.27 8.93
5/14/2021 7:15:00 AM 12.86 55.148 0.634 7.9 1.89 9.03
5/14/2021 7:30:00 AM 12.86 55.148 0.635 7.91 2.19 9.15
5/14/2021 7:45:00 AM 12.87 55.166 0.633 7.92 2.52 9.31
5/14/2021 8:00:00 AM 12.91 55.238 0.632 7.92 2.09 9.47
5/14/2021 8:15:00 AM 12.97 55.346 0.635 7.93 1.16 9.6
5/14/2021 8:30:00 AM 13.04 55.472 0.635 7.95 1.73 9.73
5/14/2021 8:45:00 AM 13.15 55.67 0.633 7.96 1.32 9.91
5/14/2021 9:00:00 AM 13.26 55.868 0.635 7.97 1.98 10.09
5/14/2021 9:15:00 AM 13.4 56.12 0.634 7.99 1.31 10.27
5/14/2021 9:30:00 AM 13.55 56.39 0.635 8.01 1.75 10.44
5/14/2021 9:45:00 AM 13.7 56.66 0.633 8.02 1.32 10.6
5/14/2021 10:00:00 AM 13.85 56.93 0.636 8.04 1.31 10.76
5/14/2021 10:15:00 AM 13.99 57.182 0.636 8.06 1.31 10.92
5/14/2021 10:30:00 AM 14.14 57.452 0.637 8.07 1.71 11.05
5/14/2021 10:45:00 AM 14.29 57.722 0.636 8.08 1.06 11.21
5/14/2021 11:00:00 AM 14.46 58.028 0.635 8.11 1.37 11.38
5/14/2021 11:15:00 AM 14.65 58.37 0.635 8.12 1.3 11.54
5/14/2021 11:30:00 AM 14.83 58.694 0.635 8.14 1.67 11.7
5/14/2021 11:45:00 AM 15.02 59.036 0.637 8.16 0.97 11.82
5/14/2021 12:00:00 PM 15.21 59.378 0.638 8.18 1.22 11.94
5/14/2021 12:15:00 PM 15.38 59.684 0.639 8.19 1.43 12.01
5/14/2021 12:30:00 PM 15.53 59.954 0.639 8.2 1.48 12.14
5/14/2021 12:45:00 PM 15.68 60.224 0.638 8.21 1.21 12.22
5/14/2021 1:00:00 PM 15.83 60.494 0.637 8.23 1.34 12.31
5/14/2021 1:15:00 PM 15.96 60.728 0.636 8.24 1.48 12.4
5/14/2021 1:30:00 PM 16.11 60.998 0.636 8.26 1 12.46
5/14/2021 1:45:00 PM 16.23 61.214 0.635 8.27 1.43 12.52
5/14/2021 2:00:00 PM 16.36 61.448 0.635 8.28 1.51 12.55
5/14/2021 2:15:00 PM 16.45 61.61 0.634 8.29 1.13 12.59
5/14/2021 2:30:00 PM 16.53 61.754 0.635 8.29 2.08 12.6
5/14/2021 2:45:00 PM 16.6 61.88 0.634 8.3 1.85 12.63
5/14/2021 3:00:00 PM 16.67 62.006 0.634 8.31 1.4 12.62
5/14/2021 3:15:00 PM 16.71 62.078 0.634 8.32 1.29 12.61
5/14/2021 3:30:00 PM 16.74 62.132 0.634 8.33 1.56 12.57
5/14/2021 3:45:00 PM 16.67 62.006 0.637 8.32 1.07 12.42
5/14/2021 4:00:00 PM 16.65 61.97 0.639 8.32 1.83 12.31
5/14/2021 4:15:00 PM 16.57 61.826 0.64 8.31 1.4 12.14
5/14/2021 4:30:00 PM 16.44 61.592 0.639 8.29 2.37 11.95
5/14/2021 4:45:00 PM 16.33 61.394 0.638 8.28 1.88 11.81
5/14/2021 5:00:00 PM 16.25 61.25 0.636 8.28 2.54 11.71
5/14/2021 5:15:00 PM 16.09 60.962 0.636 8.26 1.44 11.5
5/14/2021 5:30:00 PM 16 60.8 0.635 8.26 1.58 11.4
5/14/2021 5:45:00 PM 15.97 60.746 0.634 8.26 2.15 11.4
5/14/2021 6:00:00 PM 15.96 60.728 0.634 8.27 1.59 11.45
5/14/2021 6:15:00 PM 15.95 60.71 0.634 8.27 1.46 11.45
5/14/2021 6:30:00 PM 15.94 60.692 0.633 8.26 1.45 11.39
5/14/2021 6:45:00 PM 15.92 60.656 0.634 8.26 1.63 11.25
5/14/2021 7:00:00 PM 15.86 60.548 0.634 8.25 1.38 11.04
5/14/2021 7:15:00 PM 15.79 60.422 0.635 8.24 1.02 10.82
5/14/2021 7:30:00 PM 15.74 60.332 0.635 8.22 2.1 10.61
5/14/2021 7:45:00 PM 15.7 60.26 0.635 8.21 2.69 10.44
5/14/2021 8:00:00 PM 15.66 60.188 0.635 8.21 4.98 10.27
5/14/2021 8:15:00 PM 15.62 60.116 0.635 8.2 1.8 10.11
5/14/2021 8:30:00 PM 15.58 60.044 0.635 8.19 1.87 9.95
5/14/2021 8:45:00 PM 15.53 59.954 0.635 8.17 2.92 9.78
5/14/2021 9:00:00 PM 15.48 59.864 0.635 8.15 2.71 9.63
5/14/2021 9:15:00 PM 15.42 59.756 0.635 8.14 3.74 9.5
5/14/2021 9:30:00 PM 15.36 59.648 0.636 8.12 2.4 9.37
5/14/2021 9:45:00 PM 15.29 59.522 0.637 8.1 1.61 9.28
5/14/2021 10:00:00 PM 15.22 59.396 0.637 8.09 2.41 9.18
5/14/2021 10:15:00 PM 15.15 59.27 0.636 8.08 2.68 9.11
5/14/2021 10:30:00 PM 15.08 59.144 0.637 8.07 1.69 9.02
5/14/2021 10:45:00 PM 15.01 59.018 0.637 8.06 3.17 8.93
5/14/2021 11:00:00 PM 14.95 58.91 0.637 8.04 3.06 8.88
5/14/2021 11:15:00 PM 14.88 58.784 0.638 8.03 3.13 8.83
5/14/2021 11:30:00 PM 14.82 58.676 0.639 8.02 4.31 8.78
5/14/2021 11:45:00 PM 14.75 58.55 0.639 8.01 1.92 8.75
5/15/2021 12:00:00 AM 14.68 58.424 0.639 8.01 3.69 8.71
5/15/2021 12:15:00 AM 14.61 58.298 0.639 8 3.64 8.68
5/15/2021 12:30:00 AM 14.54 58.172 0.639 7.99 3.74 8.66
5/15/2021 12:45:00 AM 14.48 58.064 0.633 7.99 2.71 8.63
5/15/2021 1:00:00 AM 14.42 57.956 0.64 7.99 4.36 8.61
5/15/2021 1:15:00 AM 14.37 57.866 0.64 7.98 4.53 8.58
5/15/2021 1:30:00 AM 14.32 57.776 0.641 7.97 3.96 8.58
5/15/2021 1:45:00 AM 14.26 57.668 0.641 7.97 2.26 8.56
5/15/2021 2:00:00 AM 14.2 57.56 0.641 7.97 4.68 8.54
5/15/2021 2:15:00 AM 14.15 57.47 0.641 7.96 2.99 8.52
5/15/2021 2:30:00 AM 14.09 57.362 0.641 7.95 2.17 8.53
5/15/2021 2:45:00 AM 14.04 57.272 0.641 7.95 2.58 8.52
5/15/2021 3:00:00 AM 13.98 57.164 0.641 7.95 2.37 8.5
5/15/2021 3:15:00 AM 13.92 57.056 0.64 7.94 2.65 8.52
5/15/2021 3:30:00 AM 13.86 56.948 0.64 7.94 3.52 8.51
5/15/2021 3:45:00 AM 13.8 56.84 0.64 7.93 3.28 8.52
5/15/2021 4:00:00 AM 13.74 56.732 0.639 7.93 3.51 8.54
5/15/2021 4:15:00 AM 13.69 56.642 0.639 7.93 2.81 8.54
5/15/2021 4:30:00 AM 13.63 56.534 0.639 7.93 2.41 8.55
5/15/2021 4:45:00 AM 13.57 56.426 0.639 7.93 2.02 8.56
5/15/2021 5:00:00 AM 13.51 56.318 0.638 7.92 2.03 8.59
5/15/2021 5:15:00 AM 13.45 56.21 0.638 7.92 4.02 8.58
5/15/2021 5:30:00 AM 13.4 56.12 0.638 7.92 2.93 8.61
5/15/2021 5:45:00 AM 13.34 56.012 0.637 7.91 2.53 8.61
5/15/2021 6:00:00 AM 13.29 55.922 0.637 7.92 3.12 8.65
5/15/2021 6:15:00 AM 13.24 55.832 0.637 7.92 3.9 8.68
5/15/2021 6:30:00 AM 13.2 55.76 0.637 7.91 5.25 8.72
5/15/2021 6:45:00 AM 13.16 55.688 0.637 7.91 1.74 8.78
5/15/2021 7:00:00 AM 13.13 55.634 0.637 7.92 4.32 8.87
5/15/2021 7:15:00 AM 13.11 55.598 0.636 7.92 1.31 8.97
5/15/2021 7:30:00 AM 13.1 55.58 0.635 7.92 1.74 9.08
5/15/2021 7:45:00 AM 13.12 55.616 0.636 7.93 1.71 9.2
5/15/2021 8:00:00 AM 13.15 55.67 0.637 7.94 3.39 9.33
5/15/2021 8:15:00 AM 13.21 55.778 0.637 7.95 0.98 9.5
5/15/2021 8:30:00 AM 13.29 55.922 0.637 7.96 1.07 9.65
5/15/2021 8:45:00 AM 13.38 56.084 0.637 7.98 0.83 9.83
5/15/2021 9:00:00 AM 13.5 56.3 0.637 8 0.77 10.01
5/15/2021 9:15:00 AM 13.63 56.534 0.636 8.01 1.56 10.18
5/15/2021 9:30:00 AM 13.77 56.786 0.636 8.04 0.75 10.37
5/15/2021 9:45:00 AM 13.92 57.056 0.636 8.06 0.88 10.56
5/15/2021 10:00:00 AM 14.08 57.344 0.636 8.08 0.89 10.75
5/15/2021 10:15:00 AM 14.25 57.65 0.635 8.09 0.94 10.92
5/15/2021 10:30:00 AM 14.42 57.956 0.635 8.11 1.54 11.1
5/15/2021 10:45:00 AM 14.61 58.298 0.635 8.13 1.07 11.25
5/15/2021 11:00:00 AM 14.78 58.604 0.635 8.15 1.27 11.4
5/15/2021 11:15:00 AM 14.96 58.928 0.635 8.16 1.06 11.56
5/15/2021 11:30:00 AM 15.15 59.27 0.635 8.19 1.17 11.68
5/15/2021 11:45:00 AM 15.33 59.594 0.634 8.2 0.97 11.83
5/15/2021 12:00:00 PM 15.51 59.918 0.634 8.22 1.01 11.94
5/15/2021 12:15:00 PM 15.69 60.242 0.635 8.23 3.83 12.05
5/15/2021 12:30:00 PM 15.71 60.278 0.635 8.23 0.83 12.06
5/15/2021 12:45:00 PM 15.64 60.152 0.635 8.22 0.95 11.99
5/15/2021 1:00:00 PM 15.6 60.08 0.636 8.23 2.46 11.98
5/15/2021 1:15:00 PM 15.52 59.936 0.636 8.22 0.84 11.98
5/15/2021 1:30:00 PM 15.51 59.918 0.636 8.22 1.14 12.05
5/15/2021 1:45:00 PM 15.53 59.954 0.635 8.22 1.21 12.15
5/15/2021 2:00:00 PM 15.47 59.846 0.636 8.24 0.9 12.18
5/15/2021 2:15:00 PM 15.52 59.936 0.635 8.25 0.74 12.23
5/15/2021 2:30:00 PM 15.6 60.08 0.634 8.27 1.09 12.32
5/15/2021 2:45:00 PM 15.67 60.206 0.633 8.29 0.8 12.37
5/15/2021 3:00:00 PM 15.64 60.152 0.635 8.28 1.18 12.34
5/15/2021 3:15:00 PM 15.73 60.314 0.635 8.29 1.21 12.36
5/15/2021 3:30:00 PM 15.73 60.314 0.634 8.29 0.89 12.29
5/15/2021 3:45:00 PM 15.69 60.242 0.634 8.29 1.62 12.18
5/15/2021 4:00:00 PM 15.72 60.296 0.635 8.29 0.95 12.11
5/15/2021 4:15:00 PM 15.79 60.422 0.635 8.29 1.05 12.05
5/15/2021 4:30:00 PM 15.9 60.62 0.635 8.3 3.54 12.09
5/15/2021 4:45:00 PM 15.96 60.728 0.635 8.31 1.3 12.11
5/15/2021 5:00:00 PM 15.99 60.782 0.636 8.31 1.75 12.06
5/15/2021 5:15:00 PM 16 60.8 0.635 8.3 0.84 12
5/15/2021 5:30:00 PM 15.94 60.692 0.635 8.3 1.58 11.92
5/15/2021 5:45:00 PM 15.92 60.656 0.635 8.3 1.25 11.88
5/15/2021 6:00:00 PM 15.9 60.62 0.636 8.29 0.79 11.78
5/15/2021 6:15:00 PM 15.86 60.548 0.636 8.29 0.82 11.67
5/15/2021 6:30:00 PM 15.82 60.476 0.637 8.29 1.43 11.51
5/15/2021 6:45:00 PM 15.79 60.422 0.636 8.28 1.18 11.4
5/15/2021 7:00:00 PM 15.76 60.368 0.636 8.28 0.82 11.23
5/15/2021 7:15:00 PM 15.75 60.35 0.636 8.28 0.9 11.07
5/15/2021 7:30:00 PM 15.73 60.314 0.637 8.26 0.76 10.85
5/15/2021 7:45:00 PM 15.71 60.278 0.637 8.24 1.06 10.64
5/15/2021 8:00:00 PM 15.68 60.224 0.637 8.23 1.39 10.41
5/15/2021 8:15:00 PM 15.63 60.134 0.638 8.2 2.98 10.18
5/15/2021 8:30:00 PM 15.58 60.044 0.638 8.19 1.12 9.97
5/15/2021 8:45:00 PM 15.54 59.972 0.639 8.17 2.42 9.79
5/15/2021 9:00:00 PM 15.49 59.882 0.639 8.15 2.9 9.63
5/15/2021 9:15:00 PM 15.44 59.792 0.639 8.14 2.84 9.47
5/15/2021 9:30:00 PM 15.39 59.702 0.64 8.11 1.33 9.33
5/15/2021 9:45:00 PM 15.35 59.63 0.64 8.1 3.38 9.2
5/15/2021 10:00:00 PM 15.32 59.576 0.64 8.08 1.54 9.08
5/15/2021 10:15:00 PM 15.28 59.504 0.64 8.07 2.02 8.96
5/15/2021 10:30:00 PM 15.24 59.432 0.641 8.06 2.27 8.88
5/15/2021 10:45:00 PM 15.2 59.36 0.641 8.05 2.35 8.8
5/15/2021 11:00:00 PM 15.16 59.288 0.641 8.04 2.34 8.73
5/15/2021 11:15:00 PM 15.12 59.216 0.641 8 2.91 8.66
5/15/2021 11:30:00 PM 15.07 59.126 0.641 8.02 2.5 8.61
5/15/2021 11:45:00 PM 15.01 59.018 0.641 8 2.17 8.55
5/16/2021 12:00:00 AM 14.96 58.928 0.641 7.99 2.2 8.51
5/16/2021 12:15:00 AM 14.9 58.82 0.64 7.99 1.67 8.46
5/16/2021 12:30:00 AM 14.84 58.712 0.641 7.99 2.77 8.44
5/16/2021 12:45:00 AM 14.78 58.604 0.641 7.98 2.61 8.4
5/16/2021 1:00:00 AM 14.72 58.496 0.641 7.97 3.96 8.36
5/16/2021 1:15:00 AM 14.66 58.388 0.641 7.97 3.12 8.33
5/16/2021 1:30:00 AM 14.61 58.298 0.642 7.97 2.28 8.31
5/16/2021 1:45:00 AM 14.56 58.208 0.642 7.96 1.98 8.3
5/16/2021 2:00:00 AM 14.51 58.118 0.642 7.96 3.61 8.27
5/16/2021 2:15:00 AM 14.46 58.028 0.642 7.96 3.88 8.26
5/16/2021 2:30:00 AM 14.41 57.938 0.642 7.96 2.69 8.25
5/16/2021 2:45:00 AM 14.36 57.848 0.643 7.96 2.63 8.23
5/16/2021 3:00:00 AM 14.31 57.758 0.643 7.97 2.8 8.21
5/16/2021 3:15:00 AM 14.26 57.668 0.642 7.9 2.3 8.21
5/16/2021 3:30:00 AM 14.22 57.596 0.643 7.95 2.59 8.19
5/16/2021 4:00:00 AM 14.15 57.47 0.643 7.96 2.38 8.12
5/16/2021 4:15:00 AM 14.12 57.416 0.645 7.95 2.05 8.1
5/16/2021 4:30:00 AM 14.08 57.344 0.646 7.94 4.52 8.07
5/16/2021 4:45:00 AM 14.04 57.272 0.647 7.94 1.84 8.06
5/16/2021 5:00:00 AM 14 57.2 0.648 7.93 3.34 8.05
5/16/2021 5:15:00 AM 13.96 57.128 0.648 7.93 3.35 8.05
5/16/2021 5:30:00 AM 13.9 57.02 0.648 7.93 4.99 8.07
5/16/2021 5:45:00 AM 13.83 56.894 0.647 7.97 3.06 8.12
5/16/2021 6:00:00 AM 13.78 56.804 0.646 7.96 1.62 8.15
5/16/2021 6:15:00 AM 13.73 56.714 0.646 7.96 3.51 8.21
5/16/2021 6:30:00 AM 13.7 56.66 0.646 7.96 2.24 8.27
5/16/2021 6:45:00 AM 13.67 56.606 0.645 7.96 2.84 8.35
5/16/2021 7:00:00 AM 13.64 56.552 0.645 7.96 2.3 8.45
5/16/2021 7:15:00 AM 13.63 56.534 0.645 7.96 1.71 8.57
5/16/2021 7:30:00 AM 13.63 56.534 0.644 7.96 1.14 8.73
5/16/2021 7:45:00 AM 13.63 56.534 0.644 7.96 3.33 8.89
5/16/2021 8:00:00 AM 13.64 56.552 0.644 7.97 1.17 9.05
5/16/2021 8:15:00 AM 13.66 56.588 0.643 7.97 1.23 9.23
5/16/2021 8:30:00 AM 13.7 56.66 0.642 7.98 1.38 9.44
5/16/2021 8:45:00 AM 13.72 56.696 0.642 7.99 0.99 9.58
5/16/2021 9:00:00 AM 13.75 56.75 0.641 8 1.27 9.74
5/16/2021 9:15:00 AM 13.78 56.804 0.64 8.02 0.99 9.88
5/16/2021 9:30:00 AM 13.82 56.876 0.64 8.03 1.06 10.01
5/16/2021 9:45:00 AM 13.86 56.948 0.639 8.04 1.02 10.14
5/16/2021 10:00:00 AM 13.89 57.002 0.64 8.05 1.35 10.27
5/16/2021 10:15:00 AM 13.93 57.074 0.639 8.06 0.97 10.4
5/16/2021 10:30:00 AM 13.97 57.146 0.639 8.08 1.2 10.51
5/16/2021 10:45:00 AM 14.01 57.218 0.638 8.09 0.85 10.62
5/16/2021 11:00:00 AM 14.05 57.29 0.638 8.11 0.97 10.73
5/16/2021 11:15:00 AM 14.1 57.38 0.638 8.12 0.86 10.88
5/16/2021 11:30:00 AM 14.16 57.488 0.637 8.14 0.69 11
5/16/2021 11:45:00 AM 14.21 57.578 0.638 8.15 1.29 11.14
5/16/2021 12:00:00 PM 14.26 57.668 0.637 8.17 0.98 11.25
5/16/2021 12:15:00 PM 14.3 57.74 0.637 8.19 0.65 11.33
5/16/2021 12:30:00 PM 14.33 57.794 0.637 8.18 1.38 11.39
5/16/2021 12:45:00 PM 14.39 57.902 0.637 8.19 0.82 11.52
5/16/2021 1:00:00 PM 14.47 58.046 0.636 8.2 1.01 11.62
5/16/2021 1:15:00 PM 14.62 58.316 0.636 8.21 1 11.8
5/16/2021 1:30:00 PM 14.73 58.514 0.636 8.24 0.71 11.92
5/16/2021 1:45:00 PM 14.75 58.55 0.635 8.25 0.93 11.95
5/16/2021 2:00:00 PM 14.83 58.694 0.636 8.26 0.77 11.98
5/16/2021 2:15:00 PM 14.96 58.928 0.635 8.27 0.84 12.11
5/16/2021 2:30:00 PM 15.03 59.054 0.635 8.28 0.9 12.18
5/16/2021 2:45:00 PM 15.12 59.216 0.637 8.29 1.33 12.21
5/16/2021 3:00:00 PM 15.18 59.324 0.639 8.3 1.06 12.19
5/16/2021 3:15:00 PM 15.23 59.414 0.642 8.31 2.98 12.11
5/16/2021 3:30:00 PM 15.25 59.45 0.643 8.31 1.16 12.1
5/16/2021 3:45:00 PM 15.25 59.45 0.643 8.31 1.09 12.08
5/16/2021 4:00:00 PM 15.25 59.45 0.643 8.31 1.04 12.04
5/16/2021 4:15:00 PM 15.25 59.45 0.643 8.31 1.24 11.99
5/16/2021 4:30:00 PM 15.24 59.432 0.643 8.31 2.56 11.95
5/16/2021 4:45:00 PM 15.24 59.432 0.643 8.31 1.07 11.87
5/16/2021 5:00:00 PM 15.23 59.414 0.644 8.32 0.79 11.76
5/16/2021 5:15:00 PM 15.22 59.396 0.644 8.3 1.72 11.64
5/16/2021 5:30:00 PM 15.2 59.36 0.644 8.3 1.03 11.5
5/16/2021 5:45:00 PM 15.16 59.288 0.645 8.29 1.21 11.36
5/16/2021 6:00:00 PM 15.13 59.234 0.644 8.29 2.17 11.25
5/16/2021 6:15:00 PM 15.1 59.18 0.644 8.28 1.57 11.2
5/16/2021 6:30:00 PM 15.05 59.09 0.643 8.27 1.32 11.09
5/16/2021 6:45:00 PM 14.98 58.964 0.641 8.26 0.85 11.03
5/16/2021 7:00:00 PM 14.92 58.856 0.639 8.25 0.9 10.93
5/16/2021 7:15:00 PM 14.86 58.748 0.639 8.24 0.69 10.78
5/16/2021 7:30:00 PM 14.8 58.64 0.638 8.22 1.58 10.64
5/16/2021 7:45:00 PM 14.76 58.568 0.638 8.21 1.02 10.48
5/16/2021 8:00:00 PM 14.73 58.514 0.638 8.19 0.72 10.3
5/16/2021 8:15:00 PM 14.69 58.442 0.638 8.19 1.29 10.12
5/16/2021 8:30:00 PM 14.67 58.406 0.638 8.16 1.18 9.94
5/16/2021 8:45:00 PM 14.64 58.352 0.638 8.15 1.09 9.79
5/16/2021 9:00:00 PM 14.62 58.316 0.639 8.14 1.28 9.63
5/16/2021 9:15:00 PM 14.59 58.262 0.638 8.13 1.91 9.51
5/16/2021 9:30:00 PM 14.56 58.208 0.638 8.12 1.42 9.4
5/16/2021 9:45:00 PM 14.54 58.172 0.639 8.11 1.19 9.31
5/16/2021 10:00:00 PM 14.5 58.1 0.639 8.1 2.5 9.22
5/16/2021 10:15:00 PM 14.47 58.046 0.64 8.09 1.99 9.15
5/16/2021 10:30:00 PM 14.43 57.974 0.64 8.09 1.67 9.07
5/16/2021 10:45:00 PM 14.38 57.884 0.64 8.07 1.8 9
5/16/2021 11:00:00 PM 14.35 57.83 0.64 8.07 1.8 8.95
5/16/2021 11:15:00 PM 14.31 57.758 0.64 8.06 1.45 8.91
5/16/2021 11:30:00 PM 14.27 57.686 0.64 8.05 1.3 8.85
5/16/2021 11:45:00 PM 14.23 57.614 0.64 8.04 1.76 8.8
5/17/2021 12:00:00 AM 14.19 57.542 0.641 8.04 1.29 8.76
5/17/2021 12:15:00 AM 14.14 57.452 0.641 8.03 1.87 8.72
5/17/2021 12:30:00 AM 14.09 57.362 0.641 8.03 1.64 8.69
5/17/2021 12:45:00 AM 14.05 57.29 0.642 8.02 1.65 8.66
5/17/2021 1:00:00 AM 14.01 57.218 0.641 8.01 1.86 8.61
5/17/2021 1:15:00 AM 13.97 57.146 0.642 8 2 8.58
5/17/2021 1:30:00 AM 13.93 57.074 0.643 7.99 1.96 8.55
5/17/2021 1:45:00 AM 13.88 56.984 0.643 7.98 2.67 8.53
5/17/2021 2:00:00 AM 13.84 56.912 0.643 7.98 3.25 8.52
5/17/2021 2:15:00 AM 13.79 56.822 0.643 7.97 1.54 8.5
5/17/2021 2:30:00 AM 13.74 56.732 0.643 7.96 2.23 8.49
5/17/2021 2:45:00 AM 13.69 56.642 0.642 7.95 1.73 8.47
5/17/2021 3:00:00 AM 13.64 56.552 0.643 7.95 1.52 8.46
5/17/2021 3:15:00 AM 13.6 56.48 0.642 7.95 2.84 8.46
5/17/2021 3:30:00 AM 13.55 56.39 0.642 7.95 2.71 8.45
5/17/2021 3:45:00 AM 13.5 56.3 0.642 7.95 2.11 8.45
5/17/2021 4:00:00 AM 13.45 56.21 0.642 7.95 1.74 8.43
5/17/2021 4:15:00 AM 13.41 56.138 0.642 7.94 2.13 8.44
5/17/2021 4:30:00 AM 13.36 56.048 0.642 7.94 2.22 8.43
5/17/2021 4:45:00 AM 13.31 55.958 0.642 7.94 3.53 8.43
5/17/2021 5:00:00 AM 13.26 55.868 0.641 7.93 1.41 8.43
5/17/2021 5:15:00 AM 13.22 55.796 0.642 7.92 2.77 8.44
5/17/2021 5:30:00 AM 13.17 55.706 0.641 7.93 2.77 8.45
5/17/2021 5:45:00 AM 13.13 55.634 0.641 7.92 1.79 8.46
5/17/2021 6:00:00 AM 13.08 55.544 0.641 7.93 1.41 8.48
5/17/2021 6:15:00 AM 13.03 55.454 0.641 7.93 1.53 8.51
5/17/2021 6:30:00 AM 12.99 55.382 0.64 7.93 2.33 8.56
5/17/2021 6:45:00 AM 12.96 55.328 0.64 7.93 1.67 8.64
5/17/2021 7:00:00 AM 12.94 55.292 0.639 7.94 1.38 8.74
5/17/2021 7:15:00 AM 12.94 55.292 0.639 7.93 1.88 8.87
5/17/2021 7:30:00 AM 12.95 55.31 0.639 7.94 1.06 9.04
5/17/2021 7:45:00 AM 12.99 55.382 0.638 7.95 1.22 9.24
5/17/2021 8:00:00 AM 13.05 55.49 0.638 7.97 1.1 9.48
5/17/2021 8:15:00 AM 13.12 55.616 0.637 7.98 0.98 9.68
5/17/2021 8:30:00 AM 13.19 55.742 0.637 8 1.2 9.89
5/17/2021 8:45:00 AM 13.27 55.886 0.637 8.01 0.93 10.06
5/17/2021 9:00:00 AM 13.38 56.084 0.637 8.03 1.09 10.27
5/17/2021 9:15:00 AM 13.5 56.3 0.636 8.05 0.87 10.46
5/17/2021 9:30:00 AM 13.64 56.552 0.636 8.07 0.76 10.68
5/17/2021 9:45:00 AM 13.79 56.822 0.635 8.09 0.95 10.88
5/17/2021 10:00:00 AM 13.92 57.056 0.635 8.11 1.13 11.06
5/17/2021 10:15:00 AM 14.06 57.308 0.634 8.13 2.13 11.23
5/17/2021 10:30:00 AM 14.19 57.542 0.633 8.15 1.29 11.4
5/17/2021 10:45:00 AM 14.32 57.776 0.633 8.17 0.81 11.56
5/17/2021 11:00:00 AM 14.44 57.992 0.633 8.18 0.79 11.71
5/17/2021 11:15:00 AM 14.57 58.226 0.633 8.2 0.84 11.84
5/17/2021 11:30:00 AM 14.71 58.478 0.633 8.21 0.83 11.98
5/17/2021 11:45:00 AM 14.83 58.694 0.633 8.23 0.93 12.12
5/17/2021 12:00:00 PM 14.93 58.874 0.632 8.25 1.5 12.22
5/17/2021 12:15:00 PM 15.04 59.072 0.632 8.26 3.97 12.3
5/17/2021 12:30:00 PM 15.19 59.342 0.632 8.28 0.73 12.41
5/17/2021 12:45:00 PM 15.37 59.666 0.632 8.3 0.93 12.54
5/17/2021 1:00:00 PM 15.53 59.954 0.632 8.31 2.41 12.63
5/17/2021 1:15:00 PM 15.69 60.242 0.632 8.33 0.63 12.74
5/17/2021 1:30:00 PM 15.79 60.422 0.632 8.34 0.56 12.79
5/17/2021 1:45:00 PM 15.88 60.584 0.633 8.35 0.87 12.81
5/17/2021 2:00:00 PM 16.04 60.872 0.632 8.36 1.33 12.87
5/17/2021 2:15:00 PM 16.18 61.124 0.632 8.37 0.79 12.91
5/17/2021 2:30:00 PM 16.32 61.376 0.633 8.38 1.23 12.93
5/17/2021 2:45:00 PM 16.43 61.574 0.634 8.39 0.76 12.94
5/17/2021 3:00:00 PM 16.55 61.79 0.635 8.4 0.84 12.89
5/17/2021 3:15:00 PM 16.65 61.97 0.637 8.4 1.05 12.89
5/17/2021 3:30:00 PM 16.68 62.024 0.635 8.41 0.87 12.87
5/17/2021 3:45:00 PM 16.67 62.006 0.635 8.39 1.52 12.77
5/17/2021 4:00:00 PM 16.67 62.006 0.634 8.4 0.72 12.71
5/17/2021 4:15:00 PM 16.7 62.06 0.634 8.41 1.13 12.69
5/17/2021 4:30:00 PM 16.68 62.024 0.633 8.41 1.41 12.65
5/17/2021 4:45:00 PM 16.62 61.916 0.634 8.4 1.32 12.53
5/17/2021 5:00:00 PM 16.58 61.844 0.633 8.39 1.82 12.4
5/17/2021 5:15:00 PM 16.57 61.826 0.633 8.4 1.67 12.33
5/17/2021 5:30:00 PM 16.55 61.79 0.633 8.39 1.55 12.24
5/17/2021 5:45:00 PM 16.51 61.718 0.633 8.38 1.09 12.12
5/17/2021 6:00:00 PM 16.44 61.592 0.634 8.38 6.8 11.93
5/17/2021 6:15:00 PM 16.38 61.484 0.634 8.37 8.05 11.75
5/17/2021 6:30:00 PM 16.33 61.394 0.634 8.36 1.44 11.56
5/17/2021 6:45:00 PM 16.27 61.286 0.635 8.35 1.9 11.34
5/17/2021 7:00:00 PM 16.21 61.178 0.634 8.33 1.81 11.14
5/17/2021 7:15:00 PM 16.16 61.088 0.635 8.32 1.28 10.93
5/17/2021 7:30:00 PM 16.11 60.998 0.636 8.31 1.79 10.73
5/17/2021 7:45:00 PM 16.06 60.908 0.636 8.29 1.44 10.5
5/17/2021 8:00:00 PM 16.01 60.818 0.636 8.27 1.21 10.29
5/17/2021 8:15:00 PM 15.96 60.728 0.637 8.25 1.67 10.1
5/17/2021 8:30:00 PM 15.92 60.656 0.637 8.23 1.24 9.9
5/17/2021 8:45:00 PM 15.87 60.566 0.637 8.21 1.18 9.7
5/17/2021 9:00:00 PM 15.82 60.476 0.637 8.2 1.41 9.53
5/17/2021 9:15:00 PM 15.78 60.404 0.637 8.18 2.99 9.38
5/17/2021 9:30:00 PM 15.73 60.314 0.638 8.17 2.15 9.25
5/17/2021 9:45:00 PM 15.68 60.224 0.638 8.16 1.61 9.12
5/17/2021 10:00:00 PM 15.63 60.134 0.639 8.13 2.35 9
5/17/2021 10:15:00 PM 15.58 60.044 0.638 8.13 1.84 8.89
5/17/2021 10:30:00 PM 15.52 59.936 0.639 8.12 2.33 8.8
5/17/2021 10:45:00 PM 15.46 59.828 0.639 8.11 2.02 8.7
5/17/2021 11:00:00 PM 15.4 59.72 0.639 8.1 2.57 8.63
5/17/2021 11:15:00 PM 15.34 59.612 0.64 8.09 1.4 8.57
5/17/2021 11:30:00 PM 15.28 59.504 0.64 8.08 2.64 8.51
5/17/2021 11:45:00 PM 15.22 59.396 0.641 8.07 3.69 8.44
5/18/2021 12:00:00 AM 15.17 59.306 0.641 8.06 2.06 8.39
5/18/2021 12:15:00 AM 15.11 59.198 0.641 8.04 2.45 8.34
5/18/2021 12:30:00 AM 15.05 59.09 0.642 8.04 1.77 8.31
5/18/2021 12:45:00 AM 15 59 0.643 8.03 1.97 8.27
5/18/2021 1:00:00 AM 14.95 58.91 0.642 8.03 1.84 8.24
5/18/2021 1:15:00 AM 14.89 58.802 0.644 8.02 5.17 8.21
5/18/2021 1:30:00 AM 14.83 58.694 0.645 8.02 2.44 8.19
5/18/2021 1:45:00 AM 14.77 58.586 0.645 8.01 3.25 8.16
5/18/2021 2:00:00 AM 14.71 58.478 0.645 8.01 3.23 8.14
5/18/2021 2:15:00 AM 14.65 58.37 0.645 8 3.36 8.13
5/18/2021 2:30:00 AM 14.58 58.244 0.644 7.99 2.72 8.11
5/18/2021 2:45:00 AM 14.52 58.136 0.645 7.98 2.65 8.12
5/18/2021 3:00:00 AM 14.46 58.028 0.643 7.99 2.95 8.11
5/18/2021 3:15:00 AM 14.4 57.92 0.643 7.98 3.3 8.12
5/18/2021 3:30:00 AM 14.35 57.83 0.643 7.98 3.42 8.11
5/18/2021 3:45:00 AM 14.3 57.74 0.642 7.97 2.67 8.13
5/18/2021 4:00:00 AM 14.25 57.65 0.642 7.97 2.32 8.12
5/18/2021 4:15:00 AM 14.2 57.56 0.642 7.97 2.66 8.12
5/18/2021 4:30:00 AM 14.15 57.47 0.641 7.96 2.86 8.13
5/18/2021 4:45:00 AM 14.1 57.38 0.641 7.96 2.61 8.12
5/18/2021 5:00:00 AM 14.06 57.308 0.641 7.96 2.55 8.13
5/18/2021 5:15:00 AM 14.01 57.218 0.641 7.96 3.8 8.13
5/18/2021 5:30:00 AM 13.96 57.128 0.64 7.96 2.82 8.14
5/18/2021 5:45:00 AM 13.91 57.038 0.641 7.96 3.12 8.16
5/18/2021 6:00:00 AM 13.86 56.948 0.64 7.96 1.71 8.17
5/18/2021 6:15:00 AM 13.81 56.858 0.639 7.95 1.95 8.2
5/18/2021 6:30:00 AM 13.77 56.786 0.639 7.95 5.41 8.24
5/18/2021 6:45:00 AM 13.74 56.732 0.639 7.95 1.66 8.31
5/18/2021 7:00:00 AM 13.72 56.696 0.639 7.95 1.59 8.41
5/18/2021 7:15:00 AM 13.71 56.678 0.638 7.96 1.87 8.52
5/18/2021 7:30:00 AM 13.71 56.678 0.638 7.96 1.15 8.67
5/18/2021 7:45:00 AM 13.73 56.714 0.638 7.98 0.94 8.83
5/18/2021 8:00:00 AM 13.77 56.786 0.637 7.99 1.24 9.04
5/18/2021 8:15:00 AM 13.83 56.894 0.637 8 1.61 9.25
5/18/2021 8:30:00 AM 13.92 57.056 0.637 8.02 1.38 9.48
5/18/2021 8:45:00 AM 14.03 57.254 0.637 8.04 0.88 9.71
5/18/2021 9:00:00 AM 14.14 57.452 0.636 8.05 1.19 9.91
5/18/2021 9:15:00 AM 14.27 57.686 0.637 8.07 0.91 10.12
5/18/2021 9:30:00 AM 14.42 57.956 0.637 8.09 1.19 10.33
5/18/2021 9:45:00 AM 14.58 58.244 0.636 8.1 1.1 10.55
5/18/2021 10:00:00 AM 14.76 58.568 0.636 8.13 0.95 10.75
5/18/2021 10:15:00 AM 14.95 58.91 0.637 8.16 1.17 10.95
5/18/2021 10:30:00 AM 15.15 59.27 0.638 8.18 1.25 11.12
5/18/2021 10:45:00 AM 15.34 59.612 0.639 8.19 2.12 11.27
5/18/2021 11:00:00 AM 15.52 59.936 0.638 8.21 2.45 11.44
5/18/2021 11:15:00 AM 15.7 60.26 0.637 8.23 0.88 11.6
5/18/2021 11:30:00 AM 15.87 60.566 0.637 8.25 1.11 11.75
5/18/2021 11:45:00 AM 16.04 60.872 0.636 8.27 0.74 11.9
5/18/2021 12:00:00 PM 16.21 61.178 0.636 8.3 1 12.04
5/18/2021 12:15:00 PM 16.37 61.466 0.635 8.32 0.86 12.14
5/18/2021 12:30:00 PM 16.55 61.79 0.636 8.33 1.07 12.27
5/18/2021 12:45:00 PM 16.71 62.078 0.637 8.36 1.42 12.38
5/18/2021 1:00:00 PM 16.86 62.348 0.638 8.37 1.03 12.47
5/18/2021 1:15:00 PM 17.01 62.618 0.638 8.39 5.77 12.55
5/18/2021 1:30:00 PM 17.15 62.87 0.638 8.4 1.52 12.62
5/18/2021 1:45:00 PM 17.28 63.104 0.638 8.41 3.26 12.67
5/18/2021 2:00:00 PM 17.38 63.284 0.639 8.41 3.53 12.68
5/18/2021 2:15:00 PM 17.47 63.446 0.638 8.42 1.5 12.72
5/18/2021 2:30:00 PM 17.52 63.536 0.638 8.43 3.29 12.7
5/18/2021 2:45:00 PM 17.58 63.644 0.639 8.43 2.29 12.7
5/18/2021 3:00:00 PM 17.59 63.662 0.637 8.44 1.5 12.65
5/18/2021 3:15:00 PM 17.58 63.644 0.636 8.43 1.02 12.61
5/18/2021 3:30:00 PM 17.58 63.644 0.635 8.44 1.73 12.63
5/18/2021 3:45:00 PM 17.57 63.626 0.635 8.44 1.04 12.62
5/18/2021 4:00:00 PM 17.59 63.662 0.636 8.37 1.54 12.54
5/18/2021 4:15:00 PM 17.62 63.716 0.638 8.4 1.02 12.45
5/18/2021 4:30:00 PM 17.62 63.716 0.639 8.42 2.33 12.33
5/18/2021 4:45:00 PM 17.59 63.662 0.638 8.42 1.26 12.23
5/18/2021 5:00:00 PM 17.53 63.554 0.637 8.43 3.95 12.09
5/18/2021 5:15:00 PM 17.48 63.464 0.637 8.42 1.12 11.99
5/18/2021 5:30:00 PM 17.42 63.356 0.636 8.41 1.07 11.88
5/18/2021 5:45:00 PM 17.36 63.248 0.636 8.4 0.83 11.73
5/18/2021 6:00:00 PM 17.29 63.122 0.636 8.4 0.75 11.57
5/18/2021 6:15:00 PM 17.23 63.014 0.637 8.38 1.12 11.4
5/18/2021 6:30:00 PM 17.19 62.942 0.638 8.37 1.05 11.19
5/18/2021 6:45:00 PM 17.16 62.888 0.639 8.36 1.98 10.98
5/18/2021 7:00:00 PM 17.09 62.762 0.64 8.34 1.29 10.75
5/18/2021 7:15:00 PM 17.01 62.618 0.638 8.33 1.72 10.53
5/18/2021 7:30:00 PM 16.93 62.474 0.639 8.32 2.24 10.38
5/18/2021 7:45:00 PM 16.87 62.366 0.638 8.3 1.4 10.22
5/18/2021 8:00:00 PM 16.8 62.24 0.638 8.28 1.24 10.06
5/18/2021 8:15:00 PM 16.74 62.132 0.639 8.27 1.37 9.88
5/18/2021 8:30:00 PM 16.67 62.006 0.639 8.25 4.66 9.69
5/18/2021 8:45:00 PM 16.61 61.898 0.639 8.24 2.02 9.52
5/18/2021 9:00:00 PM 16.54 61.772 0.639 8.22 2.18 9.36
5/18/2021 9:15:00 PM 16.48 61.664 0.639 8.2 1.93 9.21
5/18/2021 9:30:00 PM 16.41 61.538 0.639 8.19 1.75 9.08
5/18/2021 9:45:00 PM 16.35 61.43 0.639 8.18 1.94 8.97
5/18/2021 10:00:00 PM 16.29 61.322 0.64 8.16 1.61 8.87
5/18/2021 10:15:00 PM 16.23 61.214 0.639 8.15 2.04 8.78
5/18/2021 10:30:00 PM 16.18 61.124 0.64 8.14 2.24 8.69
5/18/2021 10:45:00 PM 16.12 61.016 0.64 8.13 1.6 8.62
5/18/2021 11:00:00 PM 16.07 60.926 0.64 8.13 1.84 8.55
5/18/2021 11:15:00 PM 16.03 60.854 0.64 8.12 3.01 8.48
5/18/2021 11:30:00 PM 15.98 60.764 0.64 8.11 2.01 8.43
5/18/2021 11:45:00 PM 15.93 60.674 0.641 8.1 2.31 8.38
5/19/2021 12:00:00 AM 15.88 60.584 0.641 8.09 1.12 8.33
5/19/2021 12:15:00 AM 15.83 60.494 0.641 8.08 3 8.29
5/19/2021 12:30:00 AM 15.78 60.404 0.642 8.07 1.95 8.26
5/19/2021 12:45:00 AM 15.73 60.314 0.642 8.07 1.79 8.22
5/19/2021 1:00:00 AM 15.67 60.206 0.642 8.06 2.03 8.2
5/19/2021 1:15:00 AM 15.62 60.116 0.643 8.05 2.33 8.18
5/19/2021 1:30:00 AM 15.56 60.008 0.642 8.05 2.46 8.16
5/19/2021 1:45:00 AM 15.51 59.918 0.643 8.05 1.99 8.14
5/19/2021 2:00:00 AM 15.46 59.828 0.642 8.04 1.85 8.13
5/19/2021 2:15:00 AM 15.41 59.738 0.642 8.03 1.97 8.12
5/19/2021 2:30:00 AM 15.36 59.648 0.642 8.03 1.97 8.11
5/19/2021 2:45:00 AM 15.31 59.558 0.642 8.03 1.53 8.1
5/19/2021 3:00:00 AM 15.26 59.468 0.641 8.03 1.91 8.09
5/19/2021 3:15:00 AM 15.2 59.36 0.642 7.98 2.01 8.09
5/19/2021 3:30:00 AM 15.15 59.27 0.642 8.01 2.2 8.09
5/19/2021 3:45:00 AM 15.1 59.18 0.642 8.01 3.17 8.09
5/19/2021 4:00:00 AM 15.05 59.09 0.641 8.01 1.83 8.09
5/19/2021 4:15:00 AM 15 59 0.641 8.01 3.68 8.1
5/19/2021 4:30:00 AM 14.95 58.91 0.641 8 2.19 8.11
5/19/2021 4:45:00 AM 14.9 58.82 0.641 8.01 1.42 8.12
5/19/2021 5:00:00 AM 14.85 58.73 0.641 8 2.18 8.12
5/19/2021 5:15:00 AM 14.8 58.64 0.641 8 2.09 8.13
5/19/2021 5:30:00 AM 14.75 58.55 0.64 8 4.63 8.15
5/19/2021 5:45:00 AM 14.7 58.46 0.64 8 1.72 8.16
5/19/2021 6:00:00 AM 14.66 58.388 0.64 7.99 1.84 8.18
5/19/2021 6:15:00 AM 14.61 58.298 0.64 7.99 3.14 8.2
5/19/2021 6:30:00 AM 14.58 58.244 0.639 7.99 4.77 8.26
5/19/2021 6:45:00 AM 14.55 58.19 0.637 8 1.89 8.32
5/19/2021 7:00:00 AM 14.52 58.136 0.638 8 2.23 8.4
5/19/2021 7:15:00 AM 14.51 58.118 0.638 8.01 2.65 8.52
5/19/2021 7:30:00 AM 14.52 58.136 0.638 8.01 1.25 8.65
5/19/2021 7:45:00 AM 14.54 58.172 0.638 8.02 1.58 8.82
5/19/2021 8:00:00 AM 14.58 58.244 0.638 8.03 1.24 9.01
5/19/2021 8:15:00 AM 14.63 58.334 0.637 8.04 1.55 9.23
5/19/2021 8:30:00 AM 14.72 58.496 0.637 8.06 1.21 9.45
5/19/2021 8:45:00 AM 14.82 58.676 0.637 8.08 1.72 9.67
5/19/2021 9:00:00 AM 14.93 58.874 0.637 8.1 1.42 9.89
5/19/2021 9:15:00 AM 15.05 59.09 0.636 8.12 0.86 10.1
5/19/2021 9:30:00 AM 15.19 59.342 0.636 8.14 0.94 10.31
5/19/2021 9:45:00 AM 15.33 59.594 0.636 8.16 1.03 10.5
5/19/2021 10:00:00 AM 15.48 59.864 0.635 8.18 0.81 10.7
5/19/2021 10:15:00 AM 15.64 60.152 0.635 8.2 1.02 10.87
5/19/2021 10:30:00 AM 15.8 60.44 0.634 8.22 1.93 11.04
5/19/2021 10:45:00 AM 15.97 60.746 0.634 8.24 1.12 11.21
5/19/2021 11:00:00 AM 16.14 61.052 0.634 8.26 1.53 11.37
5/19/2021 11:15:00 AM 16.31 61.358 0.634 8.28 0.85 11.5
5/19/2021 11:30:00 AM 16.49 61.682 0.634 8.3 0.97 11.65
5/19/2021 11:45:00 AM 16.66 61.988 0.635 8.32 0.79 11.79
5/19/2021 12:00:00 PM 16.82 62.276 0.634 8.33 0.88 11.89
5/19/2021 12:15:00 PM 16.98 62.564 0.634 8.34 0.84 12.01
5/19/2021 12:30:00 PM 17.15 62.87 0.634 8.36 1.59 12.11
5/19/2021 12:45:00 PM 17.3 63.14 0.634 8.38 1.1 12.21
5/19/2021 1:00:00 PM 17.43 63.374 0.634 8.39 1 12.28
5/19/2021 1:15:00 PM 17.58 63.644 0.634 8.4 0.99 12.34
5/19/2021 1:30:00 PM 17.7 63.86 0.634 8.42 1.8 12.4
5/19/2021 1:45:00 PM 17.83 64.094 0.634 8.43 1.13 12.44
5/19/2021 2:00:00 PM 17.93 64.274 0.634 8.44 0.9 12.49
5/19/2021 2:15:00 PM 18.03 64.454 0.634 8.45 1.64 12.55
5/19/2021 2:30:00 PM 18.1 64.58 0.634 8.45 1.21 12.55
5/19/2021 2:45:00 PM 18.17 64.706 0.633 8.46 0.99 12.49
5/19/2021 3:00:00 PM 18.23 64.814 0.634 8.46 2.02 12.5
5/19/2021 3:15:00 PM 18.27 64.886 0.633 8.45 0.95 12.5
5/19/2021 3:30:00 PM 18.29 64.922 0.634 8.47 1.1 12.46
5/19/2021 3:45:00 PM 18.29 64.922 0.634 8.47 1.45 12.44
5/19/2021 4:00:00 PM 18.28 64.904 0.634 8.46 1.71 12.4
5/19/2021 4:15:00 PM 18.27 64.886 0.634 8.46 0.88 12.33
5/19/2021 4:30:00 PM 18.25 64.85 0.634 8.46 0.96 12.26
5/19/2021 4:45:00 PM 18.21 64.778 0.634 8.46 1.03 12.14
5/19/2021 5:00:00 PM 18.16 64.688 0.634 8.45 1.12 12.06
5/19/2021 5:15:00 PM 18.12 64.616 0.634 8.45 1.14 11.95
5/19/2021 5:30:00 PM 18.07 64.526 0.634 8.44 0.86 11.82
5/19/2021 5:45:00 PM 18 64.4 0.635 8.41 1.03 11.66
5/19/2021 6:00:00 PM 17.94 64.292 0.633 8.41 8.25 11.47
5/19/2021 6:15:00 PM 17.88 64.184 0.634 8.41 1.01 11.29
5/19/2021 6:30:00 PM 17.82 64.076 0.635 8.39 0.97 11.14
5/19/2021 6:45:00 PM 17.76 63.968 0.635 8.38 0.87 10.96
5/19/2021 7:00:00 PM 17.72 63.896 0.635 8.37 0.95 10.81
5/19/2021 7:15:00 PM 17.68 63.824 0.635 8.36 1.1 10.64
5/19/2021 7:30:00 PM 17.64 63.752 0.636 8.35 1.13 10.44
5/19/2021 7:45:00 PM 17.6 63.68 0.636 8.33 2.56 10.24
5/19/2021 8:00:00 PM 17.54 63.572 0.637 8.3 1.32 10.02
5/19/2021 8:15:00 PM 17.48 63.464 0.637 8.29 1.37 9.81
5/19/2021 8:30:00 PM 17.42 63.356 0.637 8.28 0.97 9.59
5/19/2021 8:45:00 PM 17.34 63.212 0.637 8.25 2.26 9.4
5/19/2021 9:00:00 PM 17.28 63.104 0.638 8.24 2.12 9.23
5/19/2021 9:15:00 PM 17.21 62.978 0.638 8.22 1.44 9.07
5/19/2021 9:30:00 PM 17.14 62.852 0.638 8.2 2.39 8.94
5/19/2021 9:45:00 PM 17.08 62.744 0.638 8.19 1.48 8.82
5/19/2021 10:00:00 PM 17.02 62.636 0.638 8.18 1.71 8.71
5/19/2021 10:15:00 PM 16.97 62.546 0.638 8.17 2.19 8.63
5/19/2021 10:30:00 PM 16.92 62.456 0.639 8.15 7.15 8.54
5/19/2021 10:45:00 PM 16.87 62.366 0.639 8.15 2.5 8.47
5/19/2021 11:00:00 PM 16.82 62.276 0.639 8.14 5.45 8.4
5/19/2021 11:15:00 PM 16.77 62.186 0.639 8.13 1.58 8.34
5/19/2021 11:30:00 PM 16.73 62.114 0.64 8.12 1.57 8.29
5/19/2021 11:45:00 PM 16.68 62.024 0.64 8.11 2.68 8.23
5/20/2021 12:00:00 AM 16.63 61.934 0.64 8.1 1.73 8.2
5/20/2021 12:15:00 AM 16.58 61.844 0.64 8.09 2.48 8.15
5/20/2021 12:30:00 AM 16.53 61.754 0.64 8.07 1.45 8.12
5/20/2021 12:45:00 AM 16.48 61.664 0.641 8.07 2.17 8.09
5/20/2021 1:00:00 AM 16.42 61.556 0.641 8.06 1.79 8.06
5/20/2021 1:15:00 AM 16.37 61.466 0.641 8.05 1.77 8.04
5/20/2021 1:30:00 AM 16.32 61.376 0.642 8.05 1.95 8.01
5/20/2021 1:45:00 AM 16.28 61.304 0.642 8.05 3.14 7.98
5/20/2021 2:00:00 AM 16.26 61.268 0.642 8.04 1.82 7.91
5/20/2021 2:15:00 AM 16.25 61.25 0.643 8.03 1.82 7.86
5/20/2021 2:30:00 AM 16.22 61.196 0.644 8.03 1.59 7.82
5/20/2021 2:45:00 AM 16.19 61.142 0.644 8.03 3.14 7.78
5/20/2021 3:00:00 AM 16.14 61.052 0.644 8.02 3.04 7.77
5/20/2021 3:15:00 AM 16.1 60.98 0.644 8.02 1.76 7.77
5/20/2021 3:30:00 AM 16.04 60.872 0.644 8.01 3.6 7.77
5/20/2021 3:45:00 AM 15.96 60.728 0.644 8.01 2.14 7.81
5/20/2021 4:00:00 AM 15.87 60.566 0.643 8.01 3.02 7.87
5/20/2021 4:15:00 AM 15.8 60.44 0.643 8.01 2.26 7.91
5/20/2021 4:30:00 AM 15.75 60.35 0.642 8 1.93 7.92
5/20/2021 4:45:00 AM 15.7 60.26 0.643 8 1.69 7.95
5/20/2021 5:00:00 AM 15.65 60.17 0.641 8 1.53 7.95
5/20/2021 5:15:00 AM 15.6 60.08 0.642 8 1.96 7.95
5/20/2021 5:30:00 AM 15.56 60.008 0.642 7.99 2.6 7.97
5/20/2021 5:45:00 AM 15.51 59.918 0.642 8 2.09 7.97
5/20/2021 6:00:00 AM 15.47 59.846 0.642 8 1.56 7.98
5/20/2021 6:15:00 AM 15.43 59.774 0.641 7.99 3.16 8.01
5/20/2021 6:30:00 AM 15.39 59.702 0.641 8 1.29 8.06
5/20/2021 6:45:00 AM 15.36 59.648 0.641 7.99 1.89 8.13
5/20/2021 7:00:00 AM 15.35 59.63 0.641 8 1.73 8.22
5/20/2021 7:15:00 AM 15.34 59.612 0.64 8 1.89 8.35
5/20/2021 7:30:00 AM 15.35 59.63 0.64 8.01 1.32 8.51
5/20/2021 7:45:00 AM 15.37 59.666 0.639 8.02 1.1 8.69
5/20/2021 8:00:00 AM 15.41 59.738 0.638 8.03 2.68 8.88
5/20/2021 8:15:00 AM 15.47 59.846 0.638 8.05 1.33 9.11
5/20/2021 8:30:00 AM 15.54 59.972 0.639 8.06 1.44 9.34
5/20/2021 8:45:00 AM 15.63 60.134 0.639 8.08 1.26 9.58
5/20/2021 9:00:00 AM 15.74 60.332 0.639 8.1 1.02 9.8
5/20/2021 9:15:00 AM 15.85 60.53 0.639 8.12 0.84 10.02
5/20/2021 9:30:00 AM 15.95 60.71 0.633 8.14 0.88 10.24
5/20/2021 9:45:00 AM 16.04 60.872 0.637 8.16 0.92 10.43
5/20/2021 10:00:00 AM 16.13 61.034 0.638 8.18 1.39 10.6
5/20/2021 10:15:00 AM 16.2 61.16 0.638 8.2 0.93 10.75
5/20/2021 10:30:00 AM 16.25 61.25 0.638 8.21 0.9 10.88
5/20/2021 10:45:00 AM 16.31 61.358 0.637 8.23 0.92 11.02
5/20/2021 11:00:00 AM 16.4 61.52 0.637 8.25 0.81 11.18
5/20/2021 11:15:00 AM 16.5 61.7 0.637 8.27 0.94 11.36
5/20/2021 11:30:00 AM 16.68 62.024 0.637 8.28 1.33 11.54
5/20/2021 11:45:00 AM 16.87 62.366 0.633 8.31 1.05 11.72
5/20/2021 12:00:00 PM 17.02 62.636 0.637 8.33 0.71 11.87
5/20/2021 12:15:00 PM 17.23 63.014 0.636 8.35 0.65 12.04
5/20/2021 12:30:00 PM 17.38 63.284 0.636 8.37 0.76 12.16
5/20/2021 12:45:00 PM 17.53 63.554 0.637 8.39 1.52 12.24
5/20/2021 1:00:00 PM 17.71 63.878 0.637 8.41 0.78 12.39
5/20/2021 1:15:00 PM 17.84 64.112 0.637 8.42 0.9 12.43
5/20/2021 1:30:00 PM 17.97 64.346 0.638 8.43 1.1 12.51
5/20/2021 1:45:00 PM 18.11 64.598 0.637 8.45 0.93 12.58
5/20/2021 2:00:00 PM 18.21 64.778 0.637 8.45 0.91 12.63
5/20/2021 2:15:00 PM 18.34 65.012 0.636 8.46 0.87 12.67
5/20/2021 2:30:00 PM 18.42 65.156 0.636 8.48 1.01 12.71
5/20/2021 2:45:00 PM 18.5 65.3 0.636 8.48 0.93 12.72
5/20/2021 3:00:00 PM 18.55 65.39 0.636 8.49 1.47 12.74
5/20/2021 3:15:00 PM 18.58 65.444 0.635 8.48 0.8 12.7
5/20/2021 3:30:00 PM 18.63 65.534 0.636 8.5 1.06 12.68
5/20/2021 3:45:00 PM 18.65 65.57 0.635 8.5 0.97 12.65
5/20/2021 4:00:00 PM 18.65 65.57 0.635 8.51 0.95 12.59
5/20/2021 4:15:00 PM 18.66 65.588 0.635 8.04 0.97 12.51
5/20/2021 4:30:00 PM 18.65 65.57 0.635 8.31 1.1 12.43
5/20/2021 4:45:00 PM 18.61 65.498 0.635 8.36 0.91 12.31
5/20/2021 5:00:00 PM 18.57 65.426 0.635 8.42 0.85 12.19
5/20/2021 5:15:00 PM 18.53 65.354 0.635 8.41 0.98 12.04
5/20/2021 5:30:00 PM 18.47 65.246 0.636 8.42 1.13 11.91
5/20/2021 5:45:00 PM 18.39 65.102 0.636 8.42 0.86 11.72
5/20/2021 6:00:00 PM 18.33 64.994 0.636 8.4 1.08 11.53
5/20/2021 6:15:00 PM 18.27 64.886 0.637 8.4 1.28 11.33
5/20/2021 6:30:00 PM 18.21 64.778 0.636 8.38 1.39 11.11
5/20/2021 6:45:00 PM 18.13 64.634 0.637 8.37 1.15 10.87
5/20/2021 7:00:00 PM 18.05 64.49 0.637 8.35 1.12 10.63
5/20/2021 7:15:00 PM 17.97 64.346 0.638 8.34 1.3 10.39
5/20/2021 7:30:00 PM 17.89 64.202 0.638 8.31 1.27 10.17
5/20/2021 7:45:00 PM 17.82 64.076 0.638 8.3 0.92 9.96
5/20/2021 8:00:00 PM 17.75 63.95 0.638 8.29 0.93 9.8
5/20/2021 8:15:00 PM 17.7 63.86 0.638 8.27 2.6 9.63
5/20/2021 8:30:00 PM 17.63 63.734 0.639 8.25 1.05 9.45
5/20/2021 8:45:00 PM 17.56 63.608 0.638 8.23 1.14 9.26
5/20/2021 9:00:00 PM 17.5 63.5 0.638 8.22 1.24 9.1
5/20/2021 9:15:00 PM 17.43 63.374 0.638 8.2 1.97 8.96
5/20/2021 9:30:00 PM 17.36 63.248 0.638 8.17 1.4 8.83
5/20/2021 9:45:00 PM 17.3 63.14 0.639 8.16 1.61 8.72
5/20/2021 10:00:00 PM 17.24 63.032 0.638 8.15 1.19 8.61
5/20/2021 10:15:00 PM 17.17 62.906 0.639 8.09 1.4 8.54
5/20/2021 10:30:00 PM 17.11 62.798 0.639 7.7 4.54 8.44
5/20/2021 10:45:00 PM 17.05 62.69 0.639 7.82 2.03 8.38
5/20/2021 11:00:00 PM 16.99 62.582 0.639 7.84 2.14 8.32
5/20/2021 11:15:00 PM 16.93 62.474 0.639 7.91 1.89 8.26
5/20/2021 11:30:00 PM 16.87 62.366 0.639 7.99 1.7 8.23
5/20/2021 11:45:00 PM 16.8 62.24 0.64 7.91 1.29 8.18
5/21/2021 12:00:00 AM 16.74 62.132 0.64 7.85 1.53 8.14
5/21/2021 12:15:00 AM 16.68 62.024 0.64 7.88 2.33 8.11
5/21/2021 12:30:00 AM 16.62 61.916 0.64 7.85 1.57 8.09
5/21/2021 12:45:00 AM 16.56 61.808 0.641 7.92 1.69 8.06
5/21/2021 1:00:00 AM 16.5 61.7 0.641 7.83 2.07 8.05
5/21/2021 1:15:00 AM 16.43 61.574 0.641 7.94 2.18 8.02
5/21/2021 1:30:00 AM 16.37 61.466 0.641 7.94 1.94 8.01
5/21/2021 1:45:00 AM 16.31 61.358 0.641 7.95 2.84 8
5/21/2021 2:00:00 AM 16.24 61.232 0.641 7.94 1.92 7.98
5/21/2021 2:15:00 AM 16.18 61.124 0.641 7.95 2.44 7.97
5/21/2021 2:30:00 AM 16.12 61.016 0.64 7.95 2.03 7.96
5/21/2021 2:45:00 AM 16.06 60.908 0.641 7.95 1.6 7.95
5/21/2021 3:00:00 AM 16 60.8 0.641 7.95 1.73 7.95
5/21/2021 3:15:00 AM 15.93 60.674 0.642 7.95 1.84 7.95
5/21/2021 3:30:00 AM 15.87 60.566 0.642 7.95 1.44 7.96
5/21/2021 3:45:00 AM 15.81 60.458 0.642 7.94 1.92 7.95
5/21/2021 4:00:00 AM 15.75 60.35 0.642 7.95 2.1 7.96
5/21/2021 4:15:00 AM 15.69 60.242 0.642 7.94 3.29 7.97
5/21/2021 4:30:00 AM 15.64 60.152 0.642 7.95 2.99 7.98
5/21/2021 4:45:00 AM 15.58 60.044 0.642 7.94 1.89 7.99
5/21/2021 5:00:00 AM 15.52 59.936 0.642 7.9 1.83 7.99
5/21/2021 5:15:00 AM 15.46 59.828 0.642 7.93 1.93 8.01
5/21/2021 5:30:00 AM 15.41 59.738 0.642 7.94 3.54 8.01
5/21/2021 5:45:00 AM 15.35 59.63 0.641 7.94 1.93 8.03
5/21/2021 6:00:00 AM 15.3 59.54 0.641 7.94 1.63 8.05
5/21/2021 6:15:00 AM 15.25 59.45 0.641 7.93 1.53 8.08
5/21/2021 6:30:00 AM 15.2 59.36 0.641 7.93 1.65 8.11
5/21/2021 6:45:00 AM 15.16 59.288 0.64 7.94 1.16 8.2
5/21/2021 7:00:00 AM 15.13 59.234 0.641 7.93 1.51 8.29
5/21/2021 7:15:00 AM 15.11 59.198 0.64 7.89 1.95 8.41
5/21/2021 7:30:00 AM 15.11 59.198 0.64 7.88 1.4 8.56
5/21/2021 7:45:00 AM 15.12 59.216 0.64 7.76 1.85 8.73
5/21/2021 8:00:00 AM 15.15 59.27 0.639 7.85 1.03 8.95
5/21/2021 8:15:00 AM 15.19 59.342 0.639 7.92 1.55 9.18
5/21/2021 8:30:00 AM 15.26 59.468 0.638 7.97 1.45 9.42
5/21/2021 8:45:00 AM 15.34 59.612 0.638 8 1.35 9.66
5/21/2021 9:00:00 AM 15.43 59.774 0.638 8 1.06 9.89
5/21/2021 9:15:00 AM 15.54 59.972 0.638 7.98 1.01 10.12
5/21/2021 9:30:00 AM 15.65 60.17 0.637 7.97 1.46 10.33
5/21/2021 9:45:00 AM 15.78 60.404 0.637 8.01 0.83 10.54
5/21/2021 10:00:00 AM 15.91 60.638 0.637 8.04 1.21 10.75
5/21/2021 10:15:00 AM 16.05 60.89 0.636 8.07 1.65 10.93
5/21/2021 10:30:00 AM 16.18 61.124 0.636 8.1 1.08 11.12
5/21/2021 10:45:00 AM 16.34 61.412 0.636 8.13 1.37 11.31
5/21/2021 11:00:00 AM 16.49 61.682 0.636 8.18 1.13 11.49
5/21/2021 11:15:00 AM 16.64 61.952 0.636 8.21 1.05 11.62
5/21/2021 11:30:00 AM 16.8 62.24 0.636 8.23 0.97 11.8
5/21/2021 11:45:00 AM 16.95 62.51 0.636 8.24 1.26 11.93
5/21/2021 12:00:00 PM 17.11 62.798 0.636 8.24 0.87 12.09
5/21/2021 12:15:00 PM 17.26 63.068 0.636 8.27 1.77 12.17
5/21/2021 12:30:00 PM 17.41 63.338 0.636 8.3 0.92 12.3
5/21/2021 12:45:00 PM 17.57 63.626 0.636 8.33 1.15 12.41
5/21/2021 1:00:00 PM 17.7 63.86 0.634 8.34 1.2 12.47
5/21/2021 1:15:00 PM 17.83 64.094 0.635 8.36 1.02 12.58
5/21/2021 1:30:00 PM 17.93 64.274 0.635 8.38 0.8 12.63
5/21/2021 1:45:00 PM 18.02 64.436 0.636 8.39 2.1 12.66
5/21/2021 2:00:00 PM 18.13 64.634 0.635 8.4 1.92 12.71
5/21/2021 2:15:00 PM 18.23 64.814 0.635 8.42 1.13 12.71
5/21/2021 2:30:00 PM 18.3 64.94 0.635 8.43 1.83 12.75
5/21/2021 2:45:00 PM 18.37 65.066 0.634 8.44 1.54 12.77
5/21/2021 3:00:00 PM 18.42 65.156 0.634 8.45 1.66 12.76
5/21/2021 3:15:00 PM 18.46 65.228 0.634 8.45 1.51 12.71
5/21/2021 3:30:00 PM 18.49 65.282 0.633 8.45 1.35 12.67
5/21/2021 3:45:00 PM 18.49 65.282 0.635 8.46 2.41 12.64
5/21/2021 4:00:00 PM 18.49 65.282 0.635 8.46 1.31 12.58
5/21/2021 4:15:00 PM 18.48 65.264 0.635 8.45 1.69 12.45
5/21/2021 4:30:00 PM 18.46 65.228 0.636 8.44 1.53 12.38
5/21/2021 4:45:00 PM 18.43 65.174 0.636 8.45 1.89 12.28
5/21/2021 5:00:00 PM 18.42 65.156 0.637 8.43 1.81 12.17
5/21/2021 5:15:00 PM 18.38 65.084 0.638 8.43 1.12 12.04
5/21/2021 5:30:00 PM 18.32 64.976 0.638 8.42 1.17 11.85
5/21/2021 5:45:00 PM 18.26 64.868 0.637 8.41 1.77 11.7
5/21/2021 6:00:00 PM 18.21 64.778 0.637 8.4 1.49 11.52
5/21/2021 6:15:00 PM 18.15 64.67 0.638 8.38 1.13 11.37
5/21/2021 6:30:00 PM 18.1 64.58 0.637 8.37 1.13 11.19
5/21/2021 6:45:00 PM 18.05 64.49 0.638 8.36 1.61 10.96
5/21/2021 7:00:00 PM 17.99 64.382 0.639 8.34 1.13 10.73
5/21/2021 7:15:00 PM 17.93 64.274 0.639 8.33 1.94 10.47
5/21/2021 7:30:00 PM 17.88 64.184 0.64 8.31 1.46 10.27
5/21/2021 7:45:00 PM 17.83 64.094 0.64 8.29 0.92 10.07
5/21/2021 8:00:00 PM 17.78 64.004 0.64 8.27 1.38 9.89
5/21/2021 8:15:00 PM 17.73 63.914 0.64 8.25 1.68 9.7
5/21/2021 8:30:00 PM 17.68 63.824 0.641 8.23 1.57 9.51
5/21/2021 8:45:00 PM 17.62 63.716 0.641 8.22 1.19 9.34
5/21/2021 9:00:00 PM 17.56 63.608 0.641 8.2 1.27 9.16
5/21/2021 9:15:00 PM 17.5 63.5 0.642 8.18 1.84 9
5/21/2021 9:30:00 PM 17.45 63.41 0.641 8.16 1.59 8.88
5/21/2021 9:45:00 PM 17.39 63.302 0.642 8.14 3.98 8.75
5/21/2021 10:00:00 PM 17.34 63.212 0.641 8.11 1.7 8.65
5/21/2021 10:15:00 PM 17.29 63.122 0.64 8.11 2.07 8.56
5/21/2021 10:30:00 PM 17.24 63.032 0.642 8.1 2.98 8.47
5/21/2021 10:45:00 PM 17.2 62.96 0.643 8.09 1.62 8.4
5/21/2021 11:00:00 PM 17.15 62.87 0.643 8.08 1.44 8.33
5/21/2021 11:15:00 PM 17.1 62.78 0.643 8.06 1.45 8.26
5/21/2021 11:30:00 PM 17.06 62.708 0.643 8.06 1.84 8.2
5/21/2021 11:45:00 PM 17.01 62.618 0.643 8.05 1.5 8.15
5/22/2021 12:00:00 AM 16.97 62.546 0.642 8.05 2.12 8.11
5/22/2021 12:15:00 AM 16.92 62.456 0.642 8.04 1.84 8.08
5/22/2021 12:30:00 AM 16.88 62.384 0.643 8.03 2.15 8.03
5/22/2021 12:45:00 AM 16.83 62.294 0.642 8.03 1.89 8
5/22/2021 1:00:00 AM 16.78 62.204 0.642 8.03 2.48 7.96
5/22/2021 1:15:00 AM 16.73 62.114 0.642 8.02 1.84 7.95
5/22/2021 1:30:00 AM 16.69 62.042 0.644 8.01 1.26 7.93
5/22/2021 1:45:00 AM 16.64 61.952 0.644 8 2.67 7.9
5/22/2021 2:00:00 AM 16.59 61.862 0.644 8 3 7.89
5/22/2021 2:15:00 AM 16.54 61.772 0.643 8 3.03 7.87
5/22/2021 2:30:00 AM 16.49 61.682 0.643 7.99 3.28 7.85
5/22/2021 2:45:00 AM 16.45 61.61 0.643 7.98 1.97 7.86
5/22/2021 3:00:00 AM 16.4 61.52 0.644 7.98 2.54 7.86
5/22/2021 3:15:00 AM 16.35 61.43 0.642 7.98 2.85 7.84
5/22/2021 3:30:00 AM 16.3 61.34 0.644 7.98 2.98 7.84
5/22/2021 3:45:00 AM 16.26 61.268 0.644 7.98 15.05 7.83
5/22/2021 4:00:00 AM 16.22 61.196 0.643 7.97 1.79 7.83
5/22/2021 4:15:00 AM 16.18 61.124 0.641 7.96 2.6 7.84
5/22/2021 4:30:00 AM 16.13 61.034 0.642 7.96 4.38 7.83
5/22/2021 4:45:00 AM 16.09 60.962 0.643 7.97 2.05 7.84
5/22/2021 5:00:00 AM 16.06 60.908 0.643 7.97 3.11 7.84
5/22/2021 5:15:00 AM 16.02 60.836 0.642 7.96 2.16 7.83
5/22/2021 5:30:00 AM 15.98 60.764 0.643 7.96 1.94 7.84
5/22/2021 5:45:00 AM 15.95 60.71 0.642 7.96 1.57 7.84
5/22/2021 6:00:00 AM 15.91 60.638 0.643 7.96 3.24 7.85
5/22/2021 6:15:00 AM 15.88 60.584 0.643 7.96 2.05 7.87
5/22/2021 6:30:00 AM 15.85 60.53 0.643 7.96 3.45 7.93
5/22/2021 6:45:00 AM 15.83 60.494 0.643 7.96 2.59 7.99
5/22/2021 7:00:00 AM 15.81 60.458 0.644 7.97 2.34 8.09
5/22/2021 7:15:00 AM 15.8 60.44 0.643 7.97 3.33 8.22
5/22/2021 7:30:00 AM 15.81 60.458 0.643 7.98 2.28 8.4
5/22/2021 7:45:00 AM 15.84 60.512 0.643 8 1.33 8.62
5/22/2021 8:00:00 AM 15.89 60.602 0.643 8.01 1.43 8.89
5/22/2021 8:15:00 AM 15.94 60.692 0.643 8.03 1.53 9.16
5/22/2021 8:30:00 AM 15.99 60.782 0.643 8.05 1.25 9.38
5/22/2021 8:45:00 AM 16.04 60.872 0.643 8.07 1.84 9.56
5/22/2021 9:00:00 AM 16.12 61.016 0.642 8.09 0.96 9.78
5/22/2021 9:15:00 AM 16.2 61.16 0.642 8.11 2.1 10.02
5/22/2021 9:30:00 AM 16.26 61.268 0.642 8.14 1 10.19
5/22/2021 9:45:00 AM 16.35 61.43 0.641 8.16 1.16 10.4
5/22/2021 10:00:00 AM 16.44 61.592 0.642 8.18 1.62 10.61
5/22/2021 10:15:00 AM 16.53 61.754 0.642 8.2 1.19 10.81
5/22/2021 10:30:00 AM 16.65 61.97 0.641 8.23 0.86 11.02
5/22/2021 10:45:00 AM 16.79 62.222 0.642 8.26 1.15 11.24
5/22/2021 11:00:00 AM 16.93 62.474 0.642 8.29 1.18 11.43
5/22/2021 11:15:00 AM 17.07 62.726 0.642 8.31 3.01 11.61
5/22/2021 11:30:00 AM 17.17 62.906 0.64 8.33 2.3 11.73
5/22/2021 11:45:00 AM 17.29 63.122 0.64 8.35 1.06 11.88
5/22/2021 12:00:00 PM 17.4 63.32 0.639 8.37 1.99 12.03
5/22/2021 12:15:00 PM 17.51 63.518 0.639 8.38 0.9 12.15
5/22/2021 12:30:00 PM 17.67 63.806 0.639 8.4 0.94 12.31
5/22/2021 12:45:00 PM 17.82 64.076 0.637 8.42 1.29 12.44
5/22/2021 1:00:00 PM 17.94 64.292 0.638 8.43 0.9 12.5
5/22/2021 1:15:00 PM 17.94 64.292 0.639 8.44 1.1 12.48
5/22/2021 1:30:00 PM 17.96 64.328 0.638 8.44 0.76 12.44
5/22/2021 1:45:00 PM 17.96 64.328 0.638 8.44 0.84 12.47
5/22/2021 2:00:00 PM 17.95 64.31 0.639 8.44 1.05 12.48
5/22/2021 2:15:00 PM 18.01 64.418 0.639 8.45 1.94 12.55
5/22/2021 2:30:00 PM 18.12 64.616 0.639 8.47 1.7 12.65
5/22/2021 2:45:00 PM 18.2 64.76 0.64 8.49 0.86 12.7
5/22/2021 3:00:00 PM 18.21 64.778 0.639 8.49 1.54 12.7
5/22/2021 3:15:00 PM 18.23 64.814 0.637 8.49 1.89 12.67
5/22/2021 3:30:00 PM 18.24 64.832 0.64 8.49 1.17 12.6
5/22/2021 3:45:00 PM 18.21 64.778 0.639 8.49 0.69 12.52
5/22/2021 4:00:00 PM 18.16 64.688 0.637 8.49 0.7 12.41
5/22/2021 4:15:00 PM 18.13 64.634 0.64 8.48 1.11 12.3
5/22/2021 4:30:00 PM 18.09 64.562 0.64 8.47 1.06 12.22
5/22/2021 4:45:00 PM 18.03 64.454 0.64 8.47 1.13 12.06
5/22/2021 5:00:00 PM 17.99 64.382 0.64 8.45 1.07 11.9
5/22/2021 5:15:00 PM 17.95 64.31 0.638 8.44 0.85 11.71
5/22/2021 5:30:00 PM 17.9 64.22 0.638 8.43 0.87 11.52
5/22/2021 5:45:00 PM 17.87 64.166 0.637 8.42 1.14 11.39
5/22/2021 6:00:00 PM 17.86 64.148 0.639 8.41 1.14 11.27
5/22/2021 6:15:00 PM 17.84 64.112 0.639 8.4 1.33 11.18
5/22/2021 6:30:00 PM 17.82 64.076 0.639 8.4 0.61 11.01
5/22/2021 6:45:00 PM 17.79 64.022 0.638 8.37 1.12 10.81
5/22/2021 7:00:00 PM 17.76 63.968 0.638 8.35 1.38 10.57
5/22/2021 7:15:00 PM 17.72 63.896 0.639 8.34 2.38 10.3
5/22/2021 7:30:00 PM 17.68 63.824 0.638 8.32 6.91 10.04
5/22/2021 7:45:00 PM 17.64 63.752 0.64 8.3 9.24 9.82
5/22/2021 8:00:00 PM 17.6 63.68 0.641 8.27 2.02 9.62
5/22/2021 8:15:00 PM 17.55 63.59 0.641 8.26 0.96 9.46
5/22/2021 8:30:00 PM 17.51 63.518 0.641 8.24 2.01 9.29
5/22/2021 8:45:00 PM 17.47 63.446 0.64 8.22 2.09 9.13
5/22/2021 9:00:00 PM 17.43 63.374 0.641 8.2 2.12 8.97
5/22/2021 9:15:00 PM 17.38 63.284 0.641 8.19 1.25 8.83
5/22/2021 9:30:00 PM 17.33 63.194 0.642 8.17 1.19 8.71
5/22/2021 9:45:00 PM 17.29 63.122 0.643 8.16 1.75 8.62
5/22/2021 10:00:00 PM 17.26 63.068 0.642 8.15 1.29 8.54
5/22/2021 10:15:00 PM 17.22 62.996 0.642 8.14 2.06 8.46
5/22/2021 10:30:00 PM 17.19 62.942 0.642 8.13 1.67 8.39
5/22/2021 10:45:00 PM 17.17 62.906 0.642 8.12 1.27 8.31
5/22/2021 11:00:00 PM 17.15 62.87 0.642 8.11 2.01 8.25
5/22/2021 11:15:00 PM 17.13 62.834 0.641 8.1 1.53 8.19
5/22/2021 11:30:00 PM 17.1 62.78 0.642 8.09 1.89 8.14
5/22/2021 11:45:00 PM 17.08 62.744 0.642 8.08 1.47 8.08
5/23/2021 12:00:00 AM 17.06 62.708 0.642 8.07 2.21 8.04
5/23/2021 12:15:00 AM 17.03 62.654 0.643 8.06 1.99 7.99
5/23/2021 12:30:00 AM 17.01 62.618 0.642 8.06 8.96 7.96
5/23/2021 12:45:00 AM 16.98 62.564 0.642 8.05 2.89 7.93
5/23/2021 1:00:00 AM 16.96 62.528 0.643 8.04 1.51 7.9
5/23/2021 1:15:00 AM 16.94 62.492 0.643 8.04 1.87 7.88
5/23/2021 1:30:00 AM 16.91 62.438 0.643 8.03 3.04 7.87
5/23/2021 1:45:00 AM 16.87 62.366 0.643 8.03 2.27 7.89
5/23/2021 2:00:00 AM 16.91 62.438 0.644 8.02 2.72 7.87
5/23/2021 2:15:00 AM 16.99 62.582 0.647 8.02 1.5 7.83
5/23/2021 2:30:00 AM 17.05 62.69 0.649 8.02 2.25 7.8
5/23/2021 2:45:00 AM 17.08 62.744 0.65 8.01 2.45 7.76
5/23/2021 3:00:00 AM 17.09 62.762 0.651 8 1.7 7.74
5/23/2021 3:15:00 AM 17.09 62.762 0.65 8.01 2.18 7.73
5/23/2021 3:30:00 AM 17.07 62.726 0.65 8 1.96 7.72
5/23/2021 4:00:00 AM 17.02 62.636 0.65 8 2.96 7.7
5/23/2021 4:15:00 AM 16.99 62.582 0.649 8 2.49 7.7
5/23/2021 4:30:00 AM 16.97 62.546 0.649 7.99 2.21 7.69
5/23/2021 4:45:00 AM 16.94 62.492 0.648 7.99 2.6 7.68
5/23/2021 5:00:00 AM 16.92 62.456 0.647 7.99 2.22 7.67
5/23/2021 5:15:00 AM 16.89 62.402 0.65 7.98 2.18 7.66
5/23/2021 5:30:00 AM 16.87 62.366 0.648 7.98 2.17 7.62
5/23/2021 5:45:00 AM 16.81 62.258 0.648 7.98 1.79 7.59
5/23/2021 6:00:00 AM 16.71 62.078 0.645 7.97 2.04 7.62
5/23/2021 6:15:00 AM 16.6 61.88 0.643 7.97 1.17 7.66
5/23/2021 6:30:00 AM 16.51 61.718 0.64 7.96 2.63 7.71
5/23/2021 6:45:00 AM 16.44 61.592 0.64 7.96 1.27 7.78
5/23/2021 7:00:00 AM 16.4 61.52 0.639 7.97 1.19 7.88
5/23/2021 7:15:00 AM 16.37 61.466 0.638 7.96 1.34 8
5/23/2021 7:30:00 AM 16.36 61.448 0.639 7.98 0.99 8.15
5/23/2021 7:45:00 AM 16.37 61.466 0.639 7.99 2.01 8.34
5/23/2021 8:00:00 AM 16.39 61.502 0.638 8.01 1.22 8.57
5/23/2021 8:15:00 AM 16.43 61.574 0.639 8.02 1.25 8.8
5/23/2021 8:30:00 AM 16.5 61.7 0.637 8.04 1.05 9.04
5/23/2021 8:45:00 AM 16.58 61.844 0.638 8.06 0.93 9.3
5/23/2021 9:00:00 AM 16.67 62.006 0.638 8.09 0.97 9.54
5/23/2021 9:15:00 AM 16.78 62.204 0.637 8.11 1.18 9.78
5/23/2021 9:30:00 AM 16.91 62.438 0.636 8.14 1 10
5/23/2021 9:45:00 AM 17.05 62.69 0.636 8.16 0.95 10.25
5/23/2021 10:00:00 AM 17.19 62.942 0.635 8.19 0.78 10.45
5/23/2021 10:15:00 AM 17.34 63.212 0.636 8.21 1.06 10.65
5/23/2021 10:30:00 AM 17.49 63.482 0.635 8.23 1.57 10.8
5/23/2021 10:45:00 AM 17.64 63.752 0.636 8.26 0.75 10.99
5/23/2021 11:00:00 AM 17.82 64.076 0.635 8.27 0.86 11.17
5/23/2021 11:15:00 AM 17.99 64.382 0.635 8.3 0.95 11.33
5/23/2021 11:30:00 AM 18.15 64.67 0.635 8.32 0.59 11.49
5/23/2021 11:45:00 AM 18.32 64.976 0.636 8.34 0.93 11.62
5/23/2021 12:00:00 PM 18.45 65.21 0.634 8.36 0.87 11.68
5/23/2021 12:15:00 PM 18.56 65.408 0.635 8.38 0.92 11.77
5/23/2021 12:30:00 PM 18.71 65.67799 0.636 8.38 0.7 11.86
5/23/2021 12:45:00 PM 18.87 65.966 0.634 8.41 0.84 11.97
5/23/2021 1:00:00 PM 18.96 66.128 0.635 8.42 1.21 12.01
5/23/2021 1:15:00 PM 19.05 66.29 0.635 8.43 0.86 12.06
5/23/2021 1:30:00 PM 19.06 66.308 0.634 8.43 0.87 12.04
5/23/2021 1:45:00 PM 19.07 66.326 0.633 8.43 0.77 12.01
5/23/2021 2:00:00 PM 19.12 66.416 0.635 8.44 1.66 12.04
5/23/2021 2:15:00 PM 19.07 66.326 0.634 8.44 1.44 11.93
5/23/2021 2:30:00 PM 19.09 66.362 0.634 8.43 1.24 11.86
5/23/2021 2:45:00 PM 19.13 66.434 0.635 8.44 1.11 11.9
5/23/2021 3:00:00 PM 19.07 66.326 0.632 8.43 0.94 11.83
5/23/2021 3:15:00 PM 19.11 66.398 0.633 8.44 0.82 11.85
5/23/2021 3:30:00 PM 19.2 66.56 0.634 8.46 2.35 11.87
5/23/2021 3:45:00 PM 19.27 66.686 0.632 8.47 0.8 11.92
5/23/2021 4:00:00 PM 19.29 66.722 0.631 8.47 0.85 11.89
5/23/2021 4:15:00 PM 19.24 66.632 0.635 8.47 1.07 11.8
5/23/2021 4:30:00 PM 19.22 66.596 0.635 8.47 1.13 11.67
5/23/2021 4:45:00 PM 19.21 66.578 0.635 8.46 1.39 11.61
5/23/2021 5:00:00 PM 19.2 66.56 0.634 8.46 0.87 11.52
5/23/2021 5:15:00 PM 19.18 66.524 0.635 8.46 0.75 11.41
5/23/2021 5:30:00 PM 19.17 66.506 0.635 8.46 0.94 11.28
5/23/2021 5:45:00 PM 19.16 66.488 0.635 8.45 1.52 11.16
5/23/2021 6:00:00 PM 19.13 66.434 0.635 8.44 0.88 10.99
5/23/2021 6:15:00 PM 19.08 66.344 0.635 8.43 0.84 10.77
5/23/2021 6:30:00 PM 19.02 66.236 0.636 8.41 0.98 10.57
5/23/2021 6:45:00 PM 18.95 66.11 0.636 8.4 1.43 10.31
5/23/2021 7:00:00 PM 18.89 66.002 0.636 8.38 0.64 10.11
5/23/2021 7:15:00 PM 18.84 65.912 0.638 8.36 0.72 9.91
5/23/2021 7:30:00 PM 18.79 65.82201 0.637 8.34 1.16 9.73
5/23/2021 7:45:00 PM 18.74 65.732 0.637 8.32 2.68 9.54
5/23/2021 8:00:00 PM 18.69 65.642 0.638 8.3 1.41 9.32
5/23/2021 8:15:00 PM 18.65 65.57 0.638 8.28 0.99 9.08
5/23/2021 8:30:00 PM 18.61 65.498 0.638 8.25 0.87 8.89
5/23/2021 8:45:00 PM 18.56 65.408 0.638 8.23 1.29 8.73
5/23/2021 9:00:00 PM 18.51 65.318 0.639 8.21 1.12 8.58
5/23/2021 9:15:00 PM 18.45 65.21 0.638 8.2 3.39 8.45
5/23/2021 9:30:00 PM 18.4 65.12 0.638 8.18 1.25 8.34
5/23/2021 9:45:00 PM 18.35 65.03 0.637 8.17 1.69 8.25
5/23/2021 10:00:00 PM 18.3 64.94 0.638 8.15 2.91 8.14
5/23/2021 10:15:00 PM 18.26 64.868 0.638 8.14 1.27 8.07
5/23/2021 10:30:00 PM 18.23 64.814 0.638 8.13 1.47 7.98
5/23/2021 10:45:00 PM 18.2 64.76 0.638 8.12 2.01 7.9
5/23/2021 11:00:00 PM 18.17 64.706 0.638 8.11 2.94 7.83
5/23/2021 11:15:00 PM 18.14 64.652 0.638 8.1 1.55 7.76
5/23/2021 11:30:00 PM 18.12 64.616 0.639 8.09 1.67 7.72
5/23/2021 11:45:00 PM 18.09 64.562 0.638 8.09 2.14 7.67
5/24/2021 12:00:00 AM 18.06 64.508 0.638 8.08 1.42 7.63
5/24/2021 12:15:00 AM 18.03 64.454 0.639 8.07 1.59 7.6
5/24/2021 12:30:00 AM 18 64.4 0.639 8.06 2.62 7.55
5/24/2021 12:45:00 AM 17.96 64.328 0.639 8.07 2.18 7.52
5/24/2021 1:00:00 AM 17.92 64.256 0.639 8.05 1.9 7.5
5/24/2021 1:15:00 AM 17.89 64.202 0.64 8.05 1.71 7.48
5/24/2021 1:30:00 AM 17.85 64.13 0.64 8.05 2.81 7.45
5/24/2021 1:45:00 AM 17.81 64.058 0.64 8.04 2.01 7.42
5/24/2021 2:00:00 AM 17.76 63.968 0.64 8.04 2.3 7.41
5/24/2021 2:15:00 AM 17.72 63.896 0.641 8.03 2.75 7.39
5/24/2021 2:30:00 AM 17.67 63.806 0.641 8.02 2.24 7.38
5/24/2021 2:45:00 AM 17.63 63.734 0.641 8.02 1.81 7.37
5/24/2021 3:00:00 AM 17.58 63.644 0.641 8.02 1.83 7.37
5/24/2021 3:15:00 AM 17.53 63.554 0.641 8.02 1.57 7.36
5/24/2021 3:30:00 AM 17.49 63.482 0.64 8.02 1.67 7.36
5/24/2021 3:45:00 AM 17.45 63.41 0.64 8.02 2.94 7.36
5/24/2021 4:00:00 AM 17.41 63.338 0.64 8.02 2.22 7.36
5/24/2021 4:15:00 AM 17.37 63.266 0.639 8.02 4.21 7.35
5/24/2021 4:30:00 AM 17.34 63.212 0.641 8.02 1.72 7.34
5/24/2021 4:45:00 AM 17.3 63.14 0.64 8.02 3.04 7.33
5/24/2021 5:00:00 AM 17.27 63.086 0.64 8.02 2.43 7.32
5/24/2021 5:15:00 AM 17.25 63.05 0.641 8.01 2.7 7.33
5/24/2021 5:30:00 AM 17.24 63.032 0.642 8.01 3.1 7.29
5/24/2021 5:45:00 AM 17.23 63.014 0.643 8 2.11 7.26
5/24/2021 6:00:00 AM 17.21 62.978 0.643 8.01 3.37 7.25
5/24/2021 6:15:00 AM 17.19 62.942 0.644 7.99 1.78 7.26
5/24/2021 6:30:00 AM 17.16 62.888 0.644 7.99 2.16 7.29
5/24/2021 6:45:00 AM 17.12 62.816 0.644 8 1.5 7.36
5/24/2021 7:00:00 AM 17.08 62.744 0.645 8 4.19 7.47
5/24/2021 7:15:00 AM 17.03 62.654 0.644 8.01 1.73 7.6
5/24/2021 7:30:00 AM 16.96 62.528 0.644 8.01 1.31 7.74
5/24/2021 7:45:00 AM 16.92 62.456 0.643 8.01 1.4 7.87
5/24/2021 8:00:00 AM 16.87 62.366 0.643 8.01 2.22 7.92
5/24/2021 8:15:00 AM 16.83 62.294 0.644 8.02 1.21 7.99
5/24/2021 8:30:00 AM 16.8 62.24 0.643 8.02 2.27 8.07
5/24/2021 8:45:00 AM 16.77 62.186 0.637 8.03 1.25 8.13
5/24/2021 9:00:00 AM 16.73 62.114 0.637 8.04 1.2 8.18
5/24/2021 9:15:00 AM 16.7 62.06 0.639 8.04 2.24 8.23
5/24/2021 9:30:00 AM 16.66 61.988 0.638 8.04 1.06 8.27
5/24/2021 9:45:00 AM 16.62 61.916 0.636 8.05 1.07 8.3
5/24/2021 10:00:00 AM 16.59 61.862 0.635 8.05 0.88 8.34
5/24/2021 10:15:00 AM 16.55 61.79 0.638 8.06 1.08 8.41
5/24/2021 10:30:00 AM 16.52 61.736 0.635 8.06 1.23 8.46
5/24/2021 10:45:00 AM 16.5 61.7 0.635 8.07 0.95 8.54
5/24/2021 11:00:00 AM 16.48 61.664 0.634 8.07 1.15 8.62
5/24/2021 11:15:00 AM 16.46 61.628 0.634 8.08 1.12 8.73
5/24/2021 11:30:00 AM 16.44 61.592 0.637 8.09 0.89 8.81
5/24/2021 11:45:00 AM 16.42 61.556 0.635 8.1 1.08 8.85
5/24/2021 12:00:00 PM 16.41 61.538 0.634 8.1 0.97 8.91
5/24/2021 12:15:00 PM 16.4 61.52 0.634 8.1 1.11 9.04
5/24/2021 12:30:00 PM 16.39 61.502 0.634 8.11 0.81 9.1
5/24/2021 12:45:00 PM 16.37 61.466 0.634 8.11 0.73 9.17
5/24/2021 1:00:00 PM 16.35 61.43 0.634 8.12 0.82 9.19
5/24/2021 1:15:00 PM 16.31 61.358 0.634 8.12 1.43 9.11
5/24/2021 1:30:00 PM 16.28 61.304 0.634 8.12 0.89 9.12
5/24/2021 1:45:00 PM 16.27 61.286 0.633 8.13 1.05 9.23
5/24/2021 2:00:00 PM 16.25 61.25 0.632 8.13 0.83 9.35
5/24/2021 2:15:00 PM 16.23 61.214 0.634 8.14 1.57 9.45
5/24/2021 2:30:00 PM 16.21 61.178 0.635 8.15 0.98 9.51
5/24/2021 2:45:00 PM 16.18 61.124 0.635 8.15 0.76 9.48
5/24/2021 3:00:00 PM 16.16 61.088 0.635 8.15 1.48 9.55
5/24/2021 3:15:00 PM 16.14 61.052 0.633 8.16 1.92 9.61
5/24/2021 3:30:00 PM 16.11 60.998 0.633 8.16 1.13 9.64
5/24/2021 3:45:00 PM 16.09 60.962 0.631 8.17 0.91 9.71
5/24/2021 4:00:00 PM 16.07 60.926 0.632 8.17 0.93 9.81
5/24/2021 4:15:00 PM 16.05 60.89 0.632 8.17 0.71 9.86
5/24/2021 4:30:00 PM 16.03 60.854 0.632 8.18 0.84 9.92
5/24/2021 4:45:00 PM 16 60.8 0.632 8.19 1 9.91
5/24/2021 5:00:00 PM 15.98 60.764 0.632 8.19 0.98 9.92
5/24/2021 5:15:00 PM 15.96 60.728 0.633 8.19 1.36 9.96
5/24/2021 5:30:00 PM 15.93 60.674 0.633 8.2 1.14 9.92
5/24/2021 5:45:00 PM 15.9 60.62 0.633 8.19 1.16 9.92
5/24/2021 6:00:00 PM 15.88 60.584 0.632 8.19 1.12 9.89
5/24/2021 6:15:00 PM 15.84 60.512 0.631 8.19 1.17 9.86
5/24/2021 6:30:00 PM 15.81 60.458 0.631 8.19 0.94 9.8
5/24/2021 6:45:00 PM 15.77 60.386 0.633 8.18 0.94 9.72
5/24/2021 7:00:00 PM 15.73 60.314 0.633 8.18 0.96 9.63
5/24/2021 7:15:00 PM 15.69 60.242 0.634 8.18 1.56 9.51
5/24/2021 7:30:00 PM 15.66 60.188 0.632 8.17 0.96 9.38
5/24/2021 7:45:00 PM 15.61 60.098 0.633 8.16 1.16 9.29
5/24/2021 8:00:00 PM 15.57 60.026 0.632 8.15 1.2 9.17
5/24/2021 8:15:00 PM 15.54 59.972 0.633 8.14 10.35 9.09
5/24/2021 8:30:00 PM 15.5 59.9 0.633 8.13 1.4 9
5/24/2021 8:45:00 PM 15.47 59.846 0.634 8.1 1.18 8.92
5/24/2021 9:00:00 PM 15.43 59.774 0.634 8.11 1.43 8.88
5/24/2021 9:15:00 PM 15.4 59.72 0.634 8.11 3.62 8.81
5/24/2021 9:30:00 PM 15.37 59.666 0.633 8.1 1.69 8.79
5/24/2021 9:45:00 PM 15.34 59.612 0.633 8.1 2.12 8.75
5/24/2021 10:00:00 PM 15.31 59.558 0.632 8.1 2.17 8.72
5/24/2021 10:15:00 PM 15.29 59.522 0.632 8.09 2 8.68
5/24/2021 10:30:00 PM 15.26 59.468 0.632 8.09 1.68 8.66
5/24/2021 10:45:00 PM 15.23 59.414 0.633 8.08 2.24 8.64
5/24/2021 11:00:00 PM 15.21 59.378 0.632 8.08 2.51 8.62
5/24/2021 11:15:00 PM 15.18 59.324 0.634 8.08 4.55 8.6
5/24/2021 11:30:00 PM 15.16 59.288 0.634 8.08 1.71 8.58
5/24/2021 11:45:00 PM 15.13 59.234 0.634 8.07 2.49 8.57
5/25/2021 12:00:00 AM 15.1 59.18 0.635 8.07 1.66 8.55
5/25/2021 12:15:00 AM 15.08 59.144 0.635 8.07 2.85 8.55
5/25/2021 12:30:00 AM 15.06 59.108 0.635 8.07 1.89 8.54
5/25/2021 12:45:00 AM 15.04 59.072 0.634 8.07 2.63 8.54
5/25/2021 1:00:00 AM 15.01 59.018 0.633 8.06 1.96 8.52
5/25/2021 1:15:00 AM 14.99 58.982 0.635 8.06 2.57 8.53
5/25/2021 1:30:00 AM 14.97 58.946 0.636 8.06 2.72 8.52
5/25/2021 1:45:00 AM 14.95 58.91 0.636 8.06 2.39 8.51
5/25/2021 2:00:00 AM 14.92 58.856 0.635 8.05 1.43 8.5
5/25/2021 2:15:00 AM 14.9 58.82 0.636 8.04 2.03 8.5
5/25/2021 2:30:00 AM 14.88 58.784 0.636 8.04 1.51 8.5
5/25/2021 2:45:00 AM 14.85 58.73 0.637 8.04 1.89 8.49
5/25/2021 3:00:00 AM 14.83 58.694 0.637 8.04 2.75 8.48
5/25/2021 3:15:00 AM 14.81 58.658 0.637 8.04 2.72 8.47
5/25/2021 3:30:00 AM 14.79 58.622 0.637 8.04 4.03 8.47
5/25/2021 3:45:00 AM 14.77 58.586 0.637 8.04 2.11 8.46
5/25/2021 4:00:00 AM 14.75 58.55 0.637 8.04 2.08 8.46
5/25/2021 4:15:00 AM 14.73 58.514 0.637 8.03 3.05 8.45
5/25/2021 4:30:00 AM 14.71 58.478 0.637 8.03 2.61 8.45
5/25/2021 4:45:00 AM 14.69 58.442 0.638 8.03 7.28 8.44
5/25/2021 5:00:00 AM 14.67 58.406 0.636 8.04 2.92 8.45
5/25/2021 5:15:00 AM 14.65 58.37 0.639 8.03 2.5 8.46
5/25/2021 5:30:00 AM 14.63 58.334 0.639 8.03 3.05 8.47
5/25/2021 5:45:00 AM 14.62 58.316 0.637 8.04 3.63 8.46
5/25/2021 6:00:00 AM 14.6 58.28 0.638 8.04 2.35 8.48
5/25/2021 6:15:00 AM 14.58 58.244 0.638 8.04 3.35 8.49
5/25/2021 6:30:00 AM 14.57 58.226 0.638 8.04 1.7 8.53
5/25/2021 6:45:00 AM 14.56 58.208 0.637 8.04 1.54 8.6
5/25/2021 7:00:00 AM 14.56 58.208 0.637 8.05 1.71 8.69
5/25/2021 7:15:00 AM 14.56 58.208 0.635 8.05 1.91 8.81
5/25/2021 7:30:00 AM 14.57 58.226 0.636 8.06 1.4 8.95
5/25/2021 7:45:00 AM 14.58 58.244 0.636 8.06 1.42 9.1
5/25/2021 8:00:00 AM 14.6 58.28 0.634 8.08 1.22 9.25
5/25/2021 8:15:00 AM 14.63 58.334 0.636 8.09 1.79 9.43
5/25/2021 8:30:00 AM 14.65 58.37 0.636 8.11 1.93 9.59
5/25/2021 8:45:00 AM 14.67 58.406 0.636 8.11 1.08 9.69
5/25/2021 9:00:00 AM 14.68 58.424 0.636 8.12 0.95 9.75
5/25/2021 9:15:00 AM 14.7 58.46 0.636 8.13 2.92 9.87
5/25/2021 9:30:00 AM 14.72 58.496 0.635 8.14 0.59 9.99
5/25/2021 9:45:00 AM 14.74 58.532 0.636 8.15 1.08 10.08
5/25/2021 10:00:00 AM 14.76 58.568 0.635 8.16 4.71 10.23
5/25/2021 10:15:00 AM 14.78 58.604 0.634 8.18 1.42 10.34
5/25/2021 10:30:00 AM 14.82 58.676 0.634 8.19 0.71 10.49
5/25/2021 10:45:00 AM 14.88 58.784 0.633 8.21 0.77 10.72
5/25/2021 11:00:00 AM 14.93 58.874 0.634 8.22 1.72 10.89
5/25/2021 11:15:00 AM 14.99 58.982 0.634 8.24 0.52 11.03
5/25/2021 11:30:00 AM 15.04 59.072 0.633 8.25 1.14 11.15
5/25/2021 11:45:00 AM 15.09 59.162 0.634 8.27 1.14 11.28
5/25/2021 12:00:00 PM 15.16 59.288 0.632 8.29 0.98 11.42
5/25/2021 12:15:00 PM 15.22 59.396 0.633 8.3 0.71 11.56
5/25/2021 12:30:00 PM 15.31 59.558 0.631 8.32 0.69 11.73
5/25/2021 12:45:00 PM 15.39 59.702 0.63 8.34 1.01 11.89
5/25/2021 1:00:00 PM 15.47 59.846 0.632 8.36 1.02 12.02
5/25/2021 1:15:00 PM 15.57 60.026 0.632 8.37 0.62 12.14
5/25/2021 1:30:00 PM 15.66 60.188 0.632 8.39 0.86 12.24
5/25/2021 1:45:00 PM 15.78 60.404 0.634 8.4 0.7 12.36
5/25/2021 2:00:00 PM 15.9 60.62 0.631 8.43 0.64 12.49
5/25/2021 2:15:00 PM 16.04 60.872 0.632 8.44 1.2 12.59
5/25/2021 2:30:00 PM 16.12 61.016 0.627 8.45 0.65 12.67
5/25/2021 2:45:00 PM 16.16 61.088 0.628 8.46 0.61 12.69
5/25/2021 3:00:00 PM 16.27 61.286 0.628 8.48 1.22 12.75
5/25/2021 3:15:00 PM 16.39 61.502 0.625 8.49 0.81 12.81
5/25/2021 3:30:00 PM 16.53 61.754 0.624 8.5 0.93 12.87
5/25/2021 3:45:00 PM 16.67 62.006 0.624 8.51 0.91 12.93
5/25/2021 4:00:00 PM 16.71 62.078 0.627 8.52 0.9 12.88
5/25/2021 4:15:00 PM 16.72 62.096 0.627 8.51 0.86 12.81
5/25/2021 4:30:00 PM 16.73 62.114 0.628 8.51 1.13 12.71
5/25/2021 4:45:00 PM 16.74 62.132 0.627 8.5 0.8 12.64
5/25/2021 5:00:00 PM 16.75 62.15 0.628 8.49 0.65 12.54
5/25/2021 5:15:00 PM 16.75 62.15 0.626 8.49 0.67 12.45
5/25/2021 5:30:00 PM 16.72 62.096 0.626 8.49 0.81 12.32
5/25/2021 5:45:00 PM 16.68 62.024 0.629 8.47 1.05 12.16
5/25/2021 6:00:00 PM 16.63 61.934 0.63 8.45 1.22 11.99
5/25/2021 6:15:00 PM 16.59 61.862 0.629 8.44 0.74 11.78
5/25/2021 6:30:00 PM 16.55 61.79 0.63 8.44 0.67 11.62
5/25/2021 6:45:00 PM 16.52 61.736 0.63 8.42 0.9 11.41
5/25/2021 7:00:00 PM 16.49 61.682 0.629 8.4 0.92 11.2
5/25/2021 7:15:00 PM 16.45 61.61 0.632 8.39 2.04 10.96
5/25/2021 7:30:00 PM 16.41 61.538 0.63 8.37 1.19 10.77
5/25/2021 7:45:00 PM 16.38 61.484 0.631 8.36 0.7 10.54
5/25/2021 8:00:00 PM 16.34 61.412 0.633 8.33 0.98 10.31
5/25/2021 8:15:00 PM 16.31 61.358 0.633 8.32 0.85 10.09
5/25/2021 8:30:00 PM 16.28 61.304 0.633 8.29 1.05 9.89
5/25/2021 8:45:00 PM 16.24 61.232 0.633 8.27 1.45 9.7
5/25/2021 9:00:00 PM 16.21 61.178 0.633 8.26 1.41 9.55
5/25/2021 9:15:00 PM 16.18 61.124 0.631 8.24 1.98 9.39
5/25/2021 9:30:00 PM 16.14 61.052 0.634 8.21 1.38 9.27
5/25/2021 9:45:00 PM 16.12 61.016 0.634 8.2 1.43 9.15
5/25/2021 10:00:00 PM 16.09 60.962 0.633 8.19 1.49 9.05
5/25/2021 10:15:00 PM 16.08 60.944 0.632 8.18 1.29 8.95
5/25/2021 10:30:00 PM 16.06 60.908 0.631 8.16 1.07 8.88
5/25/2021 10:45:00 PM 16.04 60.872 0.632 8.15 3.22 8.8
5/25/2021 11:00:00 PM 16.02 60.836 0.634 8.15 1.67 8.72
5/25/2021 11:15:00 PM 16.01 60.818 0.633 8.15 1.35 8.64
5/25/2021 11:30:00 PM 15.99 60.782 0.634 8.14 1.67 8.59
5/25/2021 11:45:00 PM 15.97 60.746 0.632 8.13 1.53 8.53
5/26/2021 12:00:00 AM 15.95 60.71 0.634 8.12 2.41 8.48
5/26/2021 12:15:00 AM 15.93 60.674 0.632 8.11 1.98 8.43
5/26/2021 12:30:00 AM 15.91 60.638 0.634 8.1 1.68 8.39
5/26/2021 12:45:00 AM 15.89 60.602 0.633 8.1 1.87 8.36
5/26/2021 1:00:00 AM 15.87 60.566 0.634 8.09 1.96 8.31
5/26/2021 1:15:00 AM 15.85 60.53 0.633 8.09 1.53 8.28
5/26/2021 1:30:00 AM 15.83 60.494 0.634 8.08 1.97 8.25
5/26/2021 1:45:00 AM 15.8 60.44 0.633 8.08 1.81 8.24
5/26/2021 2:00:00 AM 15.78 60.404 0.633 8.08 3.46 8.21
5/26/2021 2:15:00 AM 15.76 60.368 0.633 8.07 2.83 8.19
5/26/2021 2:30:00 AM 15.74 60.332 0.632 8.06 2.29 8.16
5/26/2021 2:45:00 AM 15.72 60.296 0.633 8.06 2.13 8.14
5/26/2021 3:00:00 AM 15.7 60.26 0.633 8.06 2.69 8.12
5/26/2021 3:15:00 AM 15.68 60.224 0.632 8.05 3.41 8.11
5/26/2021 3:30:00 AM 15.65 60.17 0.631 8.05 2.62 8.09
5/26/2021 3:45:00 AM 15.63 60.134 0.631 8.05 2.16 8.08
5/26/2021 4:00:00 AM 15.6 60.08 0.632 8.04 2.19 8.08
5/26/2021 4:15:00 AM 15.58 60.044 0.632 8.03 3.36 8.07
5/26/2021 4:30:00 AM 15.56 60.008 0.631 8.03 3.83 8.07
5/26/2021 4:45:00 AM 15.55 59.99 0.632 8.03 2.3 8.05
5/26/2021 5:00:00 AM 15.54 59.972 0.632 8.02 2.14 8.05
5/26/2021 5:15:00 AM 15.52 59.936 0.633 8.02 2.5 8.05
5/26/2021 5:30:00 AM 15.52 59.936 0.632 8.02 2.43 8.04
5/26/2021 5:45:00 AM 15.51 59.918 0.632 8.02 2.56 8.04
5/26/2021 6:00:00 AM 15.5 59.9 0.632 8.01 2.52 8.04
5/26/2021 6:15:00 AM 15.49 59.882 0.632 8.01 1.66 8.05
5/26/2021 6:30:00 AM 15.49 59.882 0.631 8.02 2 8.08
5/26/2021 6:45:00 AM 15.49 59.882 0.63 8.02 2.87 8.13
5/26/2021 7:00:00 AM 15.49 59.882 0.631 8.03 2.02 8.19
5/26/2021 7:15:00 AM 15.5 59.9 0.63 8.03 1.32 8.28
5/26/2021 7:30:00 AM 15.51 59.918 0.63 8.03 1.26 8.4
5/26/2021 7:45:00 AM 15.52 59.936 0.63 8.04 1.09 8.51
5/26/2021 8:00:00 AM 15.55 59.99 0.63 8.05 1.54 8.66
5/26/2021 8:15:00 AM 15.57 60.026 0.631 8.05 1.07 8.81
5/26/2021 8:30:00 AM 15.6 60.08 0.63 8.07 1.1 8.95
5/26/2021 8:45:00 AM 15.63 60.134 0.63 8.08 1.44 9.13
5/26/2021 9:00:00 AM 15.67 60.206 0.63 8.09 1.11 9.3
5/26/2021 9:15:00 AM 15.71 60.278 0.63 8.12 0.75 9.45
5/26/2021 9:30:00 AM 15.76 60.368 0.629 8.14 1.08 9.63
5/26/2021 9:45:00 AM 15.8 60.44 0.628 8.16 0.94 9.78
5/26/2021 10:00:00 AM 15.83 60.494 0.631 8.17 0.9 9.84
5/26/2021 10:15:00 AM 15.88 60.584 0.633 8.17 0.85 9.97
5/26/2021 10:30:00 AM 15.96 60.728 0.632 8.18 1.01 10.2
5/26/2021 10:45:00 AM 16.06 60.908 0.631 8.22 0.87 10.52
5/26/2021 11:00:00 AM 16.19 61.142 0.626 8.25 0.91 10.88
5/26/2021 11:15:00 AM 16.42 61.556 0.628 8.29 1.44 11.3
5/26/2021 11:30:00 AM 16.66 61.988 0.626 8.33 0.7 11.61
5/26/2021 11:45:00 AM 16.87 62.366 0.627 8.36 0.84 11.83
5/26/2021 12:00:00 PM 17.09 62.762 0.624 8.39 0.93 11.99
5/26/2021 12:15:00 PM 17.31 63.158 0.627 8.42 0.89 12.09
5/26/2021 12:30:00 PM 17.5 63.5 0.627 8.44 1.17 12.2
5/26/2021 12:45:00 PM 17.71 63.878 0.626 8.46 0.95 12.29
5/26/2021 1:00:00 PM 17.91 64.238 0.626 8.48 1.34 12.37
5/26/2021 1:15:00 PM 18.11 64.598 0.626 8.5 0.73 12.44
5/26/2021 1:30:00 PM 18.29 64.922 0.626 8.52 0.97 12.54
5/26/2021 1:45:00 PM 18.45 65.21 0.625 8.54 0.89 12.61
5/26/2021 2:00:00 PM 18.6 65.48 0.627 8.54 0.91 12.66
5/26/2021 2:15:00 PM 18.72 65.696 0.625 8.56 0.94 12.64
5/26/2021 2:30:00 PM 18.83 65.894 0.626 8.56 0.89 12.65
5/26/2021 2:45:00 PM 18.89 66.002 0.627 8.56 1.42 12.62
5/26/2021 3:00:00 PM 18.86 65.948 0.627 8.55 1.72 12.51
5/26/2021 3:15:00 PM 18.87 65.966 0.626 8.55 0.72 12.39
5/26/2021 3:30:00 PM 18.81 65.858 0.628 8.55 1.25 12.28
5/26/2021 3:45:00 PM 18.68 65.624 0.627 8.52 1.53 11.92
5/26/2021 4:00:00 PM 18.5 65.3 0.621 8.49 1.95 11.18
5/26/2021 4:15:00 PM 18.35 65.03 0.615 8.46 2.16 10.73
5/26/2021 4:30:00 PM 18.25 64.85 0.618 8.43 2.97 10.46
5/26/2021 4:45:00 PM 18.27 64.886 0.618 8.41 4.78 10.37
5/26/2021 5:00:00 PM 18.3 64.94 0.622 8.41 4.05 10.48
5/26/2021 5:15:00 PM 18.31 64.958 0.621 8.41 3.86 10.55
5/26/2021 5:30:00 PM 18.33 64.994 0.62 8.41 3.56 10.67
5/26/2021 5:45:00 PM 18.33 64.994 0.618 8.41 3.47 10.67
5/26/2021 6:00:00 PM 18.34 65.012 0.616 8.4 3.78 10.55
5/26/2021 6:15:00 PM 18.32 64.976 0.616 8.39 4.2 10.42
5/26/2021 6:30:00 PM 18.28 64.904 0.613 8.37 3.6 10.13
5/26/2021 6:45:00 PM 18.27 64.886 0.618 8.35 3.89 9.79
5/26/2021 7:00:00 PM 18.28 64.904 0.622 8.32 2.53 9.53
5/26/2021 7:15:00 PM 18.29 64.922 0.623 8.3 3.92 9.26
5/26/2021 7:30:00 PM 18.3 64.94 0.622 8.28 5.79 9.09
5/26/2021 7:45:00 PM 18.3 64.94 0.621 8.26 7.54 8.91
5/26/2021 8:00:00 PM 18.3 64.94 0.621 8.24 4.68 8.72
5/26/2021 8:15:00 PM 18.3 64.94 0.617 8.22 6.31 8.54
5/26/2021 8:30:00 PM 18.3 64.94 0.614 8.2 5.69 8.38
5/26/2021 8:45:00 PM 18.3 64.94 0.616 8.19 9.25 8.24
5/26/2021 9:00:00 PM 18.29 64.922 0.617 8.16 8.71 8.15
5/26/2021 9:15:00 PM 18.27 64.886 0.616 8.15 10.21 8.05
5/26/2021 9:30:00 PM 18.25 64.85 0.604 8.13 12.99 7.88
5/26/2021 9:45:00 PM 18.29 64.922 0.588 8.1 18.25 7.55
5/26/2021 10:00:00 PM 18.37 65.066 0.58 8.07 24.76 7.27
5/26/2021 10:15:00 PM 18.42 65.156 0.579 8.05 35.34 7.11
5/26/2021 10:30:00 PM 18.51 65.318 0.57 8.03 27.94 7.06
5/26/2021 10:45:00 PM 18.73 65.714 0.551 8.03 27.49 6.95
5/26/2021 11:00:00 PM 18.93 66.074 0.537 8.01 25 6.8
5/26/2021 11:15:00 PM 19.06 66.308 0.537 7.99 25.75 6.63
5/26/2021 11:30:00 PM 19.2 66.56 0.539 7.98 29.48 6.45
5/26/2021 11:45:00 PM 19.38 66.884 0.543 7.96 34.19 6.31
5/27/2021 12:00:00 AM 19.59 67.262 0.537 7.94 24.44 6.1
5/27/2021 12:15:00 AM 19.88 67.784 0.504 7.93 28.05 5.8
5/27/2021 12:30:00 AM 20.21 68.378 0.447 7.91 23.62 5.48
5/27/2021 12:45:00 AM 20.51 68.918 0.402 7.89 39 5.27
5/27/2021 1:00:00 AM 20.71 69.278 0.374 7.85 44.03 5.15
5/27/2021 1:15:00 AM 20.83 69.494 0.36 7.82 36.22 5
5/27/2021 1:30:00 AM 20.89 69.602 0.351 7.79 40.42 4.85
5/27/2021 1:45:00 AM 20.89 69.602 0.344 7.76 26.55 4.72
5/27/2021 2:00:00 AM 20.87 69.566 0.335 7.74 32.13 4.68
5/27/2021 2:15:00 AM 20.82 69.476 0.326 7.73 35.33 4.72
5/27/2021 2:30:00 AM 20.74 69.332 0.319 7.71 23.75 4.75
5/27/2021 2:45:00 AM 20.65 69.17 0.316 7.71 28.2 4.83
5/27/2021 3:00:00 AM 20.54 68.972 0.315 7.7 26.17 4.89
5/27/2021 3:15:00 AM 20.42 68.756 0.316 7.68 21.45 4.97
5/27/2021 3:30:00 AM 20.3 68.54 0.319 7.68 21.91 5.04
5/27/2021 3:45:00 AM 20.17 68.306 0.322 7.67 18.9 5.12
5/27/2021 4:00:00 AM 20.03 68.054 0.328 7.67 19.15 5.18
5/27/2021 4:15:00 AM 19.9 67.82 0.335 7.67 16.36 5.24
5/27/2021 4:30:00 AM 19.77 67.586 0.342 7.67 16.35 5.28
5/27/2021 4:45:00 AM 19.63 67.334 0.35 7.67 16.22 5.34
5/27/2021 5:00:00 AM 19.5 67.1 0.358 7.67 15.26 5.38
5/27/2021 5:15:00 AM 19.36 66.848 0.367 7.66 15.44 5.43
5/27/2021 5:30:00 AM 19.23 66.614 0.375 7.66 16.85 5.49
5/27/2021 5:45:00 AM 19.1 66.38 0.384 7.67 13.69 5.55
5/27/2021 6:00:00 AM 18.98 66.164 0.392 7.66 22.42 5.58
5/27/2021 6:15:00 AM 18.85 65.93 0.4 7.67 13.88 5.65
5/27/2021 6:30:00 AM 18.74 65.732 0.407 7.66 14.5 5.72
5/27/2021 6:45:00 AM 18.64 65.552 0.413 7.67 15.79 5.8
5/27/2021 7:00:00 AM 18.55 65.39 0.419 7.68 11.73 5.87
5/27/2021 7:15:00 AM 18.47 65.246 0.425 7.69 10.08 5.95
5/27/2021 7:30:00 AM 18.41 65.138 0.431 7.69 11.91 5.99
5/27/2021 7:45:00 AM 18.36 65.048 0.436 7.69 10.55 6.12
5/27/2021 8:00:00 AM 18.33 64.994 0.442 7.71 10.68 6.23
5/27/2021 8:15:00 AM 18.31 64.958 0.448 7.72 9.93 6.43
5/27/2021 8:30:00 AM 18.32 64.976 0.453 7.74 9.12 6.62
5/27/2021 8:45:00 AM 18.31 64.958 0.459 7.75 9.69 6.82
5/27/2021 9:00:00 AM 18.29 64.922 0.464 7.77 7.16 6.94
5/27/2021 9:15:00 AM 18.32 64.976 0.469 7.78 8.26 7.15
5/27/2021 9:30:00 AM 18.38 65.084 0.473 7.8 5.78 7.44
5/27/2021 9:45:00 AM 18.44 65.192 0.477 7.82 8.23 7.65
5/27/2021 10:00:00 AM 18.48 65.264 0.48 7.84 5.98 7.83
5/27/2021 10:15:00 AM 18.52 65.336 0.484 7.8 6.48 7.98
5/27/2021 10:30:00 AM 18.57 65.426 0.487 7.86 6.18 8.12
5/27/2021 10:45:00 AM 18.66 65.588 0.49 7.82 5.86 8.36
5/27/2021 11:00:00 AM 18.7 65.66 0.494 7.9 7.62 8.49
5/27/2021 11:15:00 AM 18.75 65.75 0.498 7.91 5.28 8.6
5/27/2021 11:30:00 AM 18.85 65.93 0.502 7.94 5.96 8.8
5/27/2021 11:45:00 AM 18.92 66.056 0.506 7.96 5.4 8.96
5/27/2021 12:00:00 PM 19.04 66.272 0.51 7.98 5.61 9.18
5/27/2021 12:15:00 PM 19.14 66.452 0.514 8 4.34 9.37
5/27/2021 12:30:00 PM 19.24 66.632 0.519 8.02 5.1 9.54
5/27/2021 12:45:00 PM 19.33 66.794 0.523 8.03 15.22 9.7
5/27/2021 1:00:00 PM 19.43 66.974 0.527 8.06 4.18 9.84
5/27/2021 1:15:00 PM 19.53 67.154 0.53 8.08 4.19 9.98
5/27/2021 1:30:00 PM 19.61 67.298 0.534 8.08 3.72 10.08
5/27/2021 1:45:00 PM 19.69 67.442 0.536 8.11 3.86 10.16
5/27/2021 2:00:00 PM 19.76 67.568 0.539 8.09 3.19 10.22
5/27/2021 2:15:00 PM 19.82 67.676 0.541 8.07 4.45 10.28
5/27/2021 2:30:00 PM 19.86 67.748 0.544 8.11 3.32 10.36
5/27/2021 2:45:00 PM 19.89 67.802 0.546 8.14 3.77 10.34
5/27/2021 3:00:00 PM 19.91 67.838 0.548 8.16 2.8 10.41
5/27/2021 3:15:00 PM 19.92 67.856 0.55 8.17 2.91 10.4
5/27/2021 3:30:00 PM 19.92 67.856 0.551 8.19 3.65 10.4
5/27/2021 3:45:00 PM 19.86 67.748 0.553 8.19 3.56 10.31
5/27/2021 4:00:00 PM 19.8 67.64 0.555 8.19 2.35 10.21
5/27/2021 4:15:00 PM 19.74 67.532 0.557 8.17 2.79 10.14
5/27/2021 4:30:00 PM 19.66 67.388 0.558 8.18 2.56 10.07
5/27/2021 4:45:00 PM 19.62 67.316 0.56 8.18 5.35 10.02
5/27/2021 5:00:00 PM 19.59 67.262 0.562 8.19 3.67 9.96
5/27/2021 5:15:00 PM 19.55 67.19 0.564 8.19 3.52 9.9
5/27/2021 5:30:00 PM 19.52 67.136 0.566 8.19 2.47 9.79
5/27/2021 5:45:00 PM 19.47 67.046 0.567 8.18 3.11 9.65
5/27/2021 6:00:00 PM 19.43 66.974 0.569 8.17 3.11 9.55
5/27/2021 6:15:00 PM 19.36 66.848 0.571 8.17 3.02 9.39
5/27/2021 6:30:00 PM 19.3 66.74 0.572 8.15 5.84 9.2
5/27/2021 6:45:00 PM 19.25 66.65 0.574 8.14 5.98 9.06
5/27/2021 7:00:00 PM 19.2 66.56 0.576 8.12 5.3 8.94
5/27/2021 7:15:00 PM 19.13 66.434 0.578 8.11 2.46 8.75
5/27/2021 7:30:00 PM 19.06 66.308 0.58 8.11 1.7 8.61
5/27/2021 7:45:00 PM 18.99 66.182 0.581 8.09 1.81 8.44
5/27/2021 8:00:00 PM 18.91 66.038 0.583 8.08 6.04 8.3
5/27/2021 8:15:00 PM 18.83 65.894 0.584 8.06 1.95 8.17
5/27/2021 8:30:00 PM 18.75 65.75 0.586 8.05 16.9 8.01
5/27/2021 8:45:00 PM 18.68 65.624 0.585 8.04 2.58 7.9
5/27/2021 9:00:00 PM 18.61 65.498 0.588 8.03 9.97 7.82
5/27/2021 9:15:00 PM 18.54 65.372 0.589 8.02 3.42 7.74
5/27/2021 9:30:00 PM 18.47 65.246 0.59 8.01 3.61 7.65
5/27/2021 9:45:00 PM 18.41 65.138 0.591 8.01 63.3 7.59
5/27/2021 10:00:00 PM 18.34 65.012 0.592 8 26.86 7.52
5/27/2021 10:15:00 PM 18.27 64.886 0.593 8 7.32 7.47
5/27/2021 10:30:00 PM 18.21 64.778 0.594 7.99 44.39 7.43
5/27/2021 10:45:00 PM 18.14 64.652 0.595 7.99 30.05 7.39
5/27/2021 11:00:00 PM 18.07 64.526 0.595 7.99 63.81 7.35
5/27/2021 11:15:00 PM 18.01 64.418 0.596 7.98 18.46 7.33
5/27/2021 11:30:00 PM 17.96 64.328 0.597 7.98 15.33 7.31
5/27/2021 11:45:00 PM 17.9 64.22 0.597 7.98 21.28 7.28
5/28/2021 12:00:00 AM 17.84 64.112 0.599 7.97 10.68 7.27
5/28/2021 12:15:00 AM 17.79 64.022 0.6 7.97 6.34 7.26
5/28/2021 12:30:00 AM 17.74 63.932 0.6 7.96 4.54 7.24
5/28/2021 12:45:00 AM 17.69 63.842 0.601 7.95 4.53 7.26
5/28/2021 1:00:00 AM 17.64 63.752 0.602 7.96 4.82 7.24
5/28/2021 1:15:00 AM 17.6 63.68 0.602 7.96 3.31 7.24
5/28/2021 1:30:00 AM 17.55 63.59 0.603 7.96 3.75 7.24
5/28/2021 1:45:00 AM 17.5 63.5 0.604 7.96 5.01 7.23
5/28/2021 2:00:00 AM 17.45 63.41 0.605 7.96 2.88 7.23
5/28/2021 2:15:00 AM 17.41 63.338 0.606 7.95 8.79 7.24
5/28/2021 2:30:00 AM 17.36 63.248 0.607 7.96 9.51 7.23
5/28/2021 2:45:00 AM 17.31 63.158 0.607 7.97 10.18 7.23
5/28/2021 3:00:00 AM 17.26 63.068 0.608 7.97 23.21 7.24
5/28/2021 3:15:00 AM 17.2 62.96 0.609 7.97 35.02 7.23
5/28/2021 3:30:00 AM 17.14 62.852 0.609 7.96 8.22 7.25
5/28/2021 3:45:00 AM 17.09 62.762 0.61 7.98 8.61 7.26
5/28/2021 4:00:00 AM 17.04 62.672 0.611 7.98 4.82 7.27
5/28/2021 4:15:00 AM 16.98 62.564 0.612 7.99 4.93 7.28
5/28/2021 4:30:00 AM 16.94 62.492 0.612 7.99 4.94 7.29
5/28/2021 4:45:00 AM 16.9 62.42 0.613 8 2.88 7.31
5/28/2021 5:00:00 AM 16.85 62.33 0.614 8 8.93 7.31
5/28/2021 5:15:00 AM 16.8 62.24 0.615 8 9.94 7.33
5/28/2021 5:30:00 AM 16.76 62.168 0.615 7.99 3.67 7.34
5/28/2021 5:45:00 AM 16.7 62.06 0.616 7.93 4.09 7.36
5/28/2021 6:00:00 AM 16.65 61.97 0.616 7.96 2.94 7.38
5/28/2021 6:15:00 AM 16.62 61.916 0.617 7.96 3.52 7.4
5/28/2021 6:30:00 AM 16.58 61.844 0.616 7.96 2.9 7.46
5/28/2021 6:45:00 AM 16.55 61.79 0.617 7.96 3.39 7.54
5/28/2021 7:00:00 AM 16.51 61.718 0.617 7.96 4 7.6
5/28/2021 7:15:00 AM 16.49 61.682 0.618 7.97 3.89 7.69
5/28/2021 7:30:00 AM 16.48 61.664 0.618 7.98 2.67 7.84
5/28/2021 7:45:00 AM 16.47 61.646 0.619 7.99 1.53 7.99
5/28/2021 8:00:00 AM 16.49 61.682 0.619 8 1.56 8.24
5/28/2021 8:15:00 AM 16.5 61.7 0.619 8.03 2.45 8.49
5/28/2021 8:30:00 AM 16.48 61.664 0.621 8.04 1.89 8.58
5/28/2021 8:45:00 AM 16.47 61.646 0.62 8.05 1.63 8.61
5/28/2021 9:00:00 AM 16.46 61.628 0.62 8.05 1.55 8.63
5/28/2021 9:15:00 AM 16.46 61.628 0.62 8.06 2.57 8.71
5/28/2021 9:30:00 AM 16.48 61.664 0.621 8.07 1.19 8.91
5/28/2021 9:45:00 AM 16.51 61.718 0.621 8.08 1.63 9.16
5/28/2021 10:00:00 AM 16.57 61.826 0.622 8.1 1.36 9.4
5/28/2021 10:15:00 AM 16.6 61.88 0.622 8.13 2.1 9.55
5/28/2021 10:30:00 AM 16.61 61.898 0.622 8.14 1.39 9.63
5/28/2021 10:45:00 AM 16.6 61.88 0.622 8.16 1.4 9.67
5/28/2021 11:00:00 AM 16.64 61.952